<?xml version="1.0" encoding="UTF-8" standalone="no" ?><gpx xmlns="http://www.topografix.com/GPX/1/1" xmlns:gpxx="http://www.garmin.com/xmlschemas/GpxExtensions/v3" xmlns:wptx1="http://www.garmin.com/xmlschemas/WaypointExtension/v1" xmlns:gpxtpx="http://www.garmin.com/xmlschemas/TrackPointExtension/v1" creator="GuideVTT.com" version="1.1" xmlns:xsi="http://www.w3.org/2001/XMLSchema-instance" xsi:schemaLocation="http://www.topografix.com/GPX/1/1 http://www.topografix.com/GPX/1/1/gpx.xsd http://www.garmin.com/xmlschemas/GpxExtensions/v3 http://www8.garmin.com/xmlschemas/GpxExtensionsv3.xsd http://www.garmin.com/xmlschemas/WaypointExtension/v1 http://www8.garmin.com/xmlschemas/WaypointExtensionv1.xsd http://www.garmin.com/xmlschemas/TrackPointExtension/v1 http://www.garmin.com/xmlschemas/TrackPointExtensionv1.xsd">
<metadata><link href="http://www.garmin.com"><text>Garmin International</text></link><time>2013-06-22T15:13:50Z</time></metadata>
<trk><name>rp2016_46.gpx</name><extensions><gpxx:TrackExtension><gpxx:DisplayColor>Cyan</gpxx:DisplayColor></gpxx:TrackExtension></extensions><trkseg>
<trkpt lat="46.49449" lon="6.70905"><ele></ele><time>2016-9-26T3:3:46Z</time></trkpt>
<trkpt lat="46.49475" lon="6.70934"><ele></ele><time>2016-9-26T3:3:49Z</time></trkpt>
<trkpt lat="46.49479" lon="6.7097"><ele></ele><time>2016-9-26T3:3:52Z</time></trkpt>
<trkpt lat="46.49469" lon="6.70992"><ele></ele><time>2016-9-26T3:3:55Z</time></trkpt>
<trkpt lat="46.49463" lon="6.71002"><ele></ele><time>2016-9-26T3:3:58Z</time></trkpt>
<trkpt lat="46.49451" lon="6.71023"><ele></ele><time>2016-9-26T3:4:1Z</time></trkpt>
<trkpt lat="46.49437" lon="6.71041"><ele></ele><time>2016-9-26T3:4:4Z</time></trkpt>
<trkpt lat="46.49423" lon="6.71055"><ele></ele><time>2016-9-26T3:4:7Z</time></trkpt>
<trkpt lat="46.494" lon="6.71076"><ele></ele><time>2016-9-26T3:4:10Z</time></trkpt>
<trkpt lat="46.49373" lon="6.71088"><ele></ele><time>2016-9-26T3:4:13Z</time></trkpt>
<trkpt lat="46.4936" lon="6.71097"><ele></ele><time>2016-9-26T3:4:16Z</time></trkpt>
<trkpt lat="46.4934" lon="6.71114"><ele></ele><time>2016-9-26T3:4:19Z</time></trkpt>
<trkpt lat="46.49327" lon="6.71136"><ele></ele><time>2016-9-26T3:4:22Z</time></trkpt>
<trkpt lat="46.49315" lon="6.71158"><ele></ele><time>2016-9-26T3:4:25Z</time></trkpt>
<trkpt lat="46.49315" lon="6.71159"><ele></ele><time>2016-9-26T3:4:28Z</time></trkpt>
<trkpt lat="46.49313" lon="6.71162"><ele></ele><time>2016-9-26T3:4:31Z</time></trkpt>
<trkpt lat="46.49309" lon="6.7117"><ele></ele><time>2016-9-26T3:4:34Z</time></trkpt>
<trkpt lat="46.49306" lon="6.71176"><ele></ele><time>2016-9-26T3:4:37Z</time></trkpt>
<trkpt lat="46.49296" lon="6.71196"><ele></ele><time>2016-9-26T3:4:40Z</time></trkpt>
<trkpt lat="46.4929" lon="6.71206"><ele></ele><time>2016-9-26T3:4:43Z</time></trkpt>
<trkpt lat="46.49284" lon="6.71214"><ele></ele><time>2016-9-26T3:4:46Z</time></trkpt>
<trkpt lat="46.49281" lon="6.71216"><ele></ele><time>2016-9-26T3:4:49Z</time></trkpt>
<trkpt lat="46.49279" lon="6.71218"><ele></ele><time>2016-9-26T3:4:52Z</time></trkpt>
<trkpt lat="46.49277" lon="6.7122"><ele></ele><time>2016-9-26T3:4:55Z</time></trkpt>
<trkpt lat="46.49275" lon="6.71222"><ele></ele><time>2016-9-26T3:4:58Z</time></trkpt>
<trkpt lat="46.49273" lon="6.71224"><ele></ele><time>2016-9-26T3:5:1Z</time></trkpt>
<trkpt lat="46.49271" lon="6.71226"><ele></ele><time>2016-9-26T3:5:4Z</time></trkpt>
<trkpt lat="46.49266" lon="6.7123"><ele></ele><time>2016-9-26T3:5:7Z</time></trkpt>
<trkpt lat="46.49255" lon="6.71241"><ele></ele><time>2016-9-26T3:5:10Z</time></trkpt>
<trkpt lat="46.49234" lon="6.71265"><ele></ele><time>2016-9-26T3:5:13Z</time></trkpt>
<trkpt lat="46.4922" lon="6.71287"><ele></ele><time>2016-9-26T3:5:16Z</time></trkpt>
<trkpt lat="46.49214" lon="6.71301"><ele></ele><time>2016-9-26T3:5:19Z</time></trkpt>
<trkpt lat="46.49204" lon="6.71325"><ele></ele><time>2016-9-26T3:5:22Z</time></trkpt>
<trkpt lat="46.49201" lon="6.71337"><ele></ele><time>2016-9-26T3:5:25Z</time></trkpt>
<trkpt lat="46.49199" lon="6.71365"><ele></ele><time>2016-9-26T3:5:28Z</time></trkpt>
<trkpt lat="46.49199" lon="6.71392"><ele></ele><time>2016-9-26T3:5:31Z</time></trkpt>
<trkpt lat="46.49199" lon="6.7142"><ele></ele><time>2016-9-26T3:5:34Z</time></trkpt>
<trkpt lat="46.49197" lon="6.71436"><ele></ele><time>2016-9-26T3:5:37Z</time></trkpt>
<trkpt lat="46.49191" lon="6.71465"><ele></ele><time>2016-9-26T3:5:40Z</time></trkpt>
<trkpt lat="46.49184" lon="6.71495"><ele></ele><time>2016-9-26T3:5:43Z</time></trkpt>
<trkpt lat="46.49179" lon="6.71514"><ele></ele><time>2016-9-26T3:5:46Z</time></trkpt>
<trkpt lat="46.49172" lon="6.71539"><ele></ele><time>2016-9-26T3:5:49Z</time></trkpt>
<trkpt lat="46.49159" lon="6.71564"><ele></ele><time>2016-9-26T3:5:52Z</time></trkpt>
<trkpt lat="46.49148" lon="6.71586"><ele></ele><time>2016-9-26T3:5:55Z</time></trkpt>
<trkpt lat="46.49144" lon="6.71594"><ele></ele><time>2016-9-26T3:5:58Z</time></trkpt>
<trkpt lat="46.49132" lon="6.71617"><ele></ele><time>2016-9-26T3:6:1Z</time></trkpt>
<trkpt lat="46.4913" lon="6.7162"><ele></ele><time>2016-9-26T3:6:4Z</time></trkpt>
<trkpt lat="46.4912" lon="6.71634"><ele></ele><time>2016-9-26T3:6:7Z</time></trkpt>
<trkpt lat="46.49106" lon="6.71654"><ele></ele><time>2016-9-26T3:6:10Z</time></trkpt>
<trkpt lat="46.49103" lon="6.71658"><ele></ele><time>2016-9-26T3:6:13Z</time></trkpt>
<trkpt lat="46.49088" lon="6.71682"><ele></ele><time>2016-9-26T3:6:16Z</time></trkpt>
<trkpt lat="46.49072" lon="6.71708"><ele></ele><time>2016-9-26T3:6:19Z</time></trkpt>
<trkpt lat="46.49061" lon="6.71723"><ele></ele><time>2016-9-26T3:6:22Z</time></trkpt>
<trkpt lat="46.49039" lon="6.71744"><ele></ele><time>2016-9-26T3:6:25Z</time></trkpt>
<trkpt lat="46.49023" lon="6.7176"><ele></ele><time>2016-9-26T3:6:28Z</time></trkpt>
<trkpt lat="46.49007" lon="6.71777"><ele></ele><time>2016-9-26T3:6:31Z</time></trkpt>
<trkpt lat="46.48991" lon="6.7179"><ele></ele><time>2016-9-26T3:6:34Z</time></trkpt>
<trkpt lat="46.48983" lon="6.71797"><ele></ele><time>2016-9-26T3:6:37Z</time></trkpt>
<trkpt lat="46.48969" lon="6.71815"><ele></ele><time>2016-9-26T3:6:40Z</time></trkpt>
<trkpt lat="46.48957" lon="6.71837"><ele></ele><time>2016-9-26T3:6:43Z</time></trkpt>
<trkpt lat="46.48944" lon="6.71857"><ele></ele><time>2016-9-26T3:6:46Z</time></trkpt>
<trkpt lat="46.48932" lon="6.71878"><ele></ele><time>2016-9-26T3:6:49Z</time></trkpt>
<trkpt lat="46.48916" lon="6.71907"><ele></ele><time>2016-9-26T3:6:52Z</time></trkpt>
<trkpt lat="46.48908" lon="6.71923"><ele></ele><time>2016-9-26T3:6:55Z</time></trkpt>
<trkpt lat="46.48904" lon="6.7193"><ele></ele><time>2016-9-26T3:6:58Z</time></trkpt>
<trkpt lat="46.48891" lon="6.71952"><ele></ele><time>2016-9-26T3:7:1Z</time></trkpt>
<trkpt lat="46.48886" lon="6.71959"><ele></ele><time>2016-9-26T3:7:4Z</time></trkpt>
<trkpt lat="46.48869" lon="6.71986"><ele></ele><time>2016-9-26T3:7:7Z</time></trkpt>
<trkpt lat="46.48856" lon="6.72007"><ele></ele><time>2016-9-26T3:7:10Z</time></trkpt>
<trkpt lat="46.48843" lon="6.72034"><ele></ele><time>2016-9-26T3:7:13Z</time></trkpt>
<trkpt lat="46.48832" lon="6.72064"><ele></ele><time>2016-9-26T3:7:16Z</time></trkpt>
<trkpt lat="46.48823" lon="6.72094"><ele></ele><time>2016-9-26T3:7:19Z</time></trkpt>
<trkpt lat="46.48816" lon="6.72122"><ele></ele><time>2016-9-26T3:7:22Z</time></trkpt>
<trkpt lat="46.48815" lon="6.72133"><ele></ele><time>2016-9-26T3:7:25Z</time></trkpt>
<trkpt lat="46.48814" lon="6.72161"><ele></ele><time>2016-9-26T3:7:28Z</time></trkpt>
<trkpt lat="46.48817" lon="6.72192"><ele></ele><time>2016-9-26T3:7:31Z</time></trkpt>
<trkpt lat="46.48819" lon="6.72227"><ele></ele><time>2016-9-26T3:7:34Z</time></trkpt>
<trkpt lat="46.4882" lon="6.72258"><ele></ele><time>2016-9-26T3:7:37Z</time></trkpt>
<trkpt lat="46.48821" lon="6.72291"><ele></ele><time>2016-9-26T3:7:40Z</time></trkpt>
<trkpt lat="46.48821" lon="6.72323"><ele></ele><time>2016-9-26T3:7:43Z</time></trkpt>
<trkpt lat="46.48823" lon="6.72354"><ele></ele><time>2016-9-26T3:7:46Z</time></trkpt>
<trkpt lat="46.4883" lon="6.72387"><ele></ele><time>2016-9-26T3:7:49Z</time></trkpt>
<trkpt lat="46.48838" lon="6.72417"><ele></ele><time>2016-9-26T3:7:52Z</time></trkpt>
<trkpt lat="46.48839" lon="6.72428"><ele></ele><time>2016-9-26T3:7:55Z</time></trkpt>
<trkpt lat="46.48839" lon="6.7246"><ele></ele><time>2016-9-26T3:7:58Z</time></trkpt>
<trkpt lat="46.48839" lon="6.72471"><ele></ele><time>2016-9-26T3:8:1Z</time></trkpt>
<trkpt lat="46.4884" lon="6.72491"><ele></ele><time>2016-9-26T3:8:4Z</time></trkpt>
<trkpt lat="46.4884" lon="6.72499"><ele></ele><time>2016-9-26T3:8:7Z</time></trkpt>
<trkpt lat="46.48837" lon="6.72513"><ele></ele><time>2016-9-26T3:8:10Z</time></trkpt>
<trkpt lat="46.48825" lon="6.72534"><ele></ele><time>2016-9-26T3:8:13Z</time></trkpt>
<trkpt lat="46.48826" lon="6.72549"><ele></ele><time>2016-9-26T3:8:16Z</time></trkpt>
<trkpt lat="46.4883" lon="6.7256"><ele></ele><time>2016-9-26T3:8:19Z</time></trkpt>
<trkpt lat="46.48834" lon="6.72571"><ele></ele><time>2016-9-26T3:8:22Z</time></trkpt>
<trkpt lat="46.4884" lon="6.72589"><ele></ele><time>2016-9-26T3:8:25Z</time></trkpt>
<trkpt lat="46.48845" lon="6.72602"><ele></ele><time>2016-9-26T3:8:28Z</time></trkpt>
<trkpt lat="46.48849" lon="6.72616"><ele></ele><time>2016-9-26T3:8:31Z</time></trkpt>
<trkpt lat="46.48856" lon="6.72648"><ele></ele><time>2016-9-26T3:8:34Z</time></trkpt>
<trkpt lat="46.4886" lon="6.72664"><ele></ele><time>2016-9-26T3:8:37Z</time></trkpt>
<trkpt lat="46.48871" lon="6.72683"><ele></ele><time>2016-9-26T3:8:40Z</time></trkpt>
<trkpt lat="46.4889" lon="6.72689"><ele></ele><time>2016-9-26T3:8:43Z</time></trkpt>
<trkpt lat="46.48895" lon="6.72689"><ele></ele><time>2016-9-26T3:8:46Z</time></trkpt>
<trkpt lat="46.48904" lon="6.72691"><ele></ele><time>2016-9-26T3:8:49Z</time></trkpt>
<trkpt lat="46.48921" lon="6.72694"><ele></ele><time>2016-9-26T3:8:52Z</time></trkpt>
<trkpt lat="46.48929" lon="6.72697"><ele></ele><time>2016-9-26T3:8:55Z</time></trkpt>
<trkpt lat="46.48938" lon="6.7271"><ele></ele><time>2016-9-26T3:8:58Z</time></trkpt>
<trkpt lat="46.48941" lon="6.72717"><ele></ele><time>2016-9-26T3:9:1Z</time></trkpt>
<trkpt lat="46.48942" lon="6.72733"><ele></ele><time>2016-9-26T3:9:4Z</time></trkpt>
<trkpt lat="46.48947" lon="6.72763"><ele></ele><time>2016-9-26T3:9:7Z</time></trkpt>
<trkpt lat="46.48951" lon="6.72791"><ele></ele><time>2016-9-26T3:9:10Z</time></trkpt>
<trkpt lat="46.48955" lon="6.7282"><ele></ele><time>2016-9-26T3:9:13Z</time></trkpt>
<trkpt lat="46.48959" lon="6.72845"><ele></ele><time>2016-9-26T3:9:16Z</time></trkpt>
<trkpt lat="46.48964" lon="6.72874"><ele></ele><time>2016-9-26T3:9:19Z</time></trkpt>
<trkpt lat="46.48974" lon="6.72901"><ele></ele><time>2016-9-26T3:9:22Z</time></trkpt>
<trkpt lat="46.48985" lon="6.72922"><ele></ele><time>2016-9-26T3:9:25Z</time></trkpt>
<trkpt lat="46.49" lon="6.72938"><ele></ele><time>2016-9-26T3:9:28Z</time></trkpt>
<trkpt lat="46.49029" lon="6.72962"><ele></ele><time>2016-9-26T3:9:31Z</time></trkpt>
<trkpt lat="46.49045" lon="6.72975"><ele></ele><time>2016-9-26T3:9:34Z</time></trkpt>
<trkpt lat="46.49064" lon="6.7299"><ele></ele><time>2016-9-26T3:9:37Z</time></trkpt>
<trkpt lat="46.49077" lon="6.73"><ele></ele><time>2016-9-26T3:9:40Z</time></trkpt>
<trkpt lat="46.49093" lon="6.73014"><ele></ele><time>2016-9-26T3:9:43Z</time></trkpt>
<trkpt lat="46.49108" lon="6.73028"><ele></ele><time>2016-9-26T3:9:46Z</time></trkpt>
<trkpt lat="46.49122" lon="6.73047"><ele></ele><time>2016-9-26T3:9:49Z</time></trkpt>
<trkpt lat="46.49135" lon="6.73076"><ele></ele><time>2016-9-26T3:9:52Z</time></trkpt>
<trkpt lat="46.49138" lon="6.73088"><ele></ele><time>2016-9-26T3:9:55Z</time></trkpt>
<trkpt lat="46.49143" lon="6.73108"><ele></ele><time>2016-9-26T3:9:58Z</time></trkpt>
<trkpt lat="46.49144" lon="6.73117"><ele></ele><time>2016-9-26T3:10:1Z</time></trkpt>
<trkpt lat="46.49146" lon="6.73125"><ele></ele><time>2016-9-26T3:10:4Z</time></trkpt>
<trkpt lat="46.49146" lon="6.73129"><ele></ele><time>2016-9-26T3:10:7Z</time></trkpt>
<trkpt lat="46.49147" lon="6.73133"><ele></ele><time>2016-9-26T3:10:10Z</time></trkpt>
<trkpt lat="46.49148" lon="6.73137"><ele></ele><time>2016-9-26T3:10:13Z</time></trkpt>
<trkpt lat="46.49149" lon="6.73145"><ele></ele><time>2016-9-26T3:10:16Z</time></trkpt>
<trkpt lat="46.49158" lon="6.73172"><ele></ele><time>2016-9-26T3:10:19Z</time></trkpt>
<trkpt lat="46.49171" lon="6.73195"><ele></ele><time>2016-9-26T3:10:22Z</time></trkpt>
<trkpt lat="46.49185" lon="6.73212"><ele></ele><time>2016-9-26T3:10:25Z</time></trkpt>
<trkpt lat="46.492" lon="6.73229"><ele></ele><time>2016-9-26T3:10:28Z</time></trkpt>
<trkpt lat="46.49213" lon="6.73247"><ele></ele><time>2016-9-26T3:10:31Z</time></trkpt>
<trkpt lat="46.49233" lon="6.73284"><ele></ele><time>2016-9-26T3:10:34Z</time></trkpt>
<trkpt lat="46.49245" lon="6.73307"><ele></ele><time>2016-9-26T3:10:37Z</time></trkpt>
<trkpt lat="46.49256" lon="6.73328"><ele></ele><time>2016-9-26T3:10:40Z</time></trkpt>
<trkpt lat="46.4927" lon="6.73346"><ele></ele><time>2016-9-26T3:10:43Z</time></trkpt>
<trkpt lat="46.49287" lon="6.73359"><ele></ele><time>2016-9-26T3:10:46Z</time></trkpt>
<trkpt lat="46.49306" lon="6.73368"><ele></ele><time>2016-9-26T3:10:49Z</time></trkpt>
<trkpt lat="46.49325" lon="6.73377"><ele></ele><time>2016-9-26T3:10:52Z</time></trkpt>
<trkpt lat="46.49344" lon="6.73387"><ele></ele><time>2016-9-26T3:10:55Z</time></trkpt>
<trkpt lat="46.49361" lon="6.73421"><ele></ele><time>2016-9-26T3:10:58Z</time></trkpt>
<trkpt lat="46.49358" lon="6.73448"><ele></ele><time>2016-9-26T3:11:1Z</time></trkpt>
<trkpt lat="46.49345" lon="6.7347"><ele></ele><time>2016-9-26T3:11:4Z</time></trkpt>
<trkpt lat="46.49337" lon="6.73496"><ele></ele><time>2016-9-26T3:11:7Z</time></trkpt>
<trkpt lat="46.49336" lon="6.73525"><ele></ele><time>2016-9-26T3:11:10Z</time></trkpt>
<trkpt lat="46.49338" lon="6.73554"><ele></ele><time>2016-9-26T3:11:13Z</time></trkpt>
<trkpt lat="46.49337" lon="6.73581"><ele></ele><time>2016-9-26T3:11:16Z</time></trkpt>
<trkpt lat="46.49329" lon="6.73619"><ele></ele><time>2016-9-26T3:11:19Z</time></trkpt>
<trkpt lat="46.49326" lon="6.73646"><ele></ele><time>2016-9-26T3:11:22Z</time></trkpt>
<trkpt lat="46.49326" lon="6.7367"><ele></ele><time>2016-9-26T3:11:25Z</time></trkpt>
<trkpt lat="46.49326" lon="6.73702"><ele></ele><time>2016-9-26T3:11:28Z</time></trkpt>
<trkpt lat="46.49323" lon="6.73731"><ele></ele><time>2016-9-26T3:11:31Z</time></trkpt>
<trkpt lat="46.49317" lon="6.73757"><ele></ele><time>2016-9-26T3:11:34Z</time></trkpt>
<trkpt lat="46.49309" lon="6.73782"><ele></ele><time>2016-9-26T3:11:37Z</time></trkpt>
<trkpt lat="46.493" lon="6.73809"><ele></ele><time>2016-9-26T3:11:40Z</time></trkpt>
<trkpt lat="46.49292" lon="6.73834"><ele></ele><time>2016-9-26T3:11:43Z</time></trkpt>
<trkpt lat="46.49285" lon="6.73859"><ele></ele><time>2016-9-26T3:11:46Z</time></trkpt>
<trkpt lat="46.49281" lon="6.73885"><ele></ele><time>2016-9-26T3:11:49Z</time></trkpt>
<trkpt lat="46.4928" lon="6.73911"><ele></ele><time>2016-9-26T3:11:52Z</time></trkpt>
<trkpt lat="46.4928" lon="6.73941"><ele></ele><time>2016-9-26T3:11:55Z</time></trkpt>
<trkpt lat="46.49283" lon="6.73969"><ele></ele><time>2016-9-26T3:11:58Z</time></trkpt>
<trkpt lat="46.49284" lon="6.73985"><ele></ele><time>2016-9-26T3:12:1Z</time></trkpt>
<trkpt lat="46.49285" lon="6.74043"><ele></ele><time>2016-9-26T3:12:4Z</time></trkpt>
<trkpt lat="46.4928" lon="6.74071"><ele></ele><time>2016-9-26T3:12:7Z</time></trkpt>
<trkpt lat="46.49272" lon="6.74098"><ele></ele><time>2016-9-26T3:12:10Z</time></trkpt>
<trkpt lat="46.49265" lon="6.74126"><ele></ele><time>2016-9-26T3:12:13Z</time></trkpt>
<trkpt lat="46.4926" lon="6.74153"><ele></ele><time>2016-9-26T3:12:16Z</time></trkpt>
<trkpt lat="46.49255" lon="6.74183"><ele></ele><time>2016-9-26T3:12:19Z</time></trkpt>
<trkpt lat="46.49253" lon="6.7421"><ele></ele><time>2016-9-26T3:12:22Z</time></trkpt>
<trkpt lat="46.49256" lon="6.74237"><ele></ele><time>2016-9-26T3:12:25Z</time></trkpt>
<trkpt lat="46.4926" lon="6.74263"><ele></ele><time>2016-9-26T3:12:28Z</time></trkpt>
<trkpt lat="46.4926" lon="6.7429"><ele></ele><time>2016-9-26T3:12:31Z</time></trkpt>
<trkpt lat="46.49253" lon="6.74315"><ele></ele><time>2016-9-26T3:12:34Z</time></trkpt>
<trkpt lat="46.49234" lon="6.7436"><ele></ele><time>2016-9-26T3:12:37Z</time></trkpt>
<trkpt lat="46.49229" lon="6.74385"><ele></ele><time>2016-9-26T3:12:40Z</time></trkpt>
<trkpt lat="46.49229" lon="6.74418"><ele></ele><time>2016-9-26T3:12:43Z</time></trkpt>
<trkpt lat="46.49239" lon="6.74447"><ele></ele><time>2016-9-26T3:12:46Z</time></trkpt>
<trkpt lat="46.49249" lon="6.7447"><ele></ele><time>2016-9-26T3:12:49Z</time></trkpt>
<trkpt lat="46.49248" lon="6.74501"><ele></ele><time>2016-9-26T3:12:52Z</time></trkpt>
<trkpt lat="46.49237" lon="6.74523"><ele></ele><time>2016-9-26T3:12:55Z</time></trkpt>
<trkpt lat="46.49227" lon="6.74535"><ele></ele><time>2016-9-26T3:12:58Z</time></trkpt>
<trkpt lat="46.49212" lon="6.74552"><ele></ele><time>2016-9-26T3:13:1Z</time></trkpt>
<trkpt lat="46.49204" lon="6.74563"><ele></ele><time>2016-9-26T3:13:4Z</time></trkpt>
<trkpt lat="46.49194" lon="6.74594"><ele></ele><time>2016-9-26T3:13:7Z</time></trkpt>
<trkpt lat="46.4919" lon="6.74628"><ele></ele><time>2016-9-26T3:13:10Z</time></trkpt>
<trkpt lat="46.49185" lon="6.74656"><ele></ele><time>2016-9-26T3:13:13Z</time></trkpt>
<trkpt lat="46.49181" lon="6.74684"><ele></ele><time>2016-9-26T3:13:16Z</time></trkpt>
<trkpt lat="46.49176" lon="6.74713"><ele></ele><time>2016-9-26T3:13:19Z</time></trkpt>
<trkpt lat="46.49174" lon="6.74718"><ele></ele><time>2016-9-26T3:13:22Z</time></trkpt>
<trkpt lat="46.49173" lon="6.74723"><ele></ele><time>2016-9-26T3:13:25Z</time></trkpt>
<trkpt lat="46.4917" lon="6.7473"><ele></ele><time>2016-9-26T3:13:28Z</time></trkpt>
<trkpt lat="46.49169" lon="6.74733"><ele></ele><time>2016-9-26T3:13:31Z</time></trkpt>
<trkpt lat="46.49162" lon="6.74744"><ele></ele><time>2016-9-26T3:13:34Z</time></trkpt>
<trkpt lat="46.49161" lon="6.74745"><ele></ele><time>2016-9-26T3:13:37Z</time></trkpt>
<trkpt lat="46.4916" lon="6.74747"><ele></ele><time>2016-9-26T3:13:40Z</time></trkpt>
<trkpt lat="46.49159" lon="6.74748"><ele></ele><time>2016-9-26T3:13:43Z</time></trkpt>
<trkpt lat="46.49159" lon="6.74748"><ele></ele><time>2016-9-26T3:13:46Z</time></trkpt>
<trkpt lat="46.49157" lon="6.74755"><ele></ele><time>2016-9-26T3:13:49Z</time></trkpt>
<trkpt lat="46.49144" lon="6.74777"><ele></ele><time>2016-9-26T3:13:52Z</time></trkpt>
<trkpt lat="46.49141" lon="6.74781"><ele></ele><time>2016-9-26T3:13:55Z</time></trkpt>
<trkpt lat="46.49134" lon="6.7479"><ele></ele><time>2016-9-26T3:13:58Z</time></trkpt>
<trkpt lat="46.49122" lon="6.74809"><ele></ele><time>2016-9-26T3:14:1Z</time></trkpt>
<trkpt lat="46.4911" lon="6.74833"><ele></ele><time>2016-9-26T3:14:4Z</time></trkpt>
<trkpt lat="46.49105" lon="6.74842"><ele></ele><time>2016-9-26T3:14:7Z</time></trkpt>
<trkpt lat="46.49099" lon="6.7485"><ele></ele><time>2016-9-26T3:14:10Z</time></trkpt>
<trkpt lat="46.49088" lon="6.7486"><ele></ele><time>2016-9-26T3:14:13Z</time></trkpt>
<trkpt lat="46.4908" lon="6.74864"><ele></ele><time>2016-9-26T3:14:16Z</time></trkpt>
<trkpt lat="46.49072" lon="6.74868"><ele></ele><time>2016-9-26T3:14:19Z</time></trkpt>
<trkpt lat="46.49056" lon="6.74875"><ele></ele><time>2016-9-26T3:14:22Z</time></trkpt>
<trkpt lat="46.49038" lon="6.7489"><ele></ele><time>2016-9-26T3:14:25Z</time></trkpt>
<trkpt lat="46.49027" lon="6.74909"><ele></ele><time>2016-9-26T3:14:28Z</time></trkpt>
<trkpt lat="46.49021" lon="6.74928"><ele></ele><time>2016-9-26T3:14:31Z</time></trkpt>
<trkpt lat="46.49015" lon="6.74955"><ele></ele><time>2016-9-26T3:14:34Z</time></trkpt>
<trkpt lat="46.49008" lon="6.74983"><ele></ele><time>2016-9-26T3:14:37Z</time></trkpt>
<trkpt lat="46.49007" lon="6.74987"><ele></ele><time>2016-9-26T3:14:40Z</time></trkpt>
<trkpt lat="46.49001" lon="6.75001"><ele></ele><time>2016-9-26T3:14:43Z</time></trkpt>
<trkpt lat="46.48987" lon="6.75019"><ele></ele><time>2016-9-26T3:14:46Z</time></trkpt>
<trkpt lat="46.48972" lon="6.75038"><ele></ele><time>2016-9-26T3:14:49Z</time></trkpt>
<trkpt lat="46.4895" lon="6.75063"><ele></ele><time>2016-9-26T3:14:52Z</time></trkpt>
<trkpt lat="46.48948" lon="6.75067"><ele></ele><time>2016-9-26T3:14:55Z</time></trkpt>
<trkpt lat="46.48939" lon="6.75093"><ele></ele><time>2016-9-26T3:14:58Z</time></trkpt>
<trkpt lat="46.48938" lon="6.75114"><ele></ele><time>2016-9-26T3:15:1Z</time></trkpt>
<trkpt lat="46.48938" lon="6.75145"><ele></ele><time>2016-9-26T3:15:4Z</time></trkpt>
<trkpt lat="46.48933" lon="6.75174"><ele></ele><time>2016-9-26T3:15:7Z</time></trkpt>
<trkpt lat="46.4892" lon="6.75197"><ele></ele><time>2016-9-26T3:15:10Z</time></trkpt>
<trkpt lat="46.48904" lon="6.75212"><ele></ele><time>2016-9-26T3:15:13Z</time></trkpt>
<trkpt lat="46.48885" lon="6.75226"><ele></ele><time>2016-9-26T3:15:16Z</time></trkpt>
<trkpt lat="46.48868" lon="6.75243"><ele></ele><time>2016-9-26T3:15:19Z</time></trkpt>
<trkpt lat="46.48852" lon="6.75264"><ele></ele><time>2016-9-26T3:15:22Z</time></trkpt>
<trkpt lat="46.48847" lon="6.75274"><ele></ele><time>2016-9-26T3:15:25Z</time></trkpt>
<trkpt lat="46.48834" lon="6.75298"><ele></ele><time>2016-9-26T3:15:28Z</time></trkpt>
<trkpt lat="46.48822" lon="6.75322"><ele></ele><time>2016-9-26T3:15:31Z</time></trkpt>
<trkpt lat="46.4881" lon="6.75347"><ele></ele><time>2016-9-26T3:15:34Z</time></trkpt>
<trkpt lat="46.48797" lon="6.75372"><ele></ele><time>2016-9-26T3:15:37Z</time></trkpt>
<trkpt lat="46.48783" lon="6.75397"><ele></ele><time>2016-9-26T3:15:40Z</time></trkpt>
<trkpt lat="46.4877" lon="6.75422"><ele></ele><time>2016-9-26T3:15:43Z</time></trkpt>
<trkpt lat="46.48755" lon="6.75445"><ele></ele><time>2016-9-26T3:15:46Z</time></trkpt>
<trkpt lat="46.48738" lon="6.75466"><ele></ele><time>2016-9-26T3:15:49Z</time></trkpt>
<trkpt lat="46.48721" lon="6.75485"><ele></ele><time>2016-9-26T3:15:52Z</time></trkpt>
<trkpt lat="46.48704" lon="6.75504"><ele></ele><time>2016-9-26T3:15:55Z</time></trkpt>
<trkpt lat="46.48687" lon="6.75524"><ele></ele><time>2016-9-26T3:15:58Z</time></trkpt>
<trkpt lat="46.48671" lon="6.75546"><ele></ele><time>2016-9-26T3:16:1Z</time></trkpt>
<trkpt lat="46.48657" lon="6.75569"><ele></ele><time>2016-9-26T3:16:4Z</time></trkpt>
<trkpt lat="46.48643" lon="6.75591"><ele></ele><time>2016-9-26T3:16:7Z</time></trkpt>
<trkpt lat="46.48636" lon="6.75604"><ele></ele><time>2016-9-26T3:16:10Z</time></trkpt>
<trkpt lat="46.48623" lon="6.75629"><ele></ele><time>2016-9-26T3:16:13Z</time></trkpt>
<trkpt lat="46.48611" lon="6.75652"><ele></ele><time>2016-9-26T3:16:16Z</time></trkpt>
<trkpt lat="46.48598" lon="6.75676"><ele></ele><time>2016-9-26T3:16:19Z</time></trkpt>
<trkpt lat="46.48593" lon="6.75684"><ele></ele><time>2016-9-26T3:16:22Z</time></trkpt>
<trkpt lat="46.48581" lon="6.75706"><ele></ele><time>2016-9-26T3:16:25Z</time></trkpt>
<trkpt lat="46.48569" lon="6.75727"><ele></ele><time>2016-9-26T3:16:28Z</time></trkpt>
<trkpt lat="46.48549" lon="6.75759"><ele></ele><time>2016-9-26T3:16:31Z</time></trkpt>
<trkpt lat="46.48537" lon="6.75779"><ele></ele><time>2016-9-26T3:16:34Z</time></trkpt>
<trkpt lat="46.48525" lon="6.75799"><ele></ele><time>2016-9-26T3:16:37Z</time></trkpt>
<trkpt lat="46.48512" lon="6.75822"><ele></ele><time>2016-9-26T3:16:40Z</time></trkpt>
<trkpt lat="46.48499" lon="6.75846"><ele></ele><time>2016-9-26T3:16:43Z</time></trkpt>
<trkpt lat="46.48485" lon="6.75867"><ele></ele><time>2016-9-26T3:16:46Z</time></trkpt>
<trkpt lat="46.48478" lon="6.75874"><ele></ele><time>2016-9-26T3:16:49Z</time></trkpt>
<trkpt lat="46.48472" lon="6.75877"><ele></ele><time>2016-9-26T3:16:52Z</time></trkpt>
<trkpt lat="46.48472" lon="6.75876"><ele></ele><time>2016-9-26T3:16:55Z</time></trkpt>
<trkpt lat="46.48473" lon="6.75875"><ele></ele><time>2016-9-26T3:16:58Z</time></trkpt>
<trkpt lat="46.48473" lon="6.75876"><ele></ele><time>2016-9-26T3:17:1Z</time></trkpt>
<trkpt lat="46.48461" lon="6.75899"><ele></ele><time>2016-9-26T3:17:4Z</time></trkpt>
<trkpt lat="46.48445" lon="6.75918"><ele></ele><time>2016-9-26T3:17:7Z</time></trkpt>
<trkpt lat="46.48427" lon="6.75935"><ele></ele><time>2016-9-26T3:17:10Z</time></trkpt>
<trkpt lat="46.48413" lon="6.7595"><ele></ele><time>2016-9-26T3:17:13Z</time></trkpt>
<trkpt lat="46.48397" lon="6.7597"><ele></ele><time>2016-9-26T3:17:16Z</time></trkpt>
<trkpt lat="46.48385" lon="6.7599"><ele></ele><time>2016-9-26T3:17:19Z</time></trkpt>
<trkpt lat="46.48371" lon="6.76013"><ele></ele><time>2016-9-26T3:17:22Z</time></trkpt>
<trkpt lat="46.48358" lon="6.76031"><ele></ele><time>2016-9-26T3:17:25Z</time></trkpt>
<trkpt lat="46.48341" lon="6.7605"><ele></ele><time>2016-9-26T3:17:28Z</time></trkpt>
<trkpt lat="46.48327" lon="6.76066"><ele></ele><time>2016-9-26T3:17:31Z</time></trkpt>
<trkpt lat="46.48313" lon="6.76088"><ele></ele><time>2016-9-26T3:17:34Z</time></trkpt>
<trkpt lat="46.483" lon="6.76113"><ele></ele><time>2016-9-26T3:17:37Z</time></trkpt>
<trkpt lat="46.48287" lon="6.76137"><ele></ele><time>2016-9-26T3:17:40Z</time></trkpt>
<trkpt lat="46.48274" lon="6.76161"><ele></ele><time>2016-9-26T3:17:43Z</time></trkpt>
<trkpt lat="46.48259" lon="6.76183"><ele></ele><time>2016-9-26T3:17:46Z</time></trkpt>
<trkpt lat="46.48244" lon="6.76203"><ele></ele><time>2016-9-26T3:17:49Z</time></trkpt>
<trkpt lat="46.4823" lon="6.76226"><ele></ele><time>2016-9-26T3:17:52Z</time></trkpt>
<trkpt lat="46.48219" lon="6.76252"><ele></ele><time>2016-9-26T3:17:55Z</time></trkpt>
<trkpt lat="46.48216" lon="6.76256"><ele></ele><time>2016-9-26T3:17:58Z</time></trkpt>
<trkpt lat="46.48205" lon="6.76282"><ele></ele><time>2016-9-26T3:18:1Z</time></trkpt>
<trkpt lat="46.48194" lon="6.76306"><ele></ele><time>2016-9-26T3:18:4Z</time></trkpt>
<trkpt lat="46.48175" lon="6.76347"><ele></ele><time>2016-9-26T3:18:7Z</time></trkpt>
<trkpt lat="46.48163" lon="6.76371"><ele></ele><time>2016-9-26T3:18:10Z</time></trkpt>
<trkpt lat="46.4815" lon="6.76393"><ele></ele><time>2016-9-26T3:18:13Z</time></trkpt>
<trkpt lat="46.48137" lon="6.76414"><ele></ele><time>2016-9-26T3:18:16Z</time></trkpt>
<trkpt lat="46.48131" lon="6.76439"><ele></ele><time>2016-9-26T3:18:19Z</time></trkpt>
<trkpt lat="46.48124" lon="6.76464"><ele></ele><time>2016-9-26T3:18:22Z</time></trkpt>
<trkpt lat="46.48116" lon="6.76489"><ele></ele><time>2016-9-26T3:18:25Z</time></trkpt>
<trkpt lat="46.48099" lon="6.76537"><ele></ele><time>2016-9-26T3:18:28Z</time></trkpt>
<trkpt lat="46.48089" lon="6.7656"><ele></ele><time>2016-9-26T3:18:31Z</time></trkpt>
<trkpt lat="46.48077" lon="6.76581"><ele></ele><time>2016-9-26T3:18:34Z</time></trkpt>
<trkpt lat="46.48064" lon="6.76599"><ele></ele><time>2016-9-26T3:18:37Z</time></trkpt>
<trkpt lat="46.48055" lon="6.76622"><ele></ele><time>2016-9-26T3:18:40Z</time></trkpt>
<trkpt lat="46.48049" lon="6.76651"><ele></ele><time>2016-9-26T3:18:43Z</time></trkpt>
<trkpt lat="46.48041" lon="6.76679"><ele></ele><time>2016-9-26T3:18:46Z</time></trkpt>
<trkpt lat="46.48033" lon="6.76706"><ele></ele><time>2016-9-26T3:18:49Z</time></trkpt>
<trkpt lat="46.48024" lon="6.76756"><ele></ele><time>2016-9-26T3:18:52Z</time></trkpt>
<trkpt lat="46.4803" lon="6.76783"><ele></ele><time>2016-9-26T3:18:55Z</time></trkpt>
<trkpt lat="46.4804" lon="6.76807"><ele></ele><time>2016-9-26T3:18:58Z</time></trkpt>
<trkpt lat="46.48048" lon="6.76828"><ele></ele><time>2016-9-26T3:19:1Z</time></trkpt>
<trkpt lat="46.48051" lon="6.76857"><ele></ele><time>2016-9-26T3:19:4Z</time></trkpt>
<trkpt lat="46.48048" lon="6.76886"><ele></ele><time>2016-9-26T3:19:7Z</time></trkpt>
<trkpt lat="46.48042" lon="6.76914"><ele></ele><time>2016-9-26T3:19:10Z</time></trkpt>
<trkpt lat="46.48042" lon="6.7694"><ele></ele><time>2016-9-26T3:19:13Z</time></trkpt>
<trkpt lat="46.48043" lon="6.76968"><ele></ele><time>2016-9-26T3:19:16Z</time></trkpt>
<trkpt lat="46.48044" lon="6.76996"><ele></ele><time>2016-9-26T3:19:19Z</time></trkpt>
<trkpt lat="46.48042" lon="6.77023"><ele></ele><time>2016-9-26T3:19:22Z</time></trkpt>
<trkpt lat="46.48036" lon="6.77048"><ele></ele><time>2016-9-26T3:19:25Z</time></trkpt>
<trkpt lat="46.48029" lon="6.77077"><ele></ele><time>2016-9-26T3:19:28Z</time></trkpt>
<trkpt lat="46.48027" lon="6.77104"><ele></ele><time>2016-9-26T3:19:31Z</time></trkpt>
<trkpt lat="46.48026" lon="6.77118"><ele></ele><time>2016-9-26T3:19:34Z</time></trkpt>
<trkpt lat="46.48024" lon="6.77146"><ele></ele><time>2016-9-26T3:19:37Z</time></trkpt>
<trkpt lat="46.48023" lon="6.77174"><ele></ele><time>2016-9-26T3:19:40Z</time></trkpt>
<trkpt lat="46.48019" lon="6.77201"><ele></ele><time>2016-9-26T3:19:43Z</time></trkpt>
<trkpt lat="46.48016" lon="6.77227"><ele></ele><time>2016-9-26T3:19:46Z</time></trkpt>
<trkpt lat="46.4801" lon="6.77276"><ele></ele><time>2016-9-26T3:19:49Z</time></trkpt>
<trkpt lat="46.48007" lon="6.77304"><ele></ele><time>2016-9-26T3:19:52Z</time></trkpt>
<trkpt lat="46.48007" lon="6.77335"><ele></ele><time>2016-9-26T3:19:55Z</time></trkpt>
<trkpt lat="46.48013" lon="6.77361"><ele></ele><time>2016-9-26T3:19:58Z</time></trkpt>
<trkpt lat="46.48022" lon="6.77383"><ele></ele><time>2016-9-26T3:20:1Z</time></trkpt>
<trkpt lat="46.48039" lon="6.77393"><ele></ele><time>2016-9-26T3:20:4Z</time></trkpt>
<trkpt lat="46.48059" lon="6.7739"><ele></ele><time>2016-9-26T3:20:7Z</time></trkpt>
<trkpt lat="46.48071" lon="6.77382"><ele></ele><time>2016-9-26T3:20:10Z</time></trkpt>
<trkpt lat="46.48088" lon="6.77372"><ele></ele><time>2016-9-26T3:20:13Z</time></trkpt>
<trkpt lat="46.48106" lon="6.77373"><ele></ele><time>2016-9-26T3:20:16Z</time></trkpt>
<trkpt lat="46.48114" lon="6.77377"><ele></ele><time>2016-9-26T3:20:19Z</time></trkpt>
<trkpt lat="46.48127" lon="6.77392"><ele></ele><time>2016-9-26T3:20:22Z</time></trkpt>
<trkpt lat="46.48139" lon="6.77418"><ele></ele><time>2016-9-26T3:20:25Z</time></trkpt>
<trkpt lat="46.4815" lon="6.77443"><ele></ele><time>2016-9-26T3:20:28Z</time></trkpt>
<trkpt lat="46.48164" lon="6.77462"><ele></ele><time>2016-9-26T3:20:31Z</time></trkpt>
<trkpt lat="46.4818" lon="6.77481"><ele></ele><time>2016-9-26T3:20:34Z</time></trkpt>
<trkpt lat="46.48195" lon="6.77504"><ele></ele><time>2016-9-26T3:20:37Z</time></trkpt>
<trkpt lat="46.48195" lon="6.7751"><ele></ele><time>2016-9-26T3:20:40Z</time></trkpt>
<trkpt lat="46.48188" lon="6.77534"><ele></ele><time>2016-9-26T3:20:43Z</time></trkpt>
<trkpt lat="46.48172" lon="6.77558"><ele></ele><time>2016-9-26T3:20:46Z</time></trkpt>
<trkpt lat="46.48168" lon="6.77563"><ele></ele><time>2016-9-26T3:20:49Z</time></trkpt>
<trkpt lat="46.4815" lon="6.7758"><ele></ele><time>2016-9-26T3:20:52Z</time></trkpt>
<trkpt lat="46.48132" lon="6.77603"><ele></ele><time>2016-9-26T3:20:55Z</time></trkpt>
<trkpt lat="46.48128" lon="6.77611"><ele></ele><time>2016-9-26T3:20:58Z</time></trkpt>
<trkpt lat="46.48118" lon="6.77639"><ele></ele><time>2016-9-26T3:21:1Z</time></trkpt>
<trkpt lat="46.48113" lon="6.77658"><ele></ele><time>2016-9-26T3:21:4Z</time></trkpt>
<trkpt lat="46.48118" lon="6.77684"><ele></ele><time>2016-9-26T3:21:7Z</time></trkpt>
<trkpt lat="46.4813" lon="6.77706"><ele></ele><time>2016-9-26T3:21:10Z</time></trkpt>
<trkpt lat="46.48144" lon="6.77725"><ele></ele><time>2016-9-26T3:21:13Z</time></trkpt>
<trkpt lat="46.4815" lon="6.77734"><ele></ele><time>2016-9-26T3:21:16Z</time></trkpt>
<trkpt lat="46.48152" lon="6.77736"><ele></ele><time>2016-9-26T3:21:19Z</time></trkpt>
<trkpt lat="46.48153" lon="6.77746"><ele></ele><time>2016-9-26T3:21:22Z</time></trkpt>
<trkpt lat="46.48155" lon="6.77774"><ele></ele><time>2016-9-26T3:21:25Z</time></trkpt>
<trkpt lat="46.48158" lon="6.7779"><ele></ele><time>2016-9-26T3:21:28Z</time></trkpt>
<trkpt lat="46.48165" lon="6.77818"><ele></ele><time>2016-9-26T3:21:31Z</time></trkpt>
<trkpt lat="46.48172" lon="6.7785"><ele></ele><time>2016-9-26T3:21:34Z</time></trkpt>
<trkpt lat="46.48175" lon="6.77875"><ele></ele><time>2016-9-26T3:21:37Z</time></trkpt>
<trkpt lat="46.48178" lon="6.77903"><ele></ele><time>2016-9-26T3:21:40Z</time></trkpt>
<trkpt lat="46.4818" lon="6.77932"><ele></ele><time>2016-9-26T3:21:43Z</time></trkpt>
<trkpt lat="46.48176" lon="6.77961"><ele></ele><time>2016-9-26T3:21:46Z</time></trkpt>
<trkpt lat="46.48162" lon="6.77983"><ele></ele><time>2016-9-26T3:21:49Z</time></trkpt>
<trkpt lat="46.48154" lon="6.77993"><ele></ele><time>2016-9-26T3:21:52Z</time></trkpt>
<trkpt lat="46.48137" lon="6.78014"><ele></ele><time>2016-9-26T3:21:55Z</time></trkpt>
<trkpt lat="46.48121" lon="6.78035"><ele></ele><time>2016-9-26T3:21:58Z</time></trkpt>
<trkpt lat="46.48103" lon="6.78055"><ele></ele><time>2016-9-26T3:22:1Z</time></trkpt>
<trkpt lat="46.48087" lon="6.78072"><ele></ele><time>2016-9-26T3:22:4Z</time></trkpt>
<trkpt lat="46.48066" lon="6.78092"><ele></ele><time>2016-9-26T3:22:7Z</time></trkpt>
<trkpt lat="46.48061" lon="6.781"><ele></ele><time>2016-9-26T3:22:10Z</time></trkpt>
<trkpt lat="46.48054" lon="6.78128"><ele></ele><time>2016-9-26T3:22:13Z</time></trkpt>
<trkpt lat="46.48053" lon="6.78138"><ele></ele><time>2016-9-26T3:22:16Z</time></trkpt>
<trkpt lat="46.48051" lon="6.78158"><ele></ele><time>2016-9-26T3:22:19Z</time></trkpt>
<trkpt lat="46.48038" lon="6.78181"><ele></ele><time>2016-9-26T3:22:22Z</time></trkpt>
<trkpt lat="46.48024" lon="6.78208"><ele></ele><time>2016-9-26T3:22:25Z</time></trkpt>
<trkpt lat="46.48019" lon="6.78223"><ele></ele><time>2016-9-26T3:22:28Z</time></trkpt>
<trkpt lat="46.48012" lon="6.78247"><ele></ele><time>2016-9-26T3:22:31Z</time></trkpt>
<trkpt lat="46.48" lon="6.78273"><ele></ele><time>2016-9-26T3:22:34Z</time></trkpt>
<trkpt lat="46.47996" lon="6.78278"><ele></ele><time>2016-9-26T3:22:37Z</time></trkpt>
<trkpt lat="46.47982" lon="6.78304"><ele></ele><time>2016-9-26T3:22:40Z</time></trkpt>
<trkpt lat="46.47974" lon="6.78329"><ele></ele><time>2016-9-26T3:22:43Z</time></trkpt>
<trkpt lat="46.47969" lon="6.78359"><ele></ele><time>2016-9-26T3:22:46Z</time></trkpt>
<trkpt lat="46.47967" lon="6.78382"><ele></ele><time>2016-9-26T3:22:49Z</time></trkpt>
<trkpt lat="46.47963" lon="6.7842"><ele></ele><time>2016-9-26T3:22:52Z</time></trkpt>
<trkpt lat="46.47958" lon="6.78447"><ele></ele><time>2016-9-26T3:22:55Z</time></trkpt>
<trkpt lat="46.47952" lon="6.78476"><ele></ele><time>2016-9-26T3:22:58Z</time></trkpt>
<trkpt lat="46.47949" lon="6.7849"><ele></ele><time>2016-9-26T3:23:1Z</time></trkpt>
<trkpt lat="46.47943" lon="6.78521"><ele></ele><time>2016-9-26T3:23:4Z</time></trkpt>
<trkpt lat="46.47935" lon="6.78551"><ele></ele><time>2016-9-26T3:23:7Z</time></trkpt>
<trkpt lat="46.47928" lon="6.78582"><ele></ele><time>2016-9-26T3:23:10Z</time></trkpt>
<trkpt lat="46.47919" lon="6.78613"><ele></ele><time>2016-9-26T3:23:13Z</time></trkpt>
<trkpt lat="46.47909" lon="6.78643"><ele></ele><time>2016-9-26T3:23:16Z</time></trkpt>
<trkpt lat="46.47897" lon="6.78672"><ele></ele><time>2016-9-26T3:23:19Z</time></trkpt>
<trkpt lat="46.47886" lon="6.787"><ele></ele><time>2016-9-26T3:23:22Z</time></trkpt>
<trkpt lat="46.47874" lon="6.78726"><ele></ele><time>2016-9-26T3:23:25Z</time></trkpt>
<trkpt lat="46.47862" lon="6.78751"><ele></ele><time>2016-9-26T3:23:28Z</time></trkpt>
<trkpt lat="46.4785" lon="6.78775"><ele></ele><time>2016-9-26T3:23:31Z</time></trkpt>
<trkpt lat="46.4784" lon="6.78799"><ele></ele><time>2016-9-26T3:23:34Z</time></trkpt>
<trkpt lat="46.47831" lon="6.78822"><ele></ele><time>2016-9-26T3:23:37Z</time></trkpt>
<trkpt lat="46.47822" lon="6.78846"><ele></ele><time>2016-9-26T3:23:40Z</time></trkpt>
<trkpt lat="46.47814" lon="6.78871"><ele></ele><time>2016-9-26T3:23:43Z</time></trkpt>
<trkpt lat="46.47807" lon="6.78896"><ele></ele><time>2016-9-26T3:23:46Z</time></trkpt>
<trkpt lat="46.47804" lon="6.78923"><ele></ele><time>2016-9-26T3:23:49Z</time></trkpt>
<trkpt lat="46.47801" lon="6.78957"><ele></ele><time>2016-9-26T3:23:52Z</time></trkpt>
<trkpt lat="46.47797" lon="6.78986"><ele></ele><time>2016-9-26T3:23:55Z</time></trkpt>
<trkpt lat="46.47794" lon="6.79014"><ele></ele><time>2016-9-26T3:23:58Z</time></trkpt>
<trkpt lat="46.47796" lon="6.79044"><ele></ele><time>2016-9-26T3:24:1Z</time></trkpt>
<trkpt lat="46.47796" lon="6.79057"><ele></ele><time>2016-9-26T3:24:4Z</time></trkpt>
<trkpt lat="46.47788" lon="6.79087"><ele></ele><time>2016-9-26T3:24:7Z</time></trkpt>
<trkpt lat="46.47783" lon="6.79107"><ele></ele><time>2016-9-26T3:24:10Z</time></trkpt>
<trkpt lat="46.47781" lon="6.79114"><ele></ele><time>2016-9-26T3:24:13Z</time></trkpt>
<trkpt lat="46.4778" lon="6.79118"><ele></ele><time>2016-9-26T3:24:16Z</time></trkpt>
<trkpt lat="46.47779" lon="6.79133"><ele></ele><time>2016-9-26T3:24:19Z</time></trkpt>
<trkpt lat="46.47778" lon="6.79146"><ele></ele><time>2016-9-26T3:24:22Z</time></trkpt>
<trkpt lat="46.47768" lon="6.79171"><ele></ele><time>2016-9-26T3:24:25Z</time></trkpt>
<trkpt lat="46.47756" lon="6.79189"><ele></ele><time>2016-9-26T3:24:28Z</time></trkpt>
<trkpt lat="46.47745" lon="6.7921"><ele></ele><time>2016-9-26T3:24:31Z</time></trkpt>
<trkpt lat="46.47731" lon="6.79255"><ele></ele><time>2016-9-26T3:24:34Z</time></trkpt>
<trkpt lat="46.47728" lon="6.79283"><ele></ele><time>2016-9-26T3:24:37Z</time></trkpt>
<trkpt lat="46.47727" lon="6.79295"><ele></ele><time>2016-9-26T3:24:40Z</time></trkpt>
<trkpt lat="46.47726" lon="6.79302"><ele></ele><time>2016-9-26T3:24:43Z</time></trkpt>
<trkpt lat="46.47722" lon="6.79322"><ele></ele><time>2016-9-26T3:24:46Z</time></trkpt>
<trkpt lat="46.47716" lon="6.79348"><ele></ele><time>2016-9-26T3:24:49Z</time></trkpt>
<trkpt lat="46.47711" lon="6.79364"><ele></ele><time>2016-9-26T3:24:52Z</time></trkpt>
<trkpt lat="46.47702" lon="6.79386"><ele></ele><time>2016-9-26T3:24:55Z</time></trkpt>
<trkpt lat="46.47691" lon="6.79409"><ele></ele><time>2016-9-26T3:24:58Z</time></trkpt>
<trkpt lat="46.4768" lon="6.79432"><ele></ele><time>2016-9-26T3:25:1Z</time></trkpt>
<trkpt lat="46.47679" lon="6.79469"><ele></ele><time>2016-9-26T3:25:4Z</time></trkpt>
<trkpt lat="46.47681" lon="6.79494"><ele></ele><time>2016-9-26T3:25:7Z</time></trkpt>
<trkpt lat="46.47668" lon="6.79517"><ele></ele><time>2016-9-26T3:25:10Z</time></trkpt>
<trkpt lat="46.47659" lon="6.7954"><ele></ele><time>2016-9-26T3:25:13Z</time></trkpt>
<trkpt lat="46.47653" lon="6.79566"><ele></ele><time>2016-9-26T3:25:16Z</time></trkpt>
<trkpt lat="46.47647" lon="6.79595"><ele></ele><time>2016-9-26T3:25:19Z</time></trkpt>
<trkpt lat="46.4764" lon="6.79622"><ele></ele><time>2016-9-26T3:25:22Z</time></trkpt>
<trkpt lat="46.47629" lon="6.79649"><ele></ele><time>2016-9-26T3:25:25Z</time></trkpt>
<trkpt lat="46.47621" lon="6.79667"><ele></ele><time>2016-9-26T3:25:28Z</time></trkpt>
<trkpt lat="46.47616" lon="6.79692"><ele></ele><time>2016-9-26T3:25:31Z</time></trkpt>
<trkpt lat="46.47616" lon="6.79701"><ele></ele><time>2016-9-26T3:25:34Z</time></trkpt>
<trkpt lat="46.47616" lon="6.79712"><ele></ele><time>2016-9-26T3:25:37Z</time></trkpt>
<trkpt lat="46.47615" lon="6.79723"><ele></ele><time>2016-9-26T3:25:40Z</time></trkpt>
<trkpt lat="46.47604" lon="6.79757"><ele></ele><time>2016-9-26T3:25:43Z</time></trkpt>
<trkpt lat="46.47598" lon="6.79767"><ele></ele><time>2016-9-26T3:25:46Z</time></trkpt>
<trkpt lat="46.47587" lon="6.79787"><ele></ele><time>2016-9-26T3:25:49Z</time></trkpt>
<trkpt lat="46.47579" lon="6.79818"><ele></ele><time>2016-9-26T3:25:52Z</time></trkpt>
<trkpt lat="46.47574" lon="6.79847"><ele></ele><time>2016-9-26T3:25:55Z</time></trkpt>
<trkpt lat="46.47576" lon="6.79873"><ele></ele><time>2016-9-26T3:25:58Z</time></trkpt>
<trkpt lat="46.47582" lon="6.7989"><ele></ele><time>2016-9-26T3:26:1Z</time></trkpt>
<trkpt lat="46.47591" lon="6.79902"><ele></ele><time>2016-9-26T3:26:4Z</time></trkpt>
<trkpt lat="46.47604" lon="6.7992"><ele></ele><time>2016-9-26T3:26:7Z</time></trkpt>
<trkpt lat="46.47608" lon="6.79934"><ele></ele><time>2016-9-26T3:26:10Z</time></trkpt>
<trkpt lat="46.476" lon="6.79957"><ele></ele><time>2016-9-26T3:26:13Z</time></trkpt>
<trkpt lat="46.47597" lon="6.7996"><ele></ele><time>2016-9-26T3:26:16Z</time></trkpt>
<trkpt lat="46.47589" lon="6.79982"><ele></ele><time>2016-9-26T3:26:19Z</time></trkpt>
<trkpt lat="46.47585" lon="6.80008"><ele></ele><time>2016-9-26T3:26:22Z</time></trkpt>
<trkpt lat="46.47584" lon="6.8002"><ele></ele><time>2016-9-26T3:26:25Z</time></trkpt>
<trkpt lat="46.47581" lon="6.80037"><ele></ele><time>2016-9-26T3:26:28Z</time></trkpt>
<trkpt lat="46.4758" lon="6.8005"><ele></ele><time>2016-9-26T3:26:31Z</time></trkpt>
<trkpt lat="46.47576" lon="6.80077"><ele></ele><time>2016-9-26T3:26:34Z</time></trkpt>
<trkpt lat="46.47574" lon="6.80084"><ele></ele><time>2016-9-26T3:26:37Z</time></trkpt>
<trkpt lat="46.47565" lon="6.80114"><ele></ele><time>2016-9-26T3:26:40Z</time></trkpt>
<trkpt lat="46.47555" lon="6.80144"><ele></ele><time>2016-9-26T3:26:43Z</time></trkpt>
<trkpt lat="46.47546" lon="6.80169"><ele></ele><time>2016-9-26T3:26:46Z</time></trkpt>
<trkpt lat="46.47537" lon="6.80198"><ele></ele><time>2016-9-26T3:26:49Z</time></trkpt>
<trkpt lat="46.47528" lon="6.80231"><ele></ele><time>2016-9-26T3:26:52Z</time></trkpt>
<trkpt lat="46.4752" lon="6.80265"><ele></ele><time>2016-9-26T3:26:55Z</time></trkpt>
<trkpt lat="46.47516" lon="6.80299"><ele></ele><time>2016-9-26T3:26:58Z</time></trkpt>
<trkpt lat="46.47514" lon="6.80333"><ele></ele><time>2016-9-26T3:27:1Z</time></trkpt>
<trkpt lat="46.47512" lon="6.80366"><ele></ele><time>2016-9-26T3:27:4Z</time></trkpt>
<trkpt lat="46.47508" lon="6.80397"><ele></ele><time>2016-9-26T3:27:7Z</time></trkpt>
<trkpt lat="46.47502" lon="6.80425"><ele></ele><time>2016-9-26T3:27:10Z</time></trkpt>
<trkpt lat="46.47496" lon="6.8045"><ele></ele><time>2016-9-26T3:27:13Z</time></trkpt>
<trkpt lat="46.47488" lon="6.80484"><ele></ele><time>2016-9-26T3:27:16Z</time></trkpt>
<trkpt lat="46.47482" lon="6.80503"><ele></ele><time>2016-9-26T3:27:19Z</time></trkpt>
<trkpt lat="46.47476" lon="6.80535"><ele></ele><time>2016-9-26T3:27:22Z</time></trkpt>
<trkpt lat="46.4747" lon="6.8056"><ele></ele><time>2016-9-26T3:27:25Z</time></trkpt>
<trkpt lat="46.47462" lon="6.80584"><ele></ele><time>2016-9-26T3:27:28Z</time></trkpt>
<trkpt lat="46.47452" lon="6.80606"><ele></ele><time>2016-9-26T3:27:31Z</time></trkpt>
<trkpt lat="46.47437" lon="6.80633"><ele></ele><time>2016-9-26T3:27:34Z</time></trkpt>
<trkpt lat="46.47424" lon="6.80659"><ele></ele><time>2016-9-26T3:27:37Z</time></trkpt>
<trkpt lat="46.47415" lon="6.80675"><ele></ele><time>2016-9-26T3:27:40Z</time></trkpt>
<trkpt lat="46.474" lon="6.80695"><ele></ele><time>2016-9-26T3:27:43Z</time></trkpt>
<trkpt lat="46.4739" lon="6.80724"><ele></ele><time>2016-9-26T3:27:46Z</time></trkpt>
<trkpt lat="46.47389" lon="6.80731"><ele></ele><time>2016-9-26T3:27:49Z</time></trkpt>
<trkpt lat="46.4739" lon="6.80756"><ele></ele><time>2016-9-26T3:27:52Z</time></trkpt>
<trkpt lat="46.47392" lon="6.80776"><ele></ele><time>2016-9-26T3:27:55Z</time></trkpt>
<trkpt lat="46.47394" lon="6.8079"><ele></ele><time>2016-9-26T3:27:58Z</time></trkpt>
<trkpt lat="46.47395" lon="6.80796"><ele></ele><time>2016-9-26T3:28:1Z</time></trkpt>
<trkpt lat="46.47396" lon="6.80802"><ele></ele><time>2016-9-26T3:28:4Z</time></trkpt>
<trkpt lat="46.47396" lon="6.80807"><ele></ele><time>2016-9-26T3:28:7Z</time></trkpt>
<trkpt lat="46.47396" lon="6.80814"><ele></ele><time>2016-9-26T3:28:10Z</time></trkpt>
<trkpt lat="46.47392" lon="6.80838"><ele></ele><time>2016-9-26T3:28:13Z</time></trkpt>
<trkpt lat="46.47388" lon="6.80867"><ele></ele><time>2016-9-26T3:28:16Z</time></trkpt>
<trkpt lat="46.47384" lon="6.80904"><ele></ele><time>2016-9-26T3:28:19Z</time></trkpt>
<trkpt lat="46.47384" lon="6.80917"><ele></ele><time>2016-9-26T3:28:22Z</time></trkpt>
<trkpt lat="46.47387" lon="6.80954"><ele></ele><time>2016-9-26T3:28:25Z</time></trkpt>
<trkpt lat="46.47388" lon="6.80978"><ele></ele><time>2016-9-26T3:28:28Z</time></trkpt>
<trkpt lat="46.47389" lon="6.80989"><ele></ele><time>2016-9-26T3:28:31Z</time></trkpt>
<trkpt lat="46.47389" lon="6.80999"><ele></ele><time>2016-9-26T3:28:34Z</time></trkpt>
<trkpt lat="46.4739" lon="6.8101"><ele></ele><time>2016-9-26T3:28:37Z</time></trkpt>
<trkpt lat="46.47393" lon="6.81041"><ele></ele><time>2016-9-26T3:28:40Z</time></trkpt>
<trkpt lat="46.47395" lon="6.81073"><ele></ele><time>2016-9-26T3:28:43Z</time></trkpt>
<trkpt lat="46.47397" lon="6.81102"><ele></ele><time>2016-9-26T3:28:46Z</time></trkpt>
<trkpt lat="46.47396" lon="6.81111"><ele></ele><time>2016-9-26T3:28:49Z</time></trkpt>
<trkpt lat="46.47391" lon="6.81138"><ele></ele><time>2016-9-26T3:28:52Z</time></trkpt>
<trkpt lat="46.47388" lon="6.81147"><ele></ele><time>2016-9-26T3:28:55Z</time></trkpt>
<trkpt lat="46.47383" lon="6.81167"><ele></ele><time>2016-9-26T3:28:58Z</time></trkpt>
<trkpt lat="46.47379" lon="6.81205"><ele></ele><time>2016-9-26T3:29:1Z</time></trkpt>
<trkpt lat="46.47379" lon="6.81241"><ele></ele><time>2016-9-26T3:29:4Z</time></trkpt>
<trkpt lat="46.47379" lon="6.81272"><ele></ele><time>2016-9-26T3:29:7Z</time></trkpt>
<trkpt lat="46.4738" lon="6.8129"><ele></ele><time>2016-9-26T3:29:10Z</time></trkpt>
<trkpt lat="46.47385" lon="6.81315"><ele></ele><time>2016-9-26T3:29:13Z</time></trkpt>
<trkpt lat="46.47393" lon="6.81346"><ele></ele><time>2016-9-26T3:29:16Z</time></trkpt>
<trkpt lat="46.47402" lon="6.81376"><ele></ele><time>2016-9-26T3:29:19Z</time></trkpt>
<trkpt lat="46.47409" lon="6.81403"><ele></ele><time>2016-9-26T3:29:22Z</time></trkpt>
<trkpt lat="46.47418" lon="6.81428"><ele></ele><time>2016-9-26T3:29:25Z</time></trkpt>
<trkpt lat="46.47427" lon="6.81456"><ele></ele><time>2016-9-26T3:29:28Z</time></trkpt>
<trkpt lat="46.47429" lon="6.81471"><ele></ele><time>2016-9-26T3:29:31Z</time></trkpt>
<trkpt lat="46.4743" lon="6.81502"><ele></ele><time>2016-9-26T3:29:34Z</time></trkpt>
<trkpt lat="46.47434" lon="6.81522"><ele></ele><time>2016-9-26T3:29:37Z</time></trkpt>
<trkpt lat="46.47445" lon="6.81551"><ele></ele><time>2016-9-26T3:29:40Z</time></trkpt>
<trkpt lat="46.47448" lon="6.81561"><ele></ele><time>2016-9-26T3:29:43Z</time></trkpt>
<trkpt lat="46.47452" lon="6.81596"><ele></ele><time>2016-9-26T3:29:46Z</time></trkpt>
<trkpt lat="46.47445" lon="6.81631"><ele></ele><time>2016-9-26T3:29:49Z</time></trkpt>
<trkpt lat="46.47438" lon="6.81667"><ele></ele><time>2016-9-26T3:29:52Z</time></trkpt>
<trkpt lat="46.4744" lon="6.81706"><ele></ele><time>2016-9-26T3:29:55Z</time></trkpt>
<trkpt lat="46.47442" lon="6.81734"><ele></ele><time>2016-9-26T3:29:58Z</time></trkpt>
<trkpt lat="46.47444" lon="6.81764"><ele></ele><time>2016-9-26T3:30:1Z</time></trkpt>
<trkpt lat="46.47446" lon="6.81794"><ele></ele><time>2016-9-26T3:30:4Z</time></trkpt>
<trkpt lat="46.47447" lon="6.81823"><ele></ele><time>2016-9-26T3:30:7Z</time></trkpt>
<trkpt lat="46.47448" lon="6.81849"><ele></ele><time>2016-9-26T3:30:10Z</time></trkpt>
<trkpt lat="46.47448" lon="6.81884"><ele></ele><time>2016-9-26T3:30:13Z</time></trkpt>
<trkpt lat="46.47445" lon="6.81904"><ele></ele><time>2016-9-26T3:30:16Z</time></trkpt>
<trkpt lat="46.47447" lon="6.81933"><ele></ele><time>2016-9-26T3:30:19Z</time></trkpt>
<trkpt lat="46.4745" lon="6.81938"><ele></ele><time>2016-9-26T3:30:22Z</time></trkpt>
<trkpt lat="46.47452" lon="6.81942"><ele></ele><time>2016-9-26T3:30:25Z</time></trkpt>
<trkpt lat="46.47461" lon="6.81967"><ele></ele><time>2016-9-26T3:30:28Z</time></trkpt>
<trkpt lat="46.47465" lon="6.8198"><ele></ele><time>2016-9-26T3:30:31Z</time></trkpt>
<trkpt lat="46.47476" lon="6.81982"><ele></ele><time>2016-9-26T3:30:34Z</time></trkpt>
<trkpt lat="46.47477" lon="6.81985"><ele></ele><time>2016-9-26T3:30:37Z</time></trkpt>
<trkpt lat="46.47482" lon="6.81989"><ele></ele><time>2016-9-26T3:30:40Z</time></trkpt>
<trkpt lat="46.47484" lon="6.81992"><ele></ele><time>2016-9-26T3:30:43Z</time></trkpt>
<trkpt lat="46.47485" lon="6.82"><ele></ele><time>2016-9-26T3:30:46Z</time></trkpt>
<trkpt lat="46.47486" lon="6.82005"><ele></ele><time>2016-9-26T3:30:49Z</time></trkpt>
<trkpt lat="46.47485" lon="6.82008"><ele></ele><time>2016-9-26T3:30:52Z</time></trkpt>
<trkpt lat="46.47485" lon="6.82012"><ele></ele><time>2016-9-26T3:30:55Z</time></trkpt>
<trkpt lat="46.47485" lon="6.82014"><ele></ele><time>2016-9-26T3:30:58Z</time></trkpt>
<trkpt lat="46.47483" lon="6.82019"><ele></ele><time>2016-9-26T3:31:1Z</time></trkpt>
<trkpt lat="46.4748" lon="6.82026"><ele></ele><time>2016-9-26T3:31:4Z</time></trkpt>
<trkpt lat="46.47479" lon="6.82028"><ele></ele><time>2016-9-26T3:31:7Z</time></trkpt>
<trkpt lat="46.47477" lon="6.82036"><ele></ele><time>2016-9-26T3:31:10Z</time></trkpt>
<trkpt lat="46.47476" lon="6.82038"><ele></ele><time>2016-9-26T3:31:13Z</time></trkpt>
<trkpt lat="46.47475" lon="6.82047"><ele></ele><time>2016-9-26T3:31:16Z</time></trkpt>
<trkpt lat="46.47475" lon="6.82061"><ele></ele><time>2016-9-26T3:31:19Z</time></trkpt>
<trkpt lat="46.47476" lon="6.82069"><ele></ele><time>2016-9-26T3:31:22Z</time></trkpt>
<trkpt lat="46.47481" lon="6.82078"><ele></ele><time>2016-9-26T3:31:25Z</time></trkpt>
<trkpt lat="46.47483" lon="6.82082"><ele></ele><time>2016-9-26T3:31:28Z</time></trkpt>
<trkpt lat="46.47485" lon="6.82085"><ele></ele><time>2016-9-26T3:31:31Z</time></trkpt>
<trkpt lat="46.47487" lon="6.82091"><ele></ele><time>2016-9-26T3:31:34Z</time></trkpt>
<trkpt lat="46.47488" lon="6.82092"><ele></ele><time>2016-9-26T3:31:37Z</time></trkpt>
<trkpt lat="46.47492" lon="6.821"><ele></ele><time>2016-9-26T3:31:40Z</time></trkpt>
<trkpt lat="46.47498" lon="6.82111"><ele></ele><time>2016-9-26T3:31:43Z</time></trkpt>
<trkpt lat="46.47505" lon="6.82124"><ele></ele><time>2016-9-26T3:31:46Z</time></trkpt>
<trkpt lat="46.4751" lon="6.82136"><ele></ele><time>2016-9-26T3:31:49Z</time></trkpt>
<trkpt lat="46.47511" lon="6.82139"><ele></ele><time>2016-9-26T3:31:52Z</time></trkpt>
<trkpt lat="46.4752" lon="6.82158"><ele></ele><time>2016-9-26T3:31:55Z</time></trkpt>
<trkpt lat="46.47524" lon="6.82178"><ele></ele><time>2016-9-26T3:31:58Z</time></trkpt>
<trkpt lat="46.47524" lon="6.82212"><ele></ele><time>2016-9-26T3:32:1Z</time></trkpt>
<trkpt lat="46.47526" lon="6.82239"><ele></ele><time>2016-9-26T3:32:4Z</time></trkpt>
<trkpt lat="46.4753" lon="6.82264"><ele></ele><time>2016-9-26T3:32:7Z</time></trkpt>
<trkpt lat="46.4754" lon="6.82288"><ele></ele><time>2016-9-26T3:32:10Z</time></trkpt>
<trkpt lat="46.47557" lon="6.82298"><ele></ele><time>2016-9-26T3:32:13Z</time></trkpt>
<trkpt lat="46.47576" lon="6.82307"><ele></ele><time>2016-9-26T3:32:16Z</time></trkpt>
<trkpt lat="46.47591" lon="6.82336"><ele></ele><time>2016-9-26T3:32:19Z</time></trkpt>
<trkpt lat="46.47598" lon="6.8236"><ele></ele><time>2016-9-26T3:32:22Z</time></trkpt>
<trkpt lat="46.47586" lon="6.82372"><ele></ele><time>2016-9-26T3:32:25Z</time></trkpt>
<trkpt lat="46.4757" lon="6.82371"><ele></ele><time>2016-9-26T3:32:28Z</time></trkpt>
<trkpt lat="46.47567" lon="6.82375"><ele></ele><time>2016-9-26T3:32:31Z</time></trkpt>
<trkpt lat="46.47566" lon="6.82376"><ele></ele><time>2016-9-26T3:32:34Z</time></trkpt>
<trkpt lat="46.47566" lon="6.82376"><ele></ele><time>2016-9-26T3:32:37Z</time></trkpt>
<trkpt lat="46.47565" lon="6.82375"><ele></ele><time>2016-9-26T3:32:40Z</time></trkpt>
<trkpt lat="46.47565" lon="6.82376"><ele></ele><time>2016-9-26T3:32:43Z</time></trkpt>
<trkpt lat="46.47565" lon="6.82376"><ele></ele><time>2016-9-26T3:32:46Z</time></trkpt>
<trkpt lat="46.47565" lon="6.82376"><ele></ele><time>2016-9-26T3:32:49Z</time></trkpt>
<trkpt lat="46.47565" lon="6.82376"><ele></ele><time>2016-9-26T3:32:52Z</time></trkpt>
<trkpt lat="46.47566" lon="6.82376"><ele></ele><time>2016-9-26T3:32:55Z</time></trkpt>
<trkpt lat="46.47566" lon="6.82376"><ele></ele><time>2016-9-26T3:32:58Z</time></trkpt>
<trkpt lat="46.47566" lon="6.82376"><ele></ele><time>2016-9-26T3:33:1Z</time></trkpt>
<trkpt lat="46.47566" lon="6.82375"><ele></ele><time>2016-9-26T3:33:4Z</time></trkpt>
<trkpt lat="46.47566" lon="6.82375"><ele></ele><time>2016-9-26T3:33:7Z</time></trkpt>
<trkpt lat="46.47566" lon="6.82375"><ele></ele><time>2016-9-26T3:33:10Z</time></trkpt>
<trkpt lat="46.47566" lon="6.82375"><ele></ele><time>2016-9-26T3:33:13Z</time></trkpt>
<trkpt lat="46.47566" lon="6.82375"><ele></ele><time>2016-9-26T3:33:16Z</time></trkpt>
<trkpt lat="46.47568" lon="6.82374"><ele></ele><time>2016-9-26T3:33:19Z</time></trkpt>
<trkpt lat="46.47586" lon="6.82368"><ele></ele><time>2016-9-26T3:33:22Z</time></trkpt>
<trkpt lat="46.47605" lon="6.82371"><ele></ele><time>2016-9-26T3:33:25Z</time></trkpt>
<trkpt lat="46.47608" lon="6.82374"><ele></ele><time>2016-9-26T3:33:28Z</time></trkpt>
<trkpt lat="46.47609" lon="6.82377"><ele></ele><time>2016-9-26T3:33:31Z</time></trkpt>
<trkpt lat="46.47611" lon="6.82384"><ele></ele><time>2016-9-26T3:33:34Z</time></trkpt>
<trkpt lat="46.47614" lon="6.82393"><ele></ele><time>2016-9-26T3:33:37Z</time></trkpt>
<trkpt lat="46.47621" lon="6.8242"><ele></ele><time>2016-9-26T3:33:40Z</time></trkpt>
<trkpt lat="46.47622" lon="6.82426"><ele></ele><time>2016-9-26T3:33:43Z</time></trkpt>
<trkpt lat="46.47625" lon="6.82448"><ele></ele><time>2016-9-26T3:33:46Z</time></trkpt>
<trkpt lat="46.47625" lon="6.82457"><ele></ele><time>2016-9-26T3:33:49Z</time></trkpt>
<trkpt lat="46.47625" lon="6.82459"><ele></ele><time>2016-9-26T3:33:52Z</time></trkpt>
<trkpt lat="46.47626" lon="6.82467"><ele></ele><time>2016-9-26T3:33:55Z</time></trkpt>
<trkpt lat="46.47626" lon="6.82468"><ele></ele><time>2016-9-26T3:33:58Z</time></trkpt>
<trkpt lat="46.4763" lon="6.82481"><ele></ele><time>2016-9-26T3:34:1Z</time></trkpt>
<trkpt lat="46.47637" lon="6.82506"><ele></ele><time>2016-9-26T3:34:4Z</time></trkpt>
<trkpt lat="46.47642" lon="6.82531"><ele></ele><time>2016-9-26T3:34:7Z</time></trkpt>
<trkpt lat="46.47649" lon="6.82558"><ele></ele><time>2016-9-26T3:34:10Z</time></trkpt>
<trkpt lat="46.47652" lon="6.82587"><ele></ele><time>2016-9-26T3:34:13Z</time></trkpt>
<trkpt lat="46.47658" lon="6.82604"><ele></ele><time>2016-9-26T3:34:16Z</time></trkpt>
<trkpt lat="46.47665" lon="6.8263"><ele></ele><time>2016-9-26T3:34:19Z</time></trkpt>
<trkpt lat="46.47669" lon="6.8265"><ele></ele><time>2016-9-26T3:34:22Z</time></trkpt>
<trkpt lat="46.47673" lon="6.82666"><ele></ele><time>2016-9-26T3:34:25Z</time></trkpt>
<trkpt lat="46.47676" lon="6.82662"><ele></ele><time>2016-9-26T3:34:28Z</time></trkpt>
<trkpt lat="46.47679" lon="6.8264"><ele></ele><time>2016-9-26T3:34:31Z</time></trkpt>
<trkpt lat="46.47679" lon="6.82638"><ele></ele><time>2016-9-26T3:34:34Z</time></trkpt>
<trkpt lat="46.47676" lon="6.82619"><ele></ele><time>2016-9-26T3:34:37Z</time></trkpt>
<trkpt lat="46.47675" lon="6.8261"><ele></ele><time>2016-9-26T3:34:40Z</time></trkpt>
<trkpt lat="46.47675" lon="6.826"><ele></ele><time>2016-9-26T3:34:43Z</time></trkpt>
<trkpt lat="46.47677" lon="6.82581"><ele></ele><time>2016-9-26T3:34:46Z</time></trkpt>
<trkpt lat="46.47686" lon="6.82567"><ele></ele><time>2016-9-26T3:34:49Z</time></trkpt>
<trkpt lat="46.47692" lon="6.82558"><ele></ele><time>2016-9-26T3:34:52Z</time></trkpt>
<trkpt lat="46.47693" lon="6.82556"><ele></ele><time>2016-9-26T3:34:55Z</time></trkpt>
<trkpt lat="46.47696" lon="6.82546"><ele></ele><time>2016-9-26T3:34:58Z</time></trkpt>
<trkpt lat="46.47703" lon="6.82514"><ele></ele><time>2016-9-26T3:35:1Z</time></trkpt>
<trkpt lat="46.47704" lon="6.82503"><ele></ele><time>2016-9-26T3:35:4Z</time></trkpt>
<trkpt lat="46.47705" lon="6.82494"><ele></ele><time>2016-9-26T3:35:7Z</time></trkpt>
<trkpt lat="46.47708" lon="6.82488"><ele></ele><time>2016-9-26T3:35:10Z</time></trkpt>
<trkpt lat="46.47714" lon="6.82467"><ele></ele><time>2016-9-26T3:35:13Z</time></trkpt>
<trkpt lat="46.47717" lon="6.82458"><ele></ele><time>2016-9-26T3:35:16Z</time></trkpt>
<trkpt lat="46.47718" lon="6.82445"><ele></ele><time>2016-9-26T3:35:19Z</time></trkpt>
<trkpt lat="46.47723" lon="6.8242"><ele></ele><time>2016-9-26T3:35:22Z</time></trkpt>
<trkpt lat="46.47731" lon="6.82394"><ele></ele><time>2016-9-26T3:35:25Z</time></trkpt>
<trkpt lat="46.47735" lon="6.82394"><ele></ele><time>2016-9-26T3:35:28Z</time></trkpt>
<trkpt lat="46.47745" lon="6.82417"><ele></ele><time>2016-9-26T3:35:31Z</time></trkpt>
<trkpt lat="46.47748" lon="6.82421"><ele></ele><time>2016-9-26T3:35:34Z</time></trkpt>
<trkpt lat="46.47752" lon="6.82416"><ele></ele><time>2016-9-26T3:35:37Z</time></trkpt>
<trkpt lat="46.47758" lon="6.82399"><ele></ele><time>2016-9-26T3:35:40Z</time></trkpt>
<trkpt lat="46.47768" lon="6.82384"><ele></ele><time>2016-9-26T3:35:43Z</time></trkpt>
<trkpt lat="46.47785" lon="6.82373"><ele></ele><time>2016-9-26T3:35:46Z</time></trkpt>
<trkpt lat="46.47798" lon="6.82366"><ele></ele><time>2016-9-26T3:35:49Z</time></trkpt>
<trkpt lat="46.47802" lon="6.82341"><ele></ele><time>2016-9-26T3:35:52Z</time></trkpt>
<trkpt lat="46.478" lon="6.82315"><ele></ele><time>2016-9-26T3:35:55Z</time></trkpt>
<trkpt lat="46.47798" lon="6.82275"><ele></ele><time>2016-9-26T3:35:58Z</time></trkpt>
<trkpt lat="46.478" lon="6.82247"><ele></ele><time>2016-9-26T3:36:1Z</time></trkpt>
<trkpt lat="46.47804" lon="6.82224"><ele></ele><time>2016-9-26T3:36:4Z</time></trkpt>
<trkpt lat="46.47806" lon="6.82198"><ele></ele><time>2016-9-26T3:36:7Z</time></trkpt>
<trkpt lat="46.47809" lon="6.82183"><ele></ele><time>2016-9-26T3:36:10Z</time></trkpt>
<trkpt lat="46.47808" lon="6.82177"><ele></ele><time>2016-9-26T3:36:13Z</time></trkpt>
<trkpt lat="46.47809" lon="6.82174"><ele></ele><time>2016-9-26T3:36:16Z</time></trkpt>
<trkpt lat="46.47809" lon="6.82169"><ele></ele><time>2016-9-26T3:36:19Z</time></trkpt>
<trkpt lat="46.4781" lon="6.82167"><ele></ele><time>2016-9-26T3:36:22Z</time></trkpt>
<trkpt lat="46.4781" lon="6.82164"><ele></ele><time>2016-9-26T3:36:25Z</time></trkpt>
<trkpt lat="46.4781" lon="6.8216"><ele></ele><time>2016-9-26T3:36:28Z</time></trkpt>
<trkpt lat="46.4781" lon="6.82154"><ele></ele><time>2016-9-26T3:36:31Z</time></trkpt>
<trkpt lat="46.47813" lon="6.82142"><ele></ele><time>2016-9-26T3:36:34Z</time></trkpt>
<trkpt lat="46.47811" lon="6.82127"><ele></ele><time>2016-9-26T3:36:37Z</time></trkpt>
<trkpt lat="46.4781" lon="6.82121"><ele></ele><time>2016-9-26T3:36:40Z</time></trkpt>
<trkpt lat="46.4781" lon="6.82119"><ele></ele><time>2016-9-26T3:36:43Z</time></trkpt>
<trkpt lat="46.47809" lon="6.82094"><ele></ele><time>2016-9-26T3:36:46Z</time></trkpt>
<trkpt lat="46.47808" lon="6.82092"><ele></ele><time>2016-9-26T3:36:49Z</time></trkpt>
<trkpt lat="46.47805" lon="6.82072"><ele></ele><time>2016-9-26T3:36:52Z</time></trkpt>
<trkpt lat="46.47804" lon="6.82069"><ele></ele><time>2016-9-26T3:36:55Z</time></trkpt>
<trkpt lat="46.47805" lon="6.82056"><ele></ele><time>2016-9-26T3:36:58Z</time></trkpt>
<trkpt lat="46.47804" lon="6.82052"><ele></ele><time>2016-9-26T3:37:1Z</time></trkpt>
<trkpt lat="46.47805" lon="6.82046"><ele></ele><time>2016-9-26T3:37:4Z</time></trkpt>
<trkpt lat="46.47811" lon="6.82034"><ele></ele><time>2016-9-26T3:37:7Z</time></trkpt>
<trkpt lat="46.47812" lon="6.82016"><ele></ele><time>2016-9-26T3:37:10Z</time></trkpt>
<trkpt lat="46.47815" lon="6.82001"><ele></ele><time>2016-9-26T3:37:13Z</time></trkpt>
<trkpt lat="46.47816" lon="6.81989"><ele></ele><time>2016-9-26T3:37:16Z</time></trkpt>
<trkpt lat="46.47816" lon="6.81976"><ele></ele><time>2016-9-26T3:37:19Z</time></trkpt>
<trkpt lat="46.47816" lon="6.81947"><ele></ele><time>2016-9-26T3:37:22Z</time></trkpt>
<trkpt lat="46.47813" lon="6.81937"><ele></ele><time>2016-9-26T3:37:25Z</time></trkpt>
<trkpt lat="46.47815" lon="6.81933"><ele></ele><time>2016-9-26T3:37:28Z</time></trkpt>
<trkpt lat="46.47816" lon="6.81927"><ele></ele><time>2016-9-26T3:37:31Z</time></trkpt>
<trkpt lat="46.47818" lon="6.81919"><ele></ele><time>2016-9-26T3:37:34Z</time></trkpt>
<trkpt lat="46.47819" lon="6.81908"><ele></ele><time>2016-9-26T3:37:37Z</time></trkpt>
<trkpt lat="46.47821" lon="6.81899"><ele></ele><time>2016-9-26T3:37:40Z</time></trkpt>
<trkpt lat="46.47825" lon="6.81893"><ele></ele><time>2016-9-26T3:37:43Z</time></trkpt>
<trkpt lat="46.47826" lon="6.81887"><ele></ele><time>2016-9-26T3:37:46Z</time></trkpt>
<trkpt lat="46.47828" lon="6.81882"><ele></ele><time>2016-9-26T3:37:49Z</time></trkpt>
<trkpt lat="46.47838" lon="6.81862"><ele></ele><time>2016-9-26T3:37:52Z</time></trkpt>
<trkpt lat="46.47848" lon="6.81841"><ele></ele><time>2016-9-26T3:37:55Z</time></trkpt>
<trkpt lat="46.47847" lon="6.81815"><ele></ele><time>2016-9-26T3:37:58Z</time></trkpt>
<trkpt lat="46.47851" lon="6.81789"><ele></ele><time>2016-9-26T3:38:1Z</time></trkpt>
<trkpt lat="46.47853" lon="6.81775"><ele></ele><time>2016-9-26T3:38:4Z</time></trkpt>
<trkpt lat="46.47855" lon="6.81766"><ele></ele><time>2016-9-26T3:38:7Z</time></trkpt>
<trkpt lat="46.47851" lon="6.81741"><ele></ele><time>2016-9-26T3:38:10Z</time></trkpt>
<trkpt lat="46.47848" lon="6.81714"><ele></ele><time>2016-9-26T3:38:13Z</time></trkpt>
<trkpt lat="46.47848" lon="6.81691"><ele></ele><time>2016-9-26T3:38:16Z</time></trkpt>
<trkpt lat="46.4785" lon="6.81663"><ele></ele><time>2016-9-26T3:38:19Z</time></trkpt>
<trkpt lat="46.47861" lon="6.81646"><ele></ele><time>2016-9-26T3:38:22Z</time></trkpt>
<trkpt lat="46.47874" lon="6.81662"><ele></ele><time>2016-9-26T3:38:25Z</time></trkpt>
<trkpt lat="46.47881" lon="6.81687"><ele></ele><time>2016-9-26T3:38:28Z</time></trkpt>
<trkpt lat="46.47888" lon="6.81727"><ele></ele><time>2016-9-26T3:38:31Z</time></trkpt>
<trkpt lat="46.47889" lon="6.81734"><ele></ele><time>2016-9-26T3:38:34Z</time></trkpt>
<trkpt lat="46.4789" lon="6.81742"><ele></ele><time>2016-9-26T3:38:37Z</time></trkpt>
<trkpt lat="46.47896" lon="6.81766"><ele></ele><time>2016-9-26T3:38:40Z</time></trkpt>
<trkpt lat="46.47906" lon="6.81776"><ele></ele><time>2016-9-26T3:38:43Z</time></trkpt>
<trkpt lat="46.4791" lon="6.81769"><ele></ele><time>2016-9-26T3:38:46Z</time></trkpt>
<trkpt lat="46.47911" lon="6.81767"><ele></ele><time>2016-9-26T3:38:49Z</time></trkpt>
<trkpt lat="46.47914" lon="6.81757"><ele></ele><time>2016-9-26T3:38:52Z</time></trkpt>
<trkpt lat="46.47915" lon="6.81742"><ele></ele><time>2016-9-26T3:38:55Z</time></trkpt>
<trkpt lat="46.47916" lon="6.81705"><ele></ele><time>2016-9-26T3:38:58Z</time></trkpt>
<trkpt lat="46.4792" lon="6.81679"><ele></ele><time>2016-9-26T3:39:1Z</time></trkpt>
<trkpt lat="46.47929" lon="6.81653"><ele></ele><time>2016-9-26T3:39:4Z</time></trkpt>
<trkpt lat="46.47938" lon="6.81629"><ele></ele><time>2016-9-26T3:39:7Z</time></trkpt>
<trkpt lat="46.47949" lon="6.81608"><ele></ele><time>2016-9-26T3:39:10Z</time></trkpt>
<trkpt lat="46.47966" lon="6.81599"><ele></ele><time>2016-9-26T3:39:13Z</time></trkpt>
<trkpt lat="46.47974" lon="6.816"><ele></ele><time>2016-9-26T3:39:16Z</time></trkpt>
<trkpt lat="46.47998" lon="6.81615"><ele></ele><time>2016-9-26T3:39:19Z</time></trkpt>
<trkpt lat="46.48018" lon="6.81624"><ele></ele><time>2016-9-26T3:39:22Z</time></trkpt>
<trkpt lat="46.48038" lon="6.81627"><ele></ele><time>2016-9-26T3:39:25Z</time></trkpt>
<trkpt lat="46.48059" lon="6.81624"><ele></ele><time>2016-9-26T3:39:28Z</time></trkpt>
<trkpt lat="46.48071" lon="6.81626"><ele></ele><time>2016-9-26T3:39:31Z</time></trkpt>
<trkpt lat="46.48074" lon="6.81638"><ele></ele><time>2016-9-26T3:39:34Z</time></trkpt>
<trkpt lat="46.48076" lon="6.81667"><ele></ele><time>2016-9-26T3:39:37Z</time></trkpt>
<trkpt lat="46.48075" lon="6.81696"><ele></ele><time>2016-9-26T3:39:40Z</time></trkpt>
<trkpt lat="46.48072" lon="6.81726"><ele></ele><time>2016-9-26T3:39:43Z</time></trkpt>
<trkpt lat="46.48068" lon="6.81755"><ele></ele><time>2016-9-26T3:39:46Z</time></trkpt>
<trkpt lat="46.48064" lon="6.81783"><ele></ele><time>2016-9-26T3:39:49Z</time></trkpt>
<trkpt lat="46.48058" lon="6.81811"><ele></ele><time>2016-9-26T3:39:52Z</time></trkpt>
<trkpt lat="46.48056" lon="6.81819"><ele></ele><time>2016-9-26T3:39:55Z</time></trkpt>
<trkpt lat="46.48057" lon="6.81849"><ele></ele><time>2016-9-26T3:39:58Z</time></trkpt>
<trkpt lat="46.48074" lon="6.81864"><ele></ele><time>2016-9-26T3:40:1Z</time></trkpt>
<trkpt lat="46.48081" lon="6.81868"><ele></ele><time>2016-9-26T3:40:4Z</time></trkpt>
<trkpt lat="46.48099" lon="6.81879"><ele></ele><time>2016-9-26T3:40:7Z</time></trkpt>
<trkpt lat="46.48106" lon="6.81891"><ele></ele><time>2016-9-26T3:40:10Z</time></trkpt>
<trkpt lat="46.48109" lon="6.81904"><ele></ele><time>2016-9-26T3:40:13Z</time></trkpt>
<trkpt lat="46.48115" lon="6.8193"><ele></ele><time>2016-9-26T3:40:16Z</time></trkpt>
<trkpt lat="46.48123" lon="6.81955"><ele></ele><time>2016-9-26T3:40:19Z</time></trkpt>
<trkpt lat="46.48126" lon="6.81984"><ele></ele><time>2016-9-26T3:40:22Z</time></trkpt>
<trkpt lat="46.48127" lon="6.82015"><ele></ele><time>2016-9-26T3:40:25Z</time></trkpt>
<trkpt lat="46.48129" lon="6.82063"><ele></ele><time>2016-9-26T3:40:28Z</time></trkpt>
<trkpt lat="46.48125" lon="6.82089"><ele></ele><time>2016-9-26T3:40:31Z</time></trkpt>
<trkpt lat="46.48122" lon="6.82114"><ele></ele><time>2016-9-26T3:40:34Z</time></trkpt>
<trkpt lat="46.48123" lon="6.82134"><ele></ele><time>2016-9-26T3:40:37Z</time></trkpt>
<trkpt lat="46.48128" lon="6.82162"><ele></ele><time>2016-9-26T3:40:40Z</time></trkpt>
<trkpt lat="46.48132" lon="6.82189"><ele></ele><time>2016-9-26T3:40:43Z</time></trkpt>
<trkpt lat="46.48135" lon="6.82216"><ele></ele><time>2016-9-26T3:40:46Z</time></trkpt>
<trkpt lat="46.48133" lon="6.82243"><ele></ele><time>2016-9-26T3:40:49Z</time></trkpt>
<trkpt lat="46.48132" lon="6.8226"><ele></ele><time>2016-9-26T3:40:52Z</time></trkpt>
<trkpt lat="46.48132" lon="6.82263"><ele></ele><time>2016-9-26T3:40:55Z</time></trkpt>
<trkpt lat="46.4813" lon="6.82281"><ele></ele><time>2016-9-26T3:40:58Z</time></trkpt>
<trkpt lat="46.48127" lon="6.823"><ele></ele><time>2016-9-26T3:41:1Z</time></trkpt>
<trkpt lat="46.48128" lon="6.82328"><ele></ele><time>2016-9-26T3:41:4Z</time></trkpt>
<trkpt lat="46.48133" lon="6.82353"><ele></ele><time>2016-9-26T3:41:7Z</time></trkpt>
<trkpt lat="46.48138" lon="6.82379"><ele></ele><time>2016-9-26T3:41:10Z</time></trkpt>
<trkpt lat="46.4814" lon="6.82406"><ele></ele><time>2016-9-26T3:41:13Z</time></trkpt>
<trkpt lat="46.48141" lon="6.82429"><ele></ele><time>2016-9-26T3:41:16Z</time></trkpt>
<trkpt lat="46.4814" lon="6.82437"><ele></ele><time>2016-9-26T3:41:19Z</time></trkpt>
<trkpt lat="46.48138" lon="6.82448"><ele></ele><time>2016-9-26T3:41:22Z</time></trkpt>
<trkpt lat="46.4814" lon="6.82456"><ele></ele><time>2016-9-26T3:41:25Z</time></trkpt>
<trkpt lat="46.48147" lon="6.82471"><ele></ele><time>2016-9-26T3:41:28Z</time></trkpt>
<trkpt lat="46.48149" lon="6.82476"><ele></ele><time>2016-9-26T3:41:31Z</time></trkpt>
<trkpt lat="46.48149" lon="6.82476"><ele></ele><time>2016-9-26T3:41:34Z</time></trkpt>
<trkpt lat="46.48156" lon="6.82491"><ele></ele><time>2016-9-26T3:41:37Z</time></trkpt>
<trkpt lat="46.48166" lon="6.82509"><ele></ele><time>2016-9-26T3:41:40Z</time></trkpt>
<trkpt lat="46.48172" lon="6.8252"><ele></ele><time>2016-9-26T3:41:43Z</time></trkpt>
<trkpt lat="46.48179" lon="6.82536"><ele></ele><time>2016-9-26T3:41:46Z</time></trkpt>
<trkpt lat="46.48182" lon="6.82544"><ele></ele><time>2016-9-26T3:41:49Z</time></trkpt>
<trkpt lat="46.48183" lon="6.8255"><ele></ele><time>2016-9-26T3:41:52Z</time></trkpt>
<trkpt lat="46.48185" lon="6.82556"><ele></ele><time>2016-9-26T3:41:55Z</time></trkpt>
<trkpt lat="46.48186" lon="6.82561"><ele></ele><time>2016-9-26T3:41:58Z</time></trkpt>
<trkpt lat="46.48187" lon="6.82573"><ele></ele><time>2016-9-26T3:42:1Z</time></trkpt>
<trkpt lat="46.48189" lon="6.82601"><ele></ele><time>2016-9-26T3:42:4Z</time></trkpt>
<trkpt lat="46.48192" lon="6.82627"><ele></ele><time>2016-9-26T3:42:7Z</time></trkpt>
<trkpt lat="46.48192" lon="6.82654"><ele></ele><time>2016-9-26T3:42:10Z</time></trkpt>
<trkpt lat="46.48192" lon="6.82683"><ele></ele><time>2016-9-26T3:42:13Z</time></trkpt>
<trkpt lat="46.48192" lon="6.82706"><ele></ele><time>2016-9-26T3:42:16Z</time></trkpt>
<trkpt lat="46.48193" lon="6.82718"><ele></ele><time>2016-9-26T3:42:19Z</time></trkpt>
<trkpt lat="46.48197" lon="6.82751"><ele></ele><time>2016-9-26T3:42:22Z</time></trkpt>
<trkpt lat="46.48204" lon="6.82776"><ele></ele><time>2016-9-26T3:42:25Z</time></trkpt>
<trkpt lat="46.4821" lon="6.8279"><ele></ele><time>2016-9-26T3:42:28Z</time></trkpt>
<trkpt lat="46.48212" lon="6.82817"><ele></ele><time>2016-9-26T3:42:31Z</time></trkpt>
<trkpt lat="46.48213" lon="6.82824"><ele></ele><time>2016-9-26T3:42:34Z</time></trkpt>
<trkpt lat="46.48216" lon="6.82835"><ele></ele><time>2016-9-26T3:42:37Z</time></trkpt>
<trkpt lat="46.48221" lon="6.82826"><ele></ele><time>2016-9-26T3:42:40Z</time></trkpt>
<trkpt lat="46.48222" lon="6.82799"><ele></ele><time>2016-9-26T3:42:43Z</time></trkpt>
<trkpt lat="46.48224" lon="6.82781"><ele></ele><time>2016-9-26T3:42:46Z</time></trkpt>
<trkpt lat="46.48223" lon="6.82752"><ele></ele><time>2016-9-26T3:42:49Z</time></trkpt>
<trkpt lat="46.48226" lon="6.82723"><ele></ele><time>2016-9-26T3:42:52Z</time></trkpt>
<trkpt lat="46.48235" lon="6.82692"><ele></ele><time>2016-9-26T3:42:55Z</time></trkpt>
<trkpt lat="46.48244" lon="6.82658"><ele></ele><time>2016-9-26T3:42:58Z</time></trkpt>
<trkpt lat="46.4825" lon="6.82631"><ele></ele><time>2016-9-26T3:43:1Z</time></trkpt>
<trkpt lat="46.48258" lon="6.82604"><ele></ele><time>2016-9-26T3:43:4Z</time></trkpt>
<trkpt lat="46.48266" lon="6.82578"><ele></ele><time>2016-9-26T3:43:7Z</time></trkpt>
<trkpt lat="46.48269" lon="6.82569"><ele></ele><time>2016-9-26T3:43:10Z</time></trkpt>
<trkpt lat="46.48276" lon="6.82543"><ele></ele><time>2016-9-26T3:43:13Z</time></trkpt>
<trkpt lat="46.48284" lon="6.82511"><ele></ele><time>2016-9-26T3:43:16Z</time></trkpt>
<trkpt lat="46.4829" lon="6.82486"><ele></ele><time>2016-9-26T3:43:19Z</time></trkpt>
<trkpt lat="46.48291" lon="6.82477"><ele></ele><time>2016-9-26T3:43:22Z</time></trkpt>
<trkpt lat="46.48297" lon="6.82457"><ele></ele><time>2016-9-26T3:43:25Z</time></trkpt>
<trkpt lat="46.48306" lon="6.82432"><ele></ele><time>2016-9-26T3:43:28Z</time></trkpt>
<trkpt lat="46.48317" lon="6.82404"><ele></ele><time>2016-9-26T3:43:31Z</time></trkpt>
<trkpt lat="46.48329" lon="6.8238"><ele></ele><time>2016-9-26T3:43:34Z</time></trkpt>
<trkpt lat="46.48338" lon="6.82358"><ele></ele><time>2016-9-26T3:43:37Z</time></trkpt>
<trkpt lat="46.48348" lon="6.82324"><ele></ele><time>2016-9-26T3:43:40Z</time></trkpt>
<trkpt lat="46.48356" lon="6.82299"><ele></ele><time>2016-9-26T3:43:43Z</time></trkpt>
<trkpt lat="46.48355" lon="6.82279"><ele></ele><time>2016-9-26T3:43:46Z</time></trkpt>
<trkpt lat="46.48363" lon="6.82253"><ele></ele><time>2016-9-26T3:43:49Z</time></trkpt>
<trkpt lat="46.48367" lon="6.82225"><ele></ele><time>2016-9-26T3:43:52Z</time></trkpt>
<trkpt lat="46.48371" lon="6.82198"><ele></ele><time>2016-9-26T3:43:55Z</time></trkpt>
<trkpt lat="46.48378" lon="6.82171"><ele></ele><time>2016-9-26T3:43:58Z</time></trkpt>
<trkpt lat="46.48384" lon="6.82145"><ele></ele><time>2016-9-26T3:44:1Z</time></trkpt>
<trkpt lat="46.48395" lon="6.82106"><ele></ele><time>2016-9-26T3:44:4Z</time></trkpt>
<trkpt lat="46.48399" lon="6.82093"><ele></ele><time>2016-9-26T3:44:7Z</time></trkpt>
<trkpt lat="46.48406" lon="6.82066"><ele></ele><time>2016-9-26T3:44:10Z</time></trkpt>
<trkpt lat="46.48413" lon="6.82044"><ele></ele><time>2016-9-26T3:44:13Z</time></trkpt>
<trkpt lat="46.48417" lon="6.82036"><ele></ele><time>2016-9-26T3:44:16Z</time></trkpt>
<trkpt lat="46.48427" lon="6.82038"><ele></ele><time>2016-9-26T3:44:19Z</time></trkpt>
<trkpt lat="46.48435" lon="6.82045"><ele></ele><time>2016-9-26T3:44:22Z</time></trkpt>
<trkpt lat="46.48452" lon="6.82059"><ele></ele><time>2016-9-26T3:44:25Z</time></trkpt>
<trkpt lat="46.48459" lon="6.82077"><ele></ele><time>2016-9-26T3:44:28Z</time></trkpt>
<trkpt lat="46.48462" lon="6.82098"><ele></ele><time>2016-9-26T3:44:31Z</time></trkpt>
<trkpt lat="46.48463" lon="6.82118"><ele></ele><time>2016-9-26T3:44:34Z</time></trkpt>
<trkpt lat="46.48463" lon="6.8213"><ele></ele><time>2016-9-26T3:44:37Z</time></trkpt>
<trkpt lat="46.48462" lon="6.82132"><ele></ele><time>2016-9-26T3:44:40Z</time></trkpt>
<trkpt lat="46.48461" lon="6.82159"><ele></ele><time>2016-9-26T3:44:43Z</time></trkpt>
<trkpt lat="46.48459" lon="6.82187"><ele></ele><time>2016-9-26T3:44:46Z</time></trkpt>
<trkpt lat="46.48457" lon="6.82215"><ele></ele><time>2016-9-26T3:44:49Z</time></trkpt>
<trkpt lat="46.48458" lon="6.82248"><ele></ele><time>2016-9-26T3:44:52Z</time></trkpt>
<trkpt lat="46.48465" lon="6.82273"><ele></ele><time>2016-9-26T3:44:55Z</time></trkpt>
<trkpt lat="46.48473" lon="6.82298"><ele></ele><time>2016-9-26T3:44:58Z</time></trkpt>
<trkpt lat="46.48478" lon="6.82323"><ele></ele><time>2016-9-26T3:45:1Z</time></trkpt>
<trkpt lat="46.48484" lon="6.8235"><ele></ele><time>2016-9-26T3:45:4Z</time></trkpt>
<trkpt lat="46.48489" lon="6.82376"><ele></ele><time>2016-9-26T3:45:7Z</time></trkpt>
<trkpt lat="46.48495" lon="6.82414"><ele></ele><time>2016-9-26T3:45:10Z</time></trkpt>
<trkpt lat="46.48498" lon="6.82434"><ele></ele><time>2016-9-26T3:45:13Z</time></trkpt>
<trkpt lat="46.48499" lon="6.82454"><ele></ele><time>2016-9-26T3:45:16Z</time></trkpt>
<trkpt lat="46.485" lon="6.82474"><ele></ele><time>2016-9-26T3:45:19Z</time></trkpt>
<trkpt lat="46.48501" lon="6.82479"><ele></ele><time>2016-9-26T3:45:22Z</time></trkpt>
<trkpt lat="46.48501" lon="6.82483"><ele></ele><time>2016-9-26T3:45:25Z</time></trkpt>
<trkpt lat="46.48517" lon="6.82481"><ele></ele><time>2016-9-26T3:45:28Z</time></trkpt>
<trkpt lat="46.48535" lon="6.82479"><ele></ele><time>2016-9-26T3:45:31Z</time></trkpt>
<trkpt lat="46.48547" lon="6.82477"><ele></ele><time>2016-9-26T3:45:34Z</time></trkpt>
<trkpt lat="46.48565" lon="6.82473"><ele></ele><time>2016-9-26T3:45:37Z</time></trkpt>
<trkpt lat="46.4858" lon="6.82466"><ele></ele><time>2016-9-26T3:45:40Z</time></trkpt>
<trkpt lat="46.48596" lon="6.82458"><ele></ele><time>2016-9-26T3:45:43Z</time></trkpt>
<trkpt lat="46.48613" lon="6.82448"><ele></ele><time>2016-9-26T3:45:46Z</time></trkpt>
<trkpt lat="46.48638" lon="6.82439"><ele></ele><time>2016-9-26T3:45:49Z</time></trkpt>
<trkpt lat="46.48657" lon="6.82431"><ele></ele><time>2016-9-26T3:45:52Z</time></trkpt>
<trkpt lat="46.48675" lon="6.8243"><ele></ele><time>2016-9-26T3:45:55Z</time></trkpt>
<trkpt lat="46.48694" lon="6.82427"><ele></ele><time>2016-9-26T3:45:58Z</time></trkpt>
<trkpt lat="46.48711" lon="6.82419"><ele></ele><time>2016-9-26T3:46:1Z</time></trkpt>
<trkpt lat="46.48728" lon="6.82408"><ele></ele><time>2016-9-26T3:46:4Z</time></trkpt>
<trkpt lat="46.48743" lon="6.82389"><ele></ele><time>2016-9-26T3:46:7Z</time></trkpt>
<trkpt lat="46.48755" lon="6.82364"><ele></ele><time>2016-9-26T3:46:10Z</time></trkpt>
<trkpt lat="46.48757" lon="6.8236"><ele></ele><time>2016-9-26T3:46:13Z</time></trkpt>
<trkpt lat="46.48767" lon="6.82336"><ele></ele><time>2016-9-26T3:46:16Z</time></trkpt>
<trkpt lat="46.48787" lon="6.82304"><ele></ele><time>2016-9-26T3:46:19Z</time></trkpt>
<trkpt lat="46.488" lon="6.82282"><ele></ele><time>2016-9-26T3:46:22Z</time></trkpt>
<trkpt lat="46.48811" lon="6.82261"><ele></ele><time>2016-9-26T3:46:25Z</time></trkpt>
<trkpt lat="46.48824" lon="6.82242"><ele></ele><time>2016-9-26T3:46:28Z</time></trkpt>
<trkpt lat="46.48835" lon="6.82227"><ele></ele><time>2016-9-26T3:46:31Z</time></trkpt>
<trkpt lat="46.48837" lon="6.82224"><ele></ele><time>2016-9-26T3:46:34Z</time></trkpt>
<trkpt lat="46.48839" lon="6.82222"><ele></ele><time>2016-9-26T3:46:37Z</time></trkpt>
<trkpt lat="46.48846" lon="6.82252"><ele></ele><time>2016-9-26T3:46:40Z</time></trkpt>
<trkpt lat="46.48846" lon="6.82254"><ele></ele><time>2016-9-26T3:46:43Z</time></trkpt>
<trkpt lat="46.48847" lon="6.82255"><ele></ele><time>2016-9-26T3:46:46Z</time></trkpt>
<trkpt lat="46.48848" lon="6.82258"><ele></ele><time>2016-9-26T3:46:49Z</time></trkpt>
<trkpt lat="46.48858" lon="6.82281"><ele></ele><time>2016-9-26T3:46:52Z</time></trkpt>
<trkpt lat="46.48859" lon="6.82284"><ele></ele><time>2016-9-26T3:46:55Z</time></trkpt>
<trkpt lat="46.48863" lon="6.82293"><ele></ele><time>2016-9-26T3:46:58Z</time></trkpt>
<trkpt lat="46.48861" lon="6.82299"><ele></ele><time>2016-9-26T3:47:1Z</time></trkpt>
<trkpt lat="46.48864" lon="6.823"><ele></ele><time>2016-9-26T3:47:4Z</time></trkpt>
<trkpt lat="46.48866" lon="6.82299"><ele></ele><time>2016-9-26T3:47:7Z</time></trkpt>
<trkpt lat="46.48866" lon="6.82298"><ele></ele><time>2016-9-26T3:47:10Z</time></trkpt>
<trkpt lat="46.48866" lon="6.82296"><ele></ele><time>2016-9-26T3:47:13Z</time></trkpt>
<trkpt lat="46.48867" lon="6.82297"><ele></ele><time>2016-9-26T3:47:16Z</time></trkpt>
<trkpt lat="46.48867" lon="6.82298"><ele></ele><time>2016-9-26T3:47:19Z</time></trkpt>
<trkpt lat="46.48867" lon="6.82299"><ele></ele><time>2016-9-26T3:47:22Z</time></trkpt>
<trkpt lat="46.48867" lon="6.823"><ele></ele><time>2016-9-26T3:47:25Z</time></trkpt>
<trkpt lat="46.48868" lon="6.82303"><ele></ele><time>2016-9-26T3:47:28Z</time></trkpt>
<trkpt lat="46.48868" lon="6.82304"><ele></ele><time>2016-9-26T3:47:31Z</time></trkpt>
<trkpt lat="46.48869" lon="6.82308"><ele></ele><time>2016-9-26T3:47:34Z</time></trkpt>
<trkpt lat="46.4887" lon="6.82309"><ele></ele><time>2016-9-26T3:47:37Z</time></trkpt>
<trkpt lat="46.48869" lon="6.82307"><ele></ele><time>2016-9-26T3:47:40Z</time></trkpt>
<trkpt lat="46.48866" lon="6.82301"><ele></ele><time>2016-9-26T3:47:43Z</time></trkpt>
<trkpt lat="46.48866" lon="6.82301"><ele></ele><time>2016-9-26T3:47:46Z</time></trkpt>
<trkpt lat="46.48866" lon="6.823"><ele></ele><time>2016-9-26T3:47:49Z</time></trkpt>
<trkpt lat="46.48865" lon="6.823"><ele></ele><time>2016-9-26T3:47:52Z</time></trkpt>
<trkpt lat="46.4887" lon="6.82295"><ele></ele><time>2016-9-26T3:47:55Z</time></trkpt>
<trkpt lat="46.48871" lon="6.82295"><ele></ele><time>2016-9-26T3:47:58Z</time></trkpt>
<trkpt lat="46.48891" lon="6.82293"><ele></ele><time>2016-9-26T3:48:1Z</time></trkpt>
<trkpt lat="46.48907" lon="6.82278"><ele></ele><time>2016-9-26T3:48:4Z</time></trkpt>
<trkpt lat="46.4892" lon="6.82258"><ele></ele><time>2016-9-26T3:48:7Z</time></trkpt>
<trkpt lat="46.48923" lon="6.82253"><ele></ele><time>2016-9-26T3:48:10Z</time></trkpt>
<trkpt lat="46.48933" lon="6.82235"><ele></ele><time>2016-9-26T3:48:13Z</time></trkpt>
<trkpt lat="46.4895" lon="6.8222"><ele></ele><time>2016-9-26T3:48:16Z</time></trkpt>
<trkpt lat="46.48958" lon="6.82215"><ele></ele><time>2016-9-26T3:48:19Z</time></trkpt>
<trkpt lat="46.48967" lon="6.82205"><ele></ele><time>2016-9-26T3:48:22Z</time></trkpt>
<trkpt lat="46.48982" lon="6.82187"><ele></ele><time>2016-9-26T3:48:25Z</time></trkpt>
<trkpt lat="46.4899" lon="6.82181"><ele></ele><time>2016-9-26T3:48:28Z</time></trkpt>
<trkpt lat="46.49007" lon="6.82168"><ele></ele><time>2016-9-26T3:48:31Z</time></trkpt>
<trkpt lat="46.49025" lon="6.82152"><ele></ele><time>2016-9-26T3:48:34Z</time></trkpt>
<trkpt lat="46.49039" lon="6.82133"><ele></ele><time>2016-9-26T3:48:37Z</time></trkpt>
<trkpt lat="46.49049" lon="6.8212"><ele></ele><time>2016-9-26T3:48:40Z</time></trkpt>
<trkpt lat="46.49063" lon="6.82097"><ele></ele><time>2016-9-26T3:48:43Z</time></trkpt>
<trkpt lat="46.49077" lon="6.82079"><ele></ele><time>2016-9-26T3:48:46Z</time></trkpt>
<trkpt lat="46.49094" lon="6.82054"><ele></ele><time>2016-9-26T3:48:49Z</time></trkpt>
<trkpt lat="46.4911" lon="6.82032"><ele></ele><time>2016-9-26T3:48:52Z</time></trkpt>
<trkpt lat="46.49114" lon="6.82024"><ele></ele><time>2016-9-26T3:48:55Z</time></trkpt>
<trkpt lat="46.49123" lon="6.81994"><ele></ele><time>2016-9-26T3:48:58Z</time></trkpt>
<trkpt lat="46.49133" lon="6.81966"><ele></ele><time>2016-9-26T3:49:1Z</time></trkpt>
<trkpt lat="46.49144" lon="6.81944"><ele></ele><time>2016-9-26T3:49:4Z</time></trkpt>
<trkpt lat="46.49158" lon="6.8192"><ele></ele><time>2016-9-26T3:49:7Z</time></trkpt>
<trkpt lat="46.49159" lon="6.81916"><ele></ele><time>2016-9-26T3:49:10Z</time></trkpt>
<trkpt lat="46.49167" lon="6.81895"><ele></ele><time>2016-9-26T3:49:13Z</time></trkpt>
<trkpt lat="46.49172" lon="6.81876"><ele></ele><time>2016-9-26T3:49:16Z</time></trkpt>
<trkpt lat="46.49178" lon="6.81848"><ele></ele><time>2016-9-26T3:49:19Z</time></trkpt>
<trkpt lat="46.49181" lon="6.8182"><ele></ele><time>2016-9-26T3:49:22Z</time></trkpt>
<trkpt lat="46.49187" lon="6.81794"><ele></ele><time>2016-9-26T3:49:25Z</time></trkpt>
<trkpt lat="46.49191" lon="6.81764"><ele></ele><time>2016-9-26T3:49:28Z</time></trkpt>
<trkpt lat="46.49199" lon="6.81735"><ele></ele><time>2016-9-26T3:49:31Z</time></trkpt>
<trkpt lat="46.49216" lon="6.81724"><ele></ele><time>2016-9-26T3:49:34Z</time></trkpt>
<trkpt lat="46.49222" lon="6.81725"><ele></ele><time>2016-9-26T3:49:37Z</time></trkpt>
<trkpt lat="46.49236" lon="6.81734"><ele></ele><time>2016-9-26T3:49:40Z</time></trkpt>
<trkpt lat="46.49245" lon="6.8174"><ele></ele><time>2016-9-26T3:49:43Z</time></trkpt>
<trkpt lat="46.49253" lon="6.81744"><ele></ele><time>2016-9-26T3:49:46Z</time></trkpt>
<trkpt lat="46.49271" lon="6.8175"><ele></ele><time>2016-9-26T3:49:49Z</time></trkpt>
<trkpt lat="46.49281" lon="6.81746"><ele></ele><time>2016-9-26T3:49:52Z</time></trkpt>
<trkpt lat="46.49284" lon="6.81737"><ele></ele><time>2016-9-26T3:49:55Z</time></trkpt>
<trkpt lat="46.49288" lon="6.8171"><ele></ele><time>2016-9-26T3:49:58Z</time></trkpt>
<trkpt lat="46.49292" lon="6.81679"><ele></ele><time>2016-9-26T3:50:1Z</time></trkpt>
<trkpt lat="46.49303" lon="6.81658"><ele></ele><time>2016-9-26T3:50:4Z</time></trkpt>
<trkpt lat="46.49306" lon="6.81649"><ele></ele><time>2016-9-26T3:50:7Z</time></trkpt>
<trkpt lat="46.4931" lon="6.81617"><ele></ele><time>2016-9-26T3:50:10Z</time></trkpt>
<trkpt lat="46.49308" lon="6.81596"><ele></ele><time>2016-9-26T3:50:13Z</time></trkpt>
<trkpt lat="46.49306" lon="6.81576"><ele></ele><time>2016-9-26T3:50:16Z</time></trkpt>
<trkpt lat="46.49306" lon="6.81546"><ele></ele><time>2016-9-26T3:50:19Z</time></trkpt>
<trkpt lat="46.4931" lon="6.81528"><ele></ele><time>2016-9-26T3:50:22Z</time></trkpt>
<trkpt lat="46.49318" lon="6.8151"><ele></ele><time>2016-9-26T3:50:25Z</time></trkpt>
<trkpt lat="46.49336" lon="6.81493"><ele></ele><time>2016-9-26T3:50:28Z</time></trkpt>
<trkpt lat="46.49342" lon="6.81488"><ele></ele><time>2016-9-26T3:50:31Z</time></trkpt>
<trkpt lat="46.49357" lon="6.81473"><ele></ele><time>2016-9-26T3:50:34Z</time></trkpt>
<trkpt lat="46.49359" lon="6.81471"><ele></ele><time>2016-9-26T3:50:37Z</time></trkpt>
<trkpt lat="46.49377" lon="6.81446"><ele></ele><time>2016-9-26T3:50:40Z</time></trkpt>
<trkpt lat="46.49384" lon="6.81433"><ele></ele><time>2016-9-26T3:50:43Z</time></trkpt>
<trkpt lat="46.49394" lon="6.81411"><ele></ele><time>2016-9-26T3:50:46Z</time></trkpt>
<trkpt lat="46.49399" lon="6.81383"><ele></ele><time>2016-9-26T3:50:49Z</time></trkpt>
<trkpt lat="46.49404" lon="6.81356"><ele></ele><time>2016-9-26T3:50:52Z</time></trkpt>
<trkpt lat="46.49405" lon="6.81331"><ele></ele><time>2016-9-26T3:50:55Z</time></trkpt>
<trkpt lat="46.49407" lon="6.81301"><ele></ele><time>2016-9-26T3:50:58Z</time></trkpt>
<trkpt lat="46.49406" lon="6.81274"><ele></ele><time>2016-9-26T3:51:1Z</time></trkpt>
<trkpt lat="46.49411" lon="6.81242"><ele></ele><time>2016-9-26T3:51:4Z</time></trkpt>
<trkpt lat="46.4942" lon="6.8121"><ele></ele><time>2016-9-26T3:51:7Z</time></trkpt>
<trkpt lat="46.4943" lon="6.81183"><ele></ele><time>2016-9-26T3:51:10Z</time></trkpt>
<trkpt lat="46.4944" lon="6.81156"><ele></ele><time>2016-9-26T3:51:13Z</time></trkpt>
<trkpt lat="46.4945" lon="6.81132"><ele></ele><time>2016-9-26T3:51:16Z</time></trkpt>
<trkpt lat="46.49461" lon="6.81109"><ele></ele><time>2016-9-26T3:51:19Z</time></trkpt>
<trkpt lat="46.49475" lon="6.81084"><ele></ele><time>2016-9-26T3:51:22Z</time></trkpt>
<trkpt lat="46.49492" lon="6.81066"><ele></ele><time>2016-9-26T3:51:25Z</time></trkpt>
<trkpt lat="46.49506" lon="6.81056"><ele></ele><time>2016-9-26T3:51:28Z</time></trkpt>
<trkpt lat="46.49524" lon="6.81048"><ele></ele><time>2016-9-26T3:51:31Z</time></trkpt>
<trkpt lat="46.49529" lon="6.81048"><ele></ele><time>2016-9-26T3:51:34Z</time></trkpt>
<trkpt lat="46.49544" lon="6.81046"><ele></ele><time>2016-9-26T3:51:37Z</time></trkpt>
<trkpt lat="46.49546" lon="6.81046"><ele></ele><time>2016-9-26T3:51:40Z</time></trkpt>
<trkpt lat="46.49554" lon="6.81045"><ele></ele><time>2016-9-26T3:51:43Z</time></trkpt>
<trkpt lat="46.49558" lon="6.81045"><ele></ele><time>2016-9-26T3:51:46Z</time></trkpt>
<trkpt lat="46.49563" lon="6.81045"><ele></ele><time>2016-9-26T3:51:49Z</time></trkpt>
<trkpt lat="46.49572" lon="6.81044"><ele></ele><time>2016-9-26T3:51:52Z</time></trkpt>
<trkpt lat="46.49576" lon="6.81042"><ele></ele><time>2016-9-26T3:51:55Z</time></trkpt>
<trkpt lat="46.4958" lon="6.81042"><ele></ele><time>2016-9-26T3:51:58Z</time></trkpt>
<trkpt lat="46.49587" lon="6.81039"><ele></ele><time>2016-9-26T3:52:1Z</time></trkpt>
<trkpt lat="46.49593" lon="6.81038"><ele></ele><time>2016-9-26T3:52:4Z</time></trkpt>
<trkpt lat="46.49598" lon="6.81036"><ele></ele><time>2016-9-26T3:52:7Z</time></trkpt>
<trkpt lat="46.49606" lon="6.81033"><ele></ele><time>2016-9-26T3:52:10Z</time></trkpt>
<trkpt lat="46.49612" lon="6.81031"><ele></ele><time>2016-9-26T3:52:13Z</time></trkpt>
<trkpt lat="46.49621" lon="6.81028"><ele></ele><time>2016-9-26T3:52:16Z</time></trkpt>
<trkpt lat="46.49629" lon="6.81025"><ele></ele><time>2016-9-26T3:52:19Z</time></trkpt>
<trkpt lat="46.49638" lon="6.8102"><ele></ele><time>2016-9-26T3:52:22Z</time></trkpt>
<trkpt lat="46.49652" lon="6.81016"><ele></ele><time>2016-9-26T3:52:25Z</time></trkpt>
<trkpt lat="46.49668" lon="6.81027"><ele></ele><time>2016-9-26T3:52:28Z</time></trkpt>
<trkpt lat="46.49677" lon="6.8105"><ele></ele><time>2016-9-26T3:52:31Z</time></trkpt>
<trkpt lat="46.49688" lon="6.81084"><ele></ele><time>2016-9-26T3:52:34Z</time></trkpt>
<trkpt lat="46.49693" lon="6.81109"><ele></ele><time>2016-9-26T3:52:37Z</time></trkpt>
<trkpt lat="46.49692" lon="6.81135"><ele></ele><time>2016-9-26T3:52:40Z</time></trkpt>
<trkpt lat="46.49675" lon="6.81147"><ele></ele><time>2016-9-26T3:52:43Z</time></trkpt>
<trkpt lat="46.49636" lon="6.81161"><ele></ele><time>2016-9-26T3:52:46Z</time></trkpt>
<trkpt lat="46.49618" lon="6.81176"><ele></ele><time>2016-9-26T3:52:49Z</time></trkpt>
<trkpt lat="46.49602" lon="6.81192"><ele></ele><time>2016-9-26T3:52:52Z</time></trkpt>
<trkpt lat="46.4959" lon="6.81212"><ele></ele><time>2016-9-26T3:52:55Z</time></trkpt>
<trkpt lat="46.49585" lon="6.81239"><ele></ele><time>2016-9-26T3:52:58Z</time></trkpt>
<trkpt lat="46.49582" lon="6.81266"><ele></ele><time>2016-9-26T3:53:1Z</time></trkpt>
<trkpt lat="46.49582" lon="6.81304"><ele></ele><time>2016-9-26T3:53:4Z</time></trkpt>
<trkpt lat="46.4958" lon="6.81331"><ele></ele><time>2016-9-26T3:53:7Z</time></trkpt>
<trkpt lat="46.49579" lon="6.81354"><ele></ele><time>2016-9-26T3:53:10Z</time></trkpt>
<trkpt lat="46.49573" lon="6.81379"><ele></ele><time>2016-9-26T3:53:13Z</time></trkpt>
<trkpt lat="46.49565" lon="6.81403"><ele></ele><time>2016-9-26T3:53:16Z</time></trkpt>
<trkpt lat="46.49557" lon="6.81429"><ele></ele><time>2016-9-26T3:53:19Z</time></trkpt>
<trkpt lat="46.49549" lon="6.81454"><ele></ele><time>2016-9-26T3:53:22Z</time></trkpt>
<trkpt lat="46.49543" lon="6.81477"><ele></ele><time>2016-9-26T3:53:25Z</time></trkpt>
<trkpt lat="46.49541" lon="6.81491"><ele></ele><time>2016-9-26T3:53:28Z</time></trkpt>
<trkpt lat="46.49538" lon="6.81524"><ele></ele><time>2016-9-26T3:53:31Z</time></trkpt>
<trkpt lat="46.49556" lon="6.81529"><ele></ele><time>2016-9-26T3:53:34Z</time></trkpt>
<trkpt lat="46.49575" lon="6.81528"><ele></ele><time>2016-9-26T3:53:37Z</time></trkpt>
<trkpt lat="46.49594" lon="6.81525"><ele></ele><time>2016-9-26T3:53:40Z</time></trkpt>
<trkpt lat="46.4961" lon="6.8151"><ele></ele><time>2016-9-26T3:53:43Z</time></trkpt>
<trkpt lat="46.49622" lon="6.8149"><ele></ele><time>2016-9-26T3:53:46Z</time></trkpt>
<trkpt lat="46.49629" lon="6.81481"><ele></ele><time>2016-9-26T3:53:49Z</time></trkpt>
<trkpt lat="46.49635" lon="6.81473"><ele></ele><time>2016-9-26T3:53:52Z</time></trkpt>
<trkpt lat="46.49651" lon="6.81457"><ele></ele><time>2016-9-26T3:53:55Z</time></trkpt>
<trkpt lat="46.49657" lon="6.81451"><ele></ele><time>2016-9-26T3:53:58Z</time></trkpt>
<trkpt lat="46.49658" lon="6.81449"><ele></ele><time>2016-9-26T3:54:1Z</time></trkpt>
<trkpt lat="46.49674" lon="6.81432"><ele></ele><time>2016-9-26T3:54:4Z</time></trkpt>
<trkpt lat="46.49692" lon="6.81421"><ele></ele><time>2016-9-26T3:54:7Z</time></trkpt>
<trkpt lat="46.4971" lon="6.81409"><ele></ele><time>2016-9-26T3:54:10Z</time></trkpt>
<trkpt lat="46.49726" lon="6.81398"><ele></ele><time>2016-9-26T3:54:13Z</time></trkpt>
<trkpt lat="46.49745" lon="6.81389"><ele></ele><time>2016-9-26T3:54:16Z</time></trkpt>
<trkpt lat="46.49762" lon="6.81381"><ele></ele><time>2016-9-26T3:54:19Z</time></trkpt>
<trkpt lat="46.4978" lon="6.81371"><ele></ele><time>2016-9-26T3:54:22Z</time></trkpt>
<trkpt lat="46.49798" lon="6.81362"><ele></ele><time>2016-9-26T3:54:25Z</time></trkpt>
<trkpt lat="46.49821" lon="6.81375"><ele></ele><time>2016-9-26T3:54:28Z</time></trkpt>
<trkpt lat="46.4982" lon="6.814"><ele></ele><time>2016-9-26T3:54:31Z</time></trkpt>
<trkpt lat="46.49808" lon="6.81421"><ele></ele><time>2016-9-26T3:54:34Z</time></trkpt>
<trkpt lat="46.49796" lon="6.81441"><ele></ele><time>2016-9-26T3:54:37Z</time></trkpt>
<trkpt lat="46.49783" lon="6.81461"><ele></ele><time>2016-9-26T3:54:40Z</time></trkpt>
<trkpt lat="46.49764" lon="6.8149"><ele></ele><time>2016-9-26T3:54:43Z</time></trkpt>
<trkpt lat="46.49749" lon="6.81513"><ele></ele><time>2016-9-26T3:54:46Z</time></trkpt>
<trkpt lat="46.49735" lon="6.81533"><ele></ele><time>2016-9-26T3:54:49Z</time></trkpt>
<trkpt lat="46.49721" lon="6.81557"><ele></ele><time>2016-9-26T3:54:52Z</time></trkpt>
<trkpt lat="46.49709" lon="6.81577"><ele></ele><time>2016-9-26T3:54:55Z</time></trkpt>
<trkpt lat="46.49698" lon="6.81599"><ele></ele><time>2016-9-26T3:54:58Z</time></trkpt>
<trkpt lat="46.49689" lon="6.81618"><ele></ele><time>2016-9-26T3:55:1Z</time></trkpt>
<trkpt lat="46.49674" lon="6.81638"><ele></ele><time>2016-9-26T3:55:4Z</time></trkpt>
<trkpt lat="46.49656" lon="6.81649"><ele></ele><time>2016-9-26T3:55:7Z</time></trkpt>
<trkpt lat="46.49639" lon="6.8167"><ele></ele><time>2016-9-26T3:55:10Z</time></trkpt>
<trkpt lat="46.49625" lon="6.81688"><ele></ele><time>2016-9-26T3:55:13Z</time></trkpt>
<trkpt lat="46.49619" lon="6.81711"><ele></ele><time>2016-9-26T3:55:16Z</time></trkpt>
<trkpt lat="46.49614" lon="6.81739"><ele></ele><time>2016-9-26T3:55:19Z</time></trkpt>
<trkpt lat="46.49608" lon="6.81765"><ele></ele><time>2016-9-26T3:55:22Z</time></trkpt>
<trkpt lat="46.49604" lon="6.81791"><ele></ele><time>2016-9-26T3:55:25Z</time></trkpt>
<trkpt lat="46.49597" lon="6.81816"><ele></ele><time>2016-9-26T3:55:28Z</time></trkpt>
<trkpt lat="46.4959" lon="6.8184"><ele></ele><time>2016-9-26T3:55:31Z</time></trkpt>
<trkpt lat="46.49579" lon="6.81862"><ele></ele><time>2016-9-26T3:55:34Z</time></trkpt>
<trkpt lat="46.49571" lon="6.81887"><ele></ele><time>2016-9-26T3:55:37Z</time></trkpt>
<trkpt lat="46.49562" lon="6.81917"><ele></ele><time>2016-9-26T3:55:40Z</time></trkpt>
<trkpt lat="46.49555" lon="6.81944"><ele></ele><time>2016-9-26T3:55:43Z</time></trkpt>
<trkpt lat="46.49554" lon="6.81948"><ele></ele><time>2016-9-26T3:55:46Z</time></trkpt>
<trkpt lat="46.4955" lon="6.81969"><ele></ele><time>2016-9-26T3:55:49Z</time></trkpt>
<trkpt lat="46.49549" lon="6.81978"><ele></ele><time>2016-9-26T3:55:52Z</time></trkpt>
<trkpt lat="46.49549" lon="6.82007"><ele></ele><time>2016-9-26T3:55:55Z</time></trkpt>
<trkpt lat="46.49551" lon="6.82034"><ele></ele><time>2016-9-26T3:55:58Z</time></trkpt>
<trkpt lat="46.49552" lon="6.8206"><ele></ele><time>2016-9-26T3:56:1Z</time></trkpt>
<trkpt lat="46.49562" lon="6.82082"><ele></ele><time>2016-9-26T3:56:4Z</time></trkpt>
<trkpt lat="46.49589" lon="6.82076"><ele></ele><time>2016-9-26T3:56:7Z</time></trkpt>
<trkpt lat="46.49597" lon="6.82052"><ele></ele><time>2016-9-26T3:56:10Z</time></trkpt>
<trkpt lat="46.49598" lon="6.82025"><ele></ele><time>2016-9-26T3:56:13Z</time></trkpt>
<trkpt lat="46.49597" lon="6.81998"><ele></ele><time>2016-9-26T3:56:16Z</time></trkpt>
<trkpt lat="46.49609" lon="6.81977"><ele></ele><time>2016-9-26T3:56:19Z</time></trkpt>
<trkpt lat="46.49625" lon="6.81964"><ele></ele><time>2016-9-26T3:56:22Z</time></trkpt>
<trkpt lat="46.49643" lon="6.81947"><ele></ele><time>2016-9-26T3:56:25Z</time></trkpt>
<trkpt lat="46.49662" lon="6.81906"><ele></ele><time>2016-9-26T3:56:28Z</time></trkpt>
<trkpt lat="46.49672" lon="6.81882"><ele></ele><time>2016-9-26T3:56:31Z</time></trkpt>
<trkpt lat="46.49689" lon="6.8187"><ele></ele><time>2016-9-26T3:56:34Z</time></trkpt>
<trkpt lat="46.49707" lon="6.81861"><ele></ele><time>2016-9-26T3:56:37Z</time></trkpt>
<trkpt lat="46.49726" lon="6.81846"><ele></ele><time>2016-9-26T3:56:40Z</time></trkpt>
<trkpt lat="46.49742" lon="6.81834"><ele></ele><time>2016-9-26T3:56:43Z</time></trkpt>
<trkpt lat="46.49751" lon="6.81831"><ele></ele><time>2016-9-26T3:56:46Z</time></trkpt>
<trkpt lat="46.49764" lon="6.81835"><ele></ele><time>2016-9-26T3:56:49Z</time></trkpt>
<trkpt lat="46.49772" lon="6.81841"><ele></ele><time>2016-9-26T3:56:52Z</time></trkpt>
<trkpt lat="46.49781" lon="6.81849"><ele></ele><time>2016-9-26T3:56:55Z</time></trkpt>
<trkpt lat="46.49787" lon="6.81878"><ele></ele><time>2016-9-26T3:56:58Z</time></trkpt>
<trkpt lat="46.49786" lon="6.81883"><ele></ele><time>2016-9-26T3:57:1Z</time></trkpt>
<trkpt lat="46.49784" lon="6.819"><ele></ele><time>2016-9-26T3:57:4Z</time></trkpt>
<trkpt lat="46.4978" lon="6.81931"><ele></ele><time>2016-9-26T3:57:7Z</time></trkpt>
<trkpt lat="46.49778" lon="6.81963"><ele></ele><time>2016-9-26T3:57:10Z</time></trkpt>
<trkpt lat="46.49776" lon="6.8199"><ele></ele><time>2016-9-26T3:57:13Z</time></trkpt>
<trkpt lat="46.49772" lon="6.82021"><ele></ele><time>2016-9-26T3:57:16Z</time></trkpt>
<trkpt lat="46.49767" lon="6.82048"><ele></ele><time>2016-9-26T3:57:19Z</time></trkpt>
<trkpt lat="46.49755" lon="6.82074"><ele></ele><time>2016-9-26T3:57:22Z</time></trkpt>
<trkpt lat="46.49738" lon="6.82093"><ele></ele><time>2016-9-26T3:57:25Z</time></trkpt>
<trkpt lat="46.4973" lon="6.82098"><ele></ele><time>2016-9-26T3:57:28Z</time></trkpt>
<trkpt lat="46.49712" lon="6.82102"><ele></ele><time>2016-9-26T3:57:31Z</time></trkpt>
<trkpt lat="46.49693" lon="6.82105"><ele></ele><time>2016-9-26T3:57:34Z</time></trkpt>
<trkpt lat="46.49671" lon="6.82121"><ele></ele><time>2016-9-26T3:57:37Z</time></trkpt>
<trkpt lat="46.4966" lon="6.82137"><ele></ele><time>2016-9-26T3:57:40Z</time></trkpt>
<trkpt lat="46.49646" lon="6.82154"><ele></ele><time>2016-9-26T3:57:43Z</time></trkpt>
<trkpt lat="46.49632" lon="6.82163"><ele></ele><time>2016-9-26T3:57:46Z</time></trkpt>
<trkpt lat="46.49618" lon="6.82174"><ele></ele><time>2016-9-26T3:57:49Z</time></trkpt>
<trkpt lat="46.49604" lon="6.82188"><ele></ele><time>2016-9-26T3:57:52Z</time></trkpt>
<trkpt lat="46.49597" lon="6.82196"><ele></ele><time>2016-9-26T3:57:55Z</time></trkpt>
<trkpt lat="46.49589" lon="6.82205"><ele></ele><time>2016-9-26T3:57:58Z</time></trkpt>
<trkpt lat="46.49572" lon="6.82223"><ele></ele><time>2016-9-26T3:58:1Z</time></trkpt>
<trkpt lat="46.49549" lon="6.82245"><ele></ele><time>2016-9-26T3:58:4Z</time></trkpt>
<trkpt lat="46.49542" lon="6.82254"><ele></ele><time>2016-9-26T3:58:7Z</time></trkpt>
<trkpt lat="46.49527" lon="6.82273"><ele></ele><time>2016-9-26T3:58:10Z</time></trkpt>
<trkpt lat="46.49511" lon="6.82288"><ele></ele><time>2016-9-26T3:58:13Z</time></trkpt>
<trkpt lat="46.49488" lon="6.82305"><ele></ele><time>2016-9-26T3:58:16Z</time></trkpt>
<trkpt lat="46.49469" lon="6.82318"><ele></ele><time>2016-9-26T3:58:19Z</time></trkpt>
<trkpt lat="46.49463" lon="6.8232"><ele></ele><time>2016-9-26T3:58:22Z</time></trkpt>
<trkpt lat="46.49453" lon="6.82319"><ele></ele><time>2016-9-26T3:58:25Z</time></trkpt>
<trkpt lat="46.49436" lon="6.82309"><ele></ele><time>2016-9-26T3:58:28Z</time></trkpt>
<trkpt lat="46.49431" lon="6.82304"><ele></ele><time>2016-9-26T3:58:31Z</time></trkpt>
<trkpt lat="46.49421" lon="6.82295"><ele></ele><time>2016-9-26T3:58:34Z</time></trkpt>
<trkpt lat="46.49401" lon="6.82294"><ele></ele><time>2016-9-26T3:58:37Z</time></trkpt>
<trkpt lat="46.49396" lon="6.82295"><ele></ele><time>2016-9-26T3:58:40Z</time></trkpt>
<trkpt lat="46.49374" lon="6.82294"><ele></ele><time>2016-9-26T3:58:43Z</time></trkpt>
<trkpt lat="46.49369" lon="6.82295"><ele></ele><time>2016-9-26T3:58:46Z</time></trkpt>
<trkpt lat="46.49352" lon="6.82305"><ele></ele><time>2016-9-26T3:58:49Z</time></trkpt>
<trkpt lat="46.49346" lon="6.82309"><ele></ele><time>2016-9-26T3:58:52Z</time></trkpt>
<trkpt lat="46.49337" lon="6.82317"><ele></ele><time>2016-9-26T3:58:55Z</time></trkpt>
<trkpt lat="46.49323" lon="6.82339"><ele></ele><time>2016-9-26T3:58:58Z</time></trkpt>
<trkpt lat="46.49309" lon="6.82362"><ele></ele><time>2016-9-26T3:59:1Z</time></trkpt>
<trkpt lat="46.49304" lon="6.82369"><ele></ele><time>2016-9-26T3:59:4Z</time></trkpt>
<trkpt lat="46.49296" lon="6.82382"><ele></ele><time>2016-9-26T3:59:7Z</time></trkpt>
<trkpt lat="46.49287" lon="6.82403"><ele></ele><time>2016-9-26T3:59:10Z</time></trkpt>
<trkpt lat="46.49283" lon="6.82431"><ele></ele><time>2016-9-26T3:59:13Z</time></trkpt>
<trkpt lat="46.49282" lon="6.82454"><ele></ele><time>2016-9-26T3:59:16Z</time></trkpt>
<trkpt lat="46.49283" lon="6.8248"><ele></ele><time>2016-9-26T3:59:19Z</time></trkpt>
<trkpt lat="46.49283" lon="6.82498"><ele></ele><time>2016-9-26T3:59:22Z</time></trkpt>
<trkpt lat="46.4928" lon="6.82526"><ele></ele><time>2016-9-26T3:59:25Z</time></trkpt>
<trkpt lat="46.49271" lon="6.82551"><ele></ele><time>2016-9-26T3:59:28Z</time></trkpt>
<trkpt lat="46.49259" lon="6.82575"><ele></ele><time>2016-9-26T3:59:31Z</time></trkpt>
<trkpt lat="46.49247" lon="6.82598"><ele></ele><time>2016-9-26T3:59:34Z</time></trkpt>
<trkpt lat="46.49232" lon="6.82613"><ele></ele><time>2016-9-26T3:59:37Z</time></trkpt>
<trkpt lat="46.49213" lon="6.82627"><ele></ele><time>2016-9-26T3:59:40Z</time></trkpt>
<trkpt lat="46.49196" lon="6.82637"><ele></ele><time>2016-9-26T3:59:43Z</time></trkpt>
<trkpt lat="46.4918" lon="6.82651"><ele></ele><time>2016-9-26T3:59:46Z</time></trkpt>
<trkpt lat="46.49164" lon="6.82666"><ele></ele><time>2016-9-26T3:59:49Z</time></trkpt>
<trkpt lat="46.49143" lon="6.82678"><ele></ele><time>2016-9-26T3:59:52Z</time></trkpt>
<trkpt lat="46.49126" lon="6.82699"><ele></ele><time>2016-9-26T3:59:55Z</time></trkpt>
<trkpt lat="46.49122" lon="6.82703"><ele></ele><time>2016-9-26T3:59:58Z</time></trkpt>
<trkpt lat="46.49105" lon="6.82714"><ele></ele><time>2016-9-26T4:0:1Z</time></trkpt>
<trkpt lat="46.49086" lon="6.82724"><ele></ele><time>2016-9-26T4:0:4Z</time></trkpt>
<trkpt lat="46.49069" lon="6.82736"><ele></ele><time>2016-9-26T4:0:7Z</time></trkpt>
<trkpt lat="46.49054" lon="6.82742"><ele></ele><time>2016-9-26T4:0:10Z</time></trkpt>
<trkpt lat="46.49051" lon="6.82744"><ele></ele><time>2016-9-26T4:0:13Z</time></trkpt>
<trkpt lat="46.49047" lon="6.82744"><ele></ele><time>2016-9-26T4:0:16Z</time></trkpt>
<trkpt lat="46.4904" lon="6.82747"><ele></ele><time>2016-9-26T4:0:19Z</time></trkpt>
<trkpt lat="46.49039" lon="6.82748"><ele></ele><time>2016-9-26T4:0:22Z</time></trkpt>
<trkpt lat="46.49039" lon="6.82755"><ele></ele><time>2016-9-26T4:0:25Z</time></trkpt>
<trkpt lat="46.4903" lon="6.82781"><ele></ele><time>2016-9-26T4:0:28Z</time></trkpt>
<trkpt lat="46.49027" lon="6.82788"><ele></ele><time>2016-9-26T4:0:31Z</time></trkpt>
<trkpt lat="46.49026" lon="6.82791"><ele></ele><time>2016-9-26T4:0:34Z</time></trkpt>
<trkpt lat="46.49022" lon="6.82797"><ele></ele><time>2016-9-26T4:0:37Z</time></trkpt>
<trkpt lat="46.49019" lon="6.82807"><ele></ele><time>2016-9-26T4:0:40Z</time></trkpt>
<trkpt lat="46.49017" lon="6.8281"><ele></ele><time>2016-9-26T4:0:43Z</time></trkpt>
<trkpt lat="46.49013" lon="6.82812"><ele></ele><time>2016-9-26T4:0:46Z</time></trkpt>
<trkpt lat="46.49014" lon="6.82812"><ele></ele><time>2016-9-26T4:0:49Z</time></trkpt>
<trkpt lat="46.48996" lon="6.82826"><ele></ele><time>2016-9-26T4:0:52Z</time></trkpt>
<trkpt lat="46.48981" lon="6.82847"><ele></ele><time>2016-9-26T4:0:55Z</time></trkpt>
<trkpt lat="46.48959" lon="6.82882"><ele></ele><time>2016-9-26T4:0:58Z</time></trkpt>
<trkpt lat="46.48959" lon="6.82885"><ele></ele><time>2016-9-26T4:1:1Z</time></trkpt>
<trkpt lat="46.48957" lon="6.82894"><ele></ele><time>2016-9-26T4:1:4Z</time></trkpt>
<trkpt lat="46.48952" lon="6.82905"><ele></ele><time>2016-9-26T4:1:7Z</time></trkpt>
<trkpt lat="46.4895" lon="6.82908"><ele></ele><time>2016-9-26T4:1:10Z</time></trkpt>
<trkpt lat="46.48948" lon="6.8291"><ele></ele><time>2016-9-26T4:1:13Z</time></trkpt>
<trkpt lat="46.48942" lon="6.82919"><ele></ele><time>2016-9-26T4:1:16Z</time></trkpt>
<trkpt lat="46.48931" lon="6.82929"><ele></ele><time>2016-9-26T4:1:19Z</time></trkpt>
<trkpt lat="46.48922" lon="6.82938"><ele></ele><time>2016-9-26T4:1:22Z</time></trkpt>
<trkpt lat="46.48906" lon="6.8295"><ele></ele><time>2016-9-26T4:1:25Z</time></trkpt>
<trkpt lat="46.48889" lon="6.82969"><ele></ele><time>2016-9-26T4:1:28Z</time></trkpt>
<trkpt lat="46.48881" lon="6.82973"><ele></ele><time>2016-9-26T4:1:31Z</time></trkpt>
<trkpt lat="46.48849" lon="6.8298"><ele></ele><time>2016-9-26T4:1:34Z</time></trkpt>
<trkpt lat="46.48832" lon="6.82981"><ele></ele><time>2016-9-26T4:1:37Z</time></trkpt>
<trkpt lat="46.48825" lon="6.82983"><ele></ele><time>2016-9-26T4:1:40Z</time></trkpt>
<trkpt lat="46.48804" lon="6.82983"><ele></ele><time>2016-9-26T4:1:43Z</time></trkpt>
<trkpt lat="46.48785" lon="6.8298"><ele></ele><time>2016-9-26T4:1:46Z</time></trkpt>
<trkpt lat="46.48767" lon="6.82975"><ele></ele><time>2016-9-26T4:1:49Z</time></trkpt>
<trkpt lat="46.48766" lon="6.82973"><ele></ele><time>2016-9-26T4:1:52Z</time></trkpt>
<trkpt lat="46.48761" lon="6.82969"><ele></ele><time>2016-9-26T4:1:55Z</time></trkpt>
<trkpt lat="46.48749" lon="6.82954"><ele></ele><time>2016-9-26T4:1:58Z</time></trkpt>
<trkpt lat="46.48747" lon="6.82949"><ele></ele><time>2016-9-26T4:2:1Z</time></trkpt>
<trkpt lat="46.48739" lon="6.82953"><ele></ele><time>2016-9-26T4:2:4Z</time></trkpt>
<trkpt lat="46.4873" lon="6.82957"><ele></ele><time>2016-9-26T4:2:7Z</time></trkpt>
<trkpt lat="46.48719" lon="6.82969"><ele></ele><time>2016-9-26T4:2:10Z</time></trkpt>
<trkpt lat="46.48703" lon="6.82984"><ele></ele><time>2016-9-26T4:2:13Z</time></trkpt>
<trkpt lat="46.48684" lon="6.82998"><ele></ele><time>2016-9-26T4:2:16Z</time></trkpt>
<trkpt lat="46.48678" lon="6.83"><ele></ele><time>2016-9-26T4:2:19Z</time></trkpt>
<trkpt lat="46.48657" lon="6.83008"><ele></ele><time>2016-9-26T4:2:22Z</time></trkpt>
<trkpt lat="46.48637" lon="6.83017"><ele></ele><time>2016-9-26T4:2:25Z</time></trkpt>
<trkpt lat="46.48625" lon="6.83023"><ele></ele><time>2016-9-26T4:2:28Z</time></trkpt>
<trkpt lat="46.48605" lon="6.83029"><ele></ele><time>2016-9-26T4:2:31Z</time></trkpt>
<trkpt lat="46.486" lon="6.83029"><ele></ele><time>2016-9-26T4:2:34Z</time></trkpt>
<trkpt lat="46.48596" lon="6.83036"><ele></ele><time>2016-9-26T4:2:37Z</time></trkpt>
<trkpt lat="46.48598" lon="6.83036"><ele></ele><time>2016-9-26T4:2:40Z</time></trkpt>
<trkpt lat="46.486" lon="6.83036"><ele></ele><time>2016-9-26T4:2:43Z</time></trkpt>
<trkpt lat="46.48596" lon="6.83041"><ele></ele><time>2016-9-26T4:2:46Z</time></trkpt>
<trkpt lat="46.48595" lon="6.83039"><ele></ele><time>2016-9-26T4:2:49Z</time></trkpt>
<trkpt lat="46.48589" lon="6.83027"><ele></ele><time>2016-9-26T4:2:52Z</time></trkpt>
<trkpt lat="46.48578" lon="6.83012"><ele></ele><time>2016-9-26T4:2:55Z</time></trkpt>
<trkpt lat="46.48564" lon="6.82992"><ele></ele><time>2016-9-26T4:2:58Z</time></trkpt>
<trkpt lat="46.4856" lon="6.82986"><ele></ele><time>2016-9-26T4:3:1Z</time></trkpt>
<trkpt lat="46.48549" lon="6.82964"><ele></ele><time>2016-9-26T4:3:4Z</time></trkpt>
<trkpt lat="46.4854" lon="6.82937"><ele></ele><time>2016-9-26T4:3:7Z</time></trkpt>
<trkpt lat="46.48532" lon="6.82907"><ele></ele><time>2016-9-26T4:3:10Z</time></trkpt>
<trkpt lat="46.48523" lon="6.82875"><ele></ele><time>2016-9-26T4:3:13Z</time></trkpt>
<trkpt lat="46.48515" lon="6.82845"><ele></ele><time>2016-9-26T4:3:16Z</time></trkpt>
<trkpt lat="46.48513" lon="6.82835"><ele></ele><time>2016-9-26T4:3:19Z</time></trkpt>
<trkpt lat="46.4851" lon="6.82803"><ele></ele><time>2016-9-26T4:3:22Z</time></trkpt>
<trkpt lat="46.48509" lon="6.82774"><ele></ele><time>2016-9-26T4:3:25Z</time></trkpt>
<trkpt lat="46.48509" lon="6.82764"><ele></ele><time>2016-9-26T4:3:28Z</time></trkpt>
<trkpt lat="46.48509" lon="6.82754"><ele></ele><time>2016-9-26T4:3:31Z</time></trkpt>
<trkpt lat="46.4851" lon="6.82722"><ele></ele><time>2016-9-26T4:3:34Z</time></trkpt>
<trkpt lat="46.4851" lon="6.82701"><ele></ele><time>2016-9-26T4:3:37Z</time></trkpt>
<trkpt lat="46.4851" lon="6.82671"><ele></ele><time>2016-9-26T4:3:40Z</time></trkpt>
<trkpt lat="46.4851" lon="6.82661"><ele></ele><time>2016-9-26T4:3:43Z</time></trkpt>
<trkpt lat="46.48506" lon="6.82629"><ele></ele><time>2016-9-26T4:3:46Z</time></trkpt>
<trkpt lat="46.48502" lon="6.82603"><ele></ele><time>2016-9-26T4:3:49Z</time></trkpt>
<trkpt lat="46.48498" lon="6.82566"><ele></ele><time>2016-9-26T4:3:52Z</time></trkpt>
<trkpt lat="46.48499" lon="6.82531"><ele></ele><time>2016-9-26T4:3:55Z</time></trkpt>
<trkpt lat="46.48501" lon="6.82504"><ele></ele><time>2016-9-26T4:3:58Z</time></trkpt>
<trkpt lat="46.48502" lon="6.825"><ele></ele><time>2016-9-26T4:4:1Z</time></trkpt>
<trkpt lat="46.48503" lon="6.82485"><ele></ele><time>2016-9-26T4:4:4Z</time></trkpt>
<trkpt lat="46.48503" lon="6.82478"><ele></ele><time>2016-9-26T4:4:7Z</time></trkpt>
<trkpt lat="46.485" lon="6.82452"><ele></ele><time>2016-9-26T4:4:10Z</time></trkpt>
<trkpt lat="46.48496" lon="6.8242"><ele></ele><time>2016-9-26T4:4:13Z</time></trkpt>
<trkpt lat="46.48491" lon="6.82382"><ele></ele><time>2016-9-26T4:4:16Z</time></trkpt>
<trkpt lat="46.48487" lon="6.82356"><ele></ele><time>2016-9-26T4:4:19Z</time></trkpt>
<trkpt lat="46.48481" lon="6.82331"><ele></ele><time>2016-9-26T4:4:22Z</time></trkpt>
<trkpt lat="46.48475" lon="6.82306"><ele></ele><time>2016-9-26T4:4:25Z</time></trkpt>
<trkpt lat="46.48464" lon="6.82271"><ele></ele><time>2016-9-26T4:4:28Z</time></trkpt>
<trkpt lat="46.48458" lon="6.8225"><ele></ele><time>2016-9-26T4:4:31Z</time></trkpt>
<trkpt lat="46.48456" lon="6.82227"><ele></ele><time>2016-9-26T4:4:34Z</time></trkpt>
<trkpt lat="46.48456" lon="6.82202"><ele></ele><time>2016-9-26T4:4:37Z</time></trkpt>
<trkpt lat="46.48459" lon="6.82166"><ele></ele><time>2016-9-26T4:4:40Z</time></trkpt>
<trkpt lat="46.48462" lon="6.82132"><ele></ele><time>2016-9-26T4:4:43Z</time></trkpt>
<trkpt lat="46.48465" lon="6.82111"><ele></ele><time>2016-9-26T4:4:46Z</time></trkpt>
<trkpt lat="46.48462" lon="6.82079"><ele></ele><time>2016-9-26T4:4:49Z</time></trkpt>
<trkpt lat="46.48459" lon="6.82068"><ele></ele><time>2016-9-26T4:4:52Z</time></trkpt>
<trkpt lat="46.48442" lon="6.82047"><ele></ele><time>2016-9-26T4:4:55Z</time></trkpt>
<trkpt lat="46.48432" lon="6.8204"><ele></ele><time>2016-9-26T4:4:58Z</time></trkpt>
<trkpt lat="46.48421" lon="6.82032"><ele></ele><time>2016-9-26T4:5:1Z</time></trkpt>
<trkpt lat="46.48418" lon="6.82024"><ele></ele><time>2016-9-26T4:5:4Z</time></trkpt>
<trkpt lat="46.48419" lon="6.82014"><ele></ele><time>2016-9-26T4:5:7Z</time></trkpt>
<trkpt lat="46.4842" lon="6.82009"><ele></ele><time>2016-9-26T4:5:10Z</time></trkpt>
<trkpt lat="46.48428" lon="6.81983"><ele></ele><time>2016-9-26T4:5:13Z</time></trkpt>
<trkpt lat="46.48435" lon="6.81959"><ele></ele><time>2016-9-26T4:5:16Z</time></trkpt>
<trkpt lat="46.48443" lon="6.8193"><ele></ele><time>2016-9-26T4:5:19Z</time></trkpt>
<trkpt lat="46.48449" lon="6.8191"><ele></ele><time>2016-9-26T4:5:22Z</time></trkpt>
<trkpt lat="46.4846" lon="6.81877"><ele></ele><time>2016-9-26T4:5:25Z</time></trkpt>
<trkpt lat="46.48471" lon="6.81843"><ele></ele><time>2016-9-26T4:5:28Z</time></trkpt>
<trkpt lat="46.48479" lon="6.81819"><ele></ele><time>2016-9-26T4:5:31Z</time></trkpt>
<trkpt lat="46.48488" lon="6.8179"><ele></ele><time>2016-9-26T4:5:34Z</time></trkpt>
<trkpt lat="46.48499" lon="6.81762"><ele></ele><time>2016-9-26T4:5:37Z</time></trkpt>
<trkpt lat="46.48513" lon="6.81735"><ele></ele><time>2016-9-26T4:5:40Z</time></trkpt>
<trkpt lat="46.48528" lon="6.81708"><ele></ele><time>2016-9-26T4:5:43Z</time></trkpt>
<trkpt lat="46.48542" lon="6.81682"><ele></ele><time>2016-9-26T4:5:46Z</time></trkpt>
<trkpt lat="46.48556" lon="6.81657"><ele></ele><time>2016-9-26T4:5:49Z</time></trkpt>
<trkpt lat="46.48569" lon="6.81634"><ele></ele><time>2016-9-26T4:5:52Z</time></trkpt>
<trkpt lat="46.48583" lon="6.81612"><ele></ele><time>2016-9-26T4:5:55Z</time></trkpt>
<trkpt lat="46.48597" lon="6.8159"><ele></ele><time>2016-9-26T4:5:58Z</time></trkpt>
<trkpt lat="46.48611" lon="6.81569"><ele></ele><time>2016-9-26T4:6:1Z</time></trkpt>
<trkpt lat="46.48624" lon="6.81548"><ele></ele><time>2016-9-26T4:6:4Z</time></trkpt>
<trkpt lat="46.4863" lon="6.81537"><ele></ele><time>2016-9-26T4:6:7Z</time></trkpt>
<trkpt lat="46.48636" lon="6.81527"><ele></ele><time>2016-9-26T4:6:10Z</time></trkpt>
<trkpt lat="46.48649" lon="6.81508"><ele></ele><time>2016-9-26T4:6:13Z</time></trkpt>
<trkpt lat="46.48662" lon="6.81491"><ele></ele><time>2016-9-26T4:6:16Z</time></trkpt>
<trkpt lat="46.48681" lon="6.81471"><ele></ele><time>2016-9-26T4:6:19Z</time></trkpt>
<trkpt lat="46.48699" lon="6.81454"><ele></ele><time>2016-9-26T4:6:22Z</time></trkpt>
<trkpt lat="46.48714" lon="6.81435"><ele></ele><time>2016-9-26T4:6:25Z</time></trkpt>
<trkpt lat="46.48719" lon="6.81426"><ele></ele><time>2016-9-26T4:6:28Z</time></trkpt>
<trkpt lat="46.48729" lon="6.81396"><ele></ele><time>2016-9-26T4:6:31Z</time></trkpt>
<trkpt lat="46.48739" lon="6.81361"><ele></ele><time>2016-9-26T4:6:34Z</time></trkpt>
<trkpt lat="46.48745" lon="6.81336"><ele></ele><time>2016-9-26T4:6:37Z</time></trkpt>
<trkpt lat="46.48751" lon="6.8131"><ele></ele><time>2016-9-26T4:6:40Z</time></trkpt>
<trkpt lat="46.48757" lon="6.81283"><ele></ele><time>2016-9-26T4:6:43Z</time></trkpt>
<trkpt lat="46.48763" lon="6.81255"><ele></ele><time>2016-9-26T4:6:46Z</time></trkpt>
<trkpt lat="46.48769" lon="6.81225"><ele></ele><time>2016-9-26T4:6:49Z</time></trkpt>
<trkpt lat="46.48775" lon="6.81193"><ele></ele><time>2016-9-26T4:6:52Z</time></trkpt>
<trkpt lat="46.48781" lon="6.81161"><ele></ele><time>2016-9-26T4:6:55Z</time></trkpt>
<trkpt lat="46.48787" lon="6.81129"><ele></ele><time>2016-9-26T4:6:58Z</time></trkpt>
<trkpt lat="46.48793" lon="6.81096"><ele></ele><time>2016-9-26T4:7:1Z</time></trkpt>
<trkpt lat="46.48799" lon="6.81064"><ele></ele><time>2016-9-26T4:7:4Z</time></trkpt>
<trkpt lat="46.48806" lon="6.81033"><ele></ele><time>2016-9-26T4:7:7Z</time></trkpt>
<trkpt lat="46.48814" lon="6.81002"><ele></ele><time>2016-9-26T4:7:10Z</time></trkpt>
<trkpt lat="46.48823" lon="6.80972"><ele></ele><time>2016-9-26T4:7:13Z</time></trkpt>
<trkpt lat="46.48832" lon="6.80941"><ele></ele><time>2016-9-26T4:7:16Z</time></trkpt>
<trkpt lat="46.48843" lon="6.80908"><ele></ele><time>2016-9-26T4:7:19Z</time></trkpt>
<trkpt lat="46.48854" lon="6.80876"><ele></ele><time>2016-9-26T4:7:22Z</time></trkpt>
<trkpt lat="46.48865" lon="6.80843"><ele></ele><time>2016-9-26T4:7:25Z</time></trkpt>
<trkpt lat="46.48873" lon="6.80809"><ele></ele><time>2016-9-26T4:7:28Z</time></trkpt>
<trkpt lat="46.48877" lon="6.80778"><ele></ele><time>2016-9-26T4:7:31Z</time></trkpt>
<trkpt lat="46.48881" lon="6.80745"><ele></ele><time>2016-9-26T4:7:34Z</time></trkpt>
<trkpt lat="46.48881" lon="6.80736"><ele></ele><time>2016-9-26T4:7:37Z</time></trkpt>
<trkpt lat="46.48875" lon="6.80703"><ele></ele><time>2016-9-26T4:7:40Z</time></trkpt>
<trkpt lat="46.48867" lon="6.80674"><ele></ele><time>2016-9-26T4:7:43Z</time></trkpt>
<trkpt lat="46.48859" lon="6.80646"><ele></ele><time>2016-9-26T4:7:46Z</time></trkpt>
<trkpt lat="46.48851" lon="6.80617"><ele></ele><time>2016-9-26T4:7:49Z</time></trkpt>
<trkpt lat="46.48846" lon="6.80603"><ele></ele><time>2016-9-26T4:7:52Z</time></trkpt>
<trkpt lat="46.48833" lon="6.80583"><ele></ele><time>2016-9-26T4:7:55Z</time></trkpt>
<trkpt lat="46.48821" lon="6.80569"><ele></ele><time>2016-9-26T4:7:58Z</time></trkpt>
<trkpt lat="46.48806" lon="6.80557"><ele></ele><time>2016-9-26T4:8:1Z</time></trkpt>
<trkpt lat="46.48781" lon="6.80549"><ele></ele><time>2016-9-26T4:8:4Z</time></trkpt>
<trkpt lat="46.48763" lon="6.80553"><ele></ele><time>2016-9-26T4:8:7Z</time></trkpt>
<trkpt lat="46.48755" lon="6.80557"><ele></ele><time>2016-9-26T4:8:10Z</time></trkpt>
<trkpt lat="46.48748" lon="6.8056"><ele></ele><time>2016-9-26T4:8:13Z</time></trkpt>
<trkpt lat="46.48727" lon="6.80551"><ele></ele><time>2016-9-26T4:8:16Z</time></trkpt>
<trkpt lat="46.48719" lon="6.80519"><ele></ele><time>2016-9-26T4:8:19Z</time></trkpt>
<trkpt lat="46.48719" lon="6.80507"><ele></ele><time>2016-9-26T4:8:22Z</time></trkpt>
<trkpt lat="46.48717" lon="6.80485"><ele></ele><time>2016-9-26T4:8:25Z</time></trkpt>
<trkpt lat="46.48708" lon="6.80453"><ele></ele><time>2016-9-26T4:8:28Z</time></trkpt>
<trkpt lat="46.48694" lon="6.80423"><ele></ele><time>2016-9-26T4:8:31Z</time></trkpt>
<trkpt lat="46.48689" lon="6.80414"><ele></ele><time>2016-9-26T4:8:34Z</time></trkpt>
<trkpt lat="46.48667" lon="6.80397"><ele></ele><time>2016-9-26T4:8:37Z</time></trkpt>
<trkpt lat="46.48659" lon="6.80391"><ele></ele><time>2016-9-26T4:8:40Z</time></trkpt>
<trkpt lat="46.48644" lon="6.80376"><ele></ele><time>2016-9-26T4:8:43Z</time></trkpt>
<trkpt lat="46.48626" lon="6.80355"><ele></ele><time>2016-9-26T4:8:46Z</time></trkpt>
<trkpt lat="46.48616" lon="6.80328"><ele></ele><time>2016-9-26T4:8:49Z</time></trkpt>
<trkpt lat="46.48614" lon="6.80316"><ele></ele><time>2016-9-26T4:8:52Z</time></trkpt>
<trkpt lat="46.48612" lon="6.80303"><ele></ele><time>2016-9-26T4:8:55Z</time></trkpt>
<trkpt lat="46.48611" lon="6.8029"><ele></ele><time>2016-9-26T4:8:58Z</time></trkpt>
<trkpt lat="46.48613" lon="6.8026"><ele></ele><time>2016-9-26T4:9:1Z</time></trkpt>
<trkpt lat="46.48617" lon="6.8023"><ele></ele><time>2016-9-26T4:9:4Z</time></trkpt>
<trkpt lat="46.48618" lon="6.80197"><ele></ele><time>2016-9-26T4:9:7Z</time></trkpt>
<trkpt lat="46.48616" lon="6.80165"><ele></ele><time>2016-9-26T4:9:10Z</time></trkpt>
<trkpt lat="46.48613" lon="6.80136"><ele></ele><time>2016-9-26T4:9:13Z</time></trkpt>
<trkpt lat="46.4861" lon="6.80124"><ele></ele><time>2016-9-26T4:9:16Z</time></trkpt>
<trkpt lat="46.48605" lon="6.801"><ele></ele><time>2016-9-26T4:9:19Z</time></trkpt>
<trkpt lat="46.486" lon="6.80063"><ele></ele><time>2016-9-26T4:9:22Z</time></trkpt>
<trkpt lat="46.48591" lon="6.80039"><ele></ele><time>2016-9-26T4:9:25Z</time></trkpt>
<trkpt lat="46.48578" lon="6.80019"><ele></ele><time>2016-9-26T4:9:28Z</time></trkpt>
<trkpt lat="46.48565" lon="6.79998"><ele></ele><time>2016-9-26T4:9:31Z</time></trkpt>
<trkpt lat="46.48553" lon="6.79975"><ele></ele><time>2016-9-26T4:9:34Z</time></trkpt>
<trkpt lat="46.48541" lon="6.79951"><ele></ele><time>2016-9-26T4:9:37Z</time></trkpt>
<trkpt lat="46.48535" lon="6.79938"><ele></ele><time>2016-9-26T4:9:40Z</time></trkpt>
<trkpt lat="46.48529" lon="6.79925"><ele></ele><time>2016-9-26T4:9:43Z</time></trkpt>
<trkpt lat="46.4852" lon="6.79894"><ele></ele><time>2016-9-26T4:9:46Z</time></trkpt>
<trkpt lat="46.4851" lon="6.7986"><ele></ele><time>2016-9-26T4:9:49Z</time></trkpt>
<trkpt lat="46.48494" lon="6.79829"><ele></ele><time>2016-9-26T4:9:52Z</time></trkpt>
<trkpt lat="46.48472" lon="6.79809"><ele></ele><time>2016-9-26T4:9:55Z</time></trkpt>
<trkpt lat="46.48448" lon="6.79796"><ele></ele><time>2016-9-26T4:9:58Z</time></trkpt>
<trkpt lat="46.48423" lon="6.79789"><ele></ele><time>2016-9-26T4:10:1Z</time></trkpt>
<trkpt lat="46.48399" lon="6.79783"><ele></ele><time>2016-9-26T4:10:4Z</time></trkpt>
<trkpt lat="46.48376" lon="6.79775"><ele></ele><time>2016-9-26T4:10:7Z</time></trkpt>
<trkpt lat="46.48354" lon="6.79768"><ele></ele><time>2016-9-26T4:10:10Z</time></trkpt>
<trkpt lat="46.48333" lon="6.79765"><ele></ele><time>2016-9-26T4:10:13Z</time></trkpt>
<trkpt lat="46.48312" lon="6.79766"><ele></ele><time>2016-9-26T4:10:16Z</time></trkpt>
<trkpt lat="46.48293" lon="6.79767"><ele></ele><time>2016-9-26T4:10:19Z</time></trkpt>
<trkpt lat="46.48283" lon="6.79766"><ele></ele><time>2016-9-26T4:10:22Z</time></trkpt>
<trkpt lat="46.48265" lon="6.79764"><ele></ele><time>2016-9-26T4:10:25Z</time></trkpt>
<trkpt lat="46.48247" lon="6.79763"><ele></ele><time>2016-9-26T4:10:28Z</time></trkpt>
<trkpt lat="46.48229" lon="6.79747"><ele></ele><time>2016-9-26T4:10:31Z</time></trkpt>
<trkpt lat="46.48219" lon="6.79725"><ele></ele><time>2016-9-26T4:10:34Z</time></trkpt>
<trkpt lat="46.48213" lon="6.7971"><ele></ele><time>2016-9-26T4:10:37Z</time></trkpt>
<trkpt lat="46.48217" lon="6.79679"><ele></ele><time>2016-9-26T4:10:40Z</time></trkpt>
<trkpt lat="46.48227" lon="6.79666"><ele></ele><time>2016-9-26T4:10:43Z</time></trkpt>
<trkpt lat="46.48229" lon="6.79664"><ele></ele><time>2016-9-26T4:10:46Z</time></trkpt>
<trkpt lat="46.48224" lon="6.79666"><ele></ele><time>2016-9-26T4:10:49Z</time></trkpt>
<trkpt lat="46.48222" lon="6.79671"><ele></ele><time>2016-9-26T4:10:52Z</time></trkpt>
<trkpt lat="46.48222" lon="6.79674"><ele></ele><time>2016-9-26T4:10:55Z</time></trkpt>
<trkpt lat="46.48236" lon="6.79659"><ele></ele><time>2016-9-26T4:10:58Z</time></trkpt>
<trkpt lat="46.48253" lon="6.79638"><ele></ele><time>2016-9-26T4:11:1Z</time></trkpt>
<trkpt lat="46.48264" lon="6.79612"><ele></ele><time>2016-9-26T4:11:4Z</time></trkpt>
<trkpt lat="46.48267" lon="6.796"><ele></ele><time>2016-9-26T4:11:7Z</time></trkpt>
<trkpt lat="46.48269" lon="6.79595"><ele></ele><time>2016-9-26T4:11:10Z</time></trkpt>
<trkpt lat="46.4827" lon="6.79589"><ele></ele><time>2016-9-26T4:11:13Z</time></trkpt>
<trkpt lat="46.4828" lon="6.79563"><ele></ele><time>2016-9-26T4:11:16Z</time></trkpt>
<trkpt lat="46.4829" lon="6.79538"><ele></ele><time>2016-9-26T4:11:19Z</time></trkpt>
<trkpt lat="46.48299" lon="6.79514"><ele></ele><time>2016-9-26T4:11:22Z</time></trkpt>
<trkpt lat="46.48307" lon="6.79486"><ele></ele><time>2016-9-26T4:11:25Z</time></trkpt>
<trkpt lat="46.48316" lon="6.79463"><ele></ele><time>2016-9-26T4:11:28Z</time></trkpt>
<trkpt lat="46.48329" lon="6.79441"><ele></ele><time>2016-9-26T4:11:31Z</time></trkpt>
<trkpt lat="46.48343" lon="6.79417"><ele></ele><time>2016-9-26T4:11:34Z</time></trkpt>
<trkpt lat="46.4835" lon="6.79405"><ele></ele><time>2016-9-26T4:11:37Z</time></trkpt>
<trkpt lat="46.48359" lon="6.79394"><ele></ele><time>2016-9-26T4:11:40Z</time></trkpt>
<trkpt lat="46.48375" lon="6.7938"><ele></ele><time>2016-9-26T4:11:43Z</time></trkpt>
<trkpt lat="46.48395" lon="6.79365"><ele></ele><time>2016-9-26T4:11:46Z</time></trkpt>
<trkpt lat="46.48418" lon="6.7935"><ele></ele><time>2016-9-26T4:11:49Z</time></trkpt>
<trkpt lat="46.48435" lon="6.79337"><ele></ele><time>2016-9-26T4:11:52Z</time></trkpt>
<trkpt lat="46.48451" lon="6.79324"><ele></ele><time>2016-9-26T4:11:55Z</time></trkpt>
<trkpt lat="46.48468" lon="6.7931"><ele></ele><time>2016-9-26T4:11:58Z</time></trkpt>
<trkpt lat="46.48486" lon="6.79295"><ele></ele><time>2016-9-26T4:12:1Z</time></trkpt>
<trkpt lat="46.48504" lon="6.79278"><ele></ele><time>2016-9-26T4:12:4Z</time></trkpt>
<trkpt lat="46.48521" lon="6.79262"><ele></ele><time>2016-9-26T4:12:7Z</time></trkpt>
<trkpt lat="46.48538" lon="6.79249"><ele></ele><time>2016-9-26T4:12:10Z</time></trkpt>
<trkpt lat="46.48546" lon="6.79242"><ele></ele><time>2016-9-26T4:12:13Z</time></trkpt>
<trkpt lat="46.48554" lon="6.79236"><ele></ele><time>2016-9-26T4:12:16Z</time></trkpt>
<trkpt lat="46.48571" lon="6.79222"><ele></ele><time>2016-9-26T4:12:19Z</time></trkpt>
<trkpt lat="46.48579" lon="6.79214"><ele></ele><time>2016-9-26T4:12:22Z</time></trkpt>
<trkpt lat="46.48596" lon="6.79196"><ele></ele><time>2016-9-26T4:12:25Z</time></trkpt>
<trkpt lat="46.4861" lon="6.79176"><ele></ele><time>2016-9-26T4:12:28Z</time></trkpt>
<trkpt lat="46.48627" lon="6.79152"><ele></ele><time>2016-9-26T4:12:31Z</time></trkpt>
<trkpt lat="46.48639" lon="6.79136"><ele></ele><time>2016-9-26T4:12:34Z</time></trkpt>
<trkpt lat="46.48641" lon="6.79134"><ele></ele><time>2016-9-26T4:12:37Z</time></trkpt>
<trkpt lat="46.48642" lon="6.79132"><ele></ele><time>2016-9-26T4:12:40Z</time></trkpt>
<trkpt lat="46.48647" lon="6.79122"><ele></ele><time>2016-9-26T4:12:43Z</time></trkpt>
<trkpt lat="46.48649" lon="6.79119"><ele></ele><time>2016-9-26T4:12:46Z</time></trkpt>
<trkpt lat="46.48653" lon="6.79114"><ele></ele><time>2016-9-26T4:12:49Z</time></trkpt>
<trkpt lat="46.4866" lon="6.79105"><ele></ele><time>2016-9-26T4:12:52Z</time></trkpt>
<trkpt lat="46.4867" lon="6.79095"><ele></ele><time>2016-9-26T4:12:55Z</time></trkpt>
<trkpt lat="46.48685" lon="6.79077"><ele></ele><time>2016-9-26T4:12:58Z</time></trkpt>
<trkpt lat="46.48699" lon="6.79062"><ele></ele><time>2016-9-26T4:13:1Z</time></trkpt>
<trkpt lat="46.48709" lon="6.79051"><ele></ele><time>2016-9-26T4:13:4Z</time></trkpt>
<trkpt lat="46.48714" lon="6.79046"><ele></ele><time>2016-9-26T4:13:7Z</time></trkpt>
<trkpt lat="46.4872" lon="6.79041"><ele></ele><time>2016-9-26T4:13:10Z</time></trkpt>
<trkpt lat="46.48739" lon="6.79025"><ele></ele><time>2016-9-26T4:13:13Z</time></trkpt>
<trkpt lat="46.48762" lon="6.79007"><ele></ele><time>2016-9-26T4:13:16Z</time></trkpt>
<trkpt lat="46.48779" lon="6.78997"><ele></ele><time>2016-9-26T4:13:19Z</time></trkpt>
<trkpt lat="46.48796" lon="6.78986"><ele></ele><time>2016-9-26T4:13:22Z</time></trkpt>
<trkpt lat="46.48819" lon="6.78967"><ele></ele><time>2016-9-26T4:13:25Z</time></trkpt>
<trkpt lat="46.48839" lon="6.78951"><ele></ele><time>2016-9-26T4:13:28Z</time></trkpt>
<trkpt lat="46.48845" lon="6.78947"><ele></ele><time>2016-9-26T4:13:31Z</time></trkpt>
<trkpt lat="46.48863" lon="6.78939"><ele></ele><time>2016-9-26T4:13:34Z</time></trkpt>
<trkpt lat="46.48879" lon="6.78932"><ele></ele><time>2016-9-26T4:13:37Z</time></trkpt>
<trkpt lat="46.48896" lon="6.78919"><ele></ele><time>2016-9-26T4:13:40Z</time></trkpt>
<trkpt lat="46.48909" lon="6.78904"><ele></ele><time>2016-9-26T4:13:43Z</time></trkpt>
<trkpt lat="46.48917" lon="6.78892"><ele></ele><time>2016-9-26T4:13:46Z</time></trkpt>
<trkpt lat="46.48926" lon="6.78881"><ele></ele><time>2016-9-26T4:13:49Z</time></trkpt>
<trkpt lat="46.48942" lon="6.78868"><ele></ele><time>2016-9-26T4:13:52Z</time></trkpt>
<trkpt lat="46.48953" lon="6.78857"><ele></ele><time>2016-9-26T4:13:55Z</time></trkpt>
<trkpt lat="46.48964" lon="6.78835"><ele></ele><time>2016-9-26T4:13:58Z</time></trkpt>
<trkpt lat="46.48968" lon="6.78819"><ele></ele><time>2016-9-26T4:14:1Z</time></trkpt>
<trkpt lat="46.4897" lon="6.78799"><ele></ele><time>2016-9-26T4:14:4Z</time></trkpt>
<trkpt lat="46.4897" lon="6.78792"><ele></ele><time>2016-9-26T4:14:7Z</time></trkpt>
<trkpt lat="46.48973" lon="6.78773"><ele></ele><time>2016-9-26T4:14:10Z</time></trkpt>
<trkpt lat="46.48982" lon="6.78748"><ele></ele><time>2016-9-26T4:14:13Z</time></trkpt>
<trkpt lat="46.48998" lon="6.78736"><ele></ele><time>2016-9-26T4:14:16Z</time></trkpt>
<trkpt lat="46.49009" lon="6.78733"><ele></ele><time>2016-9-26T4:14:19Z</time></trkpt>
<trkpt lat="46.49031" lon="6.7873"><ele></ele><time>2016-9-26T4:14:22Z</time></trkpt>
<trkpt lat="46.49055" lon="6.78729"><ele></ele><time>2016-9-26T4:14:25Z</time></trkpt>
<trkpt lat="46.49067" lon="6.78726"><ele></ele><time>2016-9-26T4:14:28Z</time></trkpt>
<trkpt lat="46.49082" lon="6.78713"><ele></ele><time>2016-9-26T4:14:31Z</time></trkpt>
<trkpt lat="46.49087" lon="6.78688"><ele></ele><time>2016-9-26T4:14:34Z</time></trkpt>
<trkpt lat="46.49088" lon="6.78679"><ele></ele><time>2016-9-26T4:14:37Z</time></trkpt>
<trkpt lat="46.49088" lon="6.78652"><ele></ele><time>2016-9-26T4:14:40Z</time></trkpt>
<trkpt lat="46.49088" lon="6.78618"><ele></ele><time>2016-9-26T4:14:43Z</time></trkpt>
<trkpt lat="46.49088" lon="6.78587"><ele></ele><time>2016-9-26T4:14:46Z</time></trkpt>
<trkpt lat="46.49088" lon="6.78561"><ele></ele><time>2016-9-26T4:14:49Z</time></trkpt>
<trkpt lat="46.49085" lon="6.7853"><ele></ele><time>2016-9-26T4:14:52Z</time></trkpt>
<trkpt lat="46.49082" lon="6.78518"><ele></ele><time>2016-9-26T4:14:55Z</time></trkpt>
<trkpt lat="46.49065" lon="6.78495"><ele></ele><time>2016-9-26T4:14:58Z</time></trkpt>
<trkpt lat="46.49051" lon="6.78483"><ele></ele><time>2016-9-26T4:15:1Z</time></trkpt>
<trkpt lat="46.49043" lon="6.78476"><ele></ele><time>2016-9-26T4:15:4Z</time></trkpt>
<trkpt lat="46.49026" lon="6.78462"><ele></ele><time>2016-9-26T4:15:7Z</time></trkpt>
<trkpt lat="46.49017" lon="6.78454"><ele></ele><time>2016-9-26T4:15:10Z</time></trkpt>
<trkpt lat="46.49" lon="6.78439"><ele></ele><time>2016-9-26T4:15:13Z</time></trkpt>
<trkpt lat="46.48983" lon="6.78424"><ele></ele><time>2016-9-26T4:15:16Z</time></trkpt>
<trkpt lat="46.48966" lon="6.78409"><ele></ele><time>2016-9-26T4:15:19Z</time></trkpt>
<trkpt lat="46.48948" lon="6.78397"><ele></ele><time>2016-9-26T4:15:22Z</time></trkpt>
<trkpt lat="46.4893" lon="6.7839"><ele></ele><time>2016-9-26T4:15:25Z</time></trkpt>
<trkpt lat="46.48912" lon="6.78384"><ele></ele><time>2016-9-26T4:15:28Z</time></trkpt>
<trkpt lat="46.48887" lon="6.78375"><ele></ele><time>2016-9-26T4:15:31Z</time></trkpt>
<trkpt lat="46.48865" lon="6.78364"><ele></ele><time>2016-9-26T4:15:34Z</time></trkpt>
<trkpt lat="46.48845" lon="6.78351"><ele></ele><time>2016-9-26T4:15:37Z</time></trkpt>
<trkpt lat="46.48826" lon="6.78339"><ele></ele><time>2016-9-26T4:15:40Z</time></trkpt>
<trkpt lat="46.48807" lon="6.78328"><ele></ele><time>2016-9-26T4:15:43Z</time></trkpt>
<trkpt lat="46.48789" lon="6.78316"><ele></ele><time>2016-9-26T4:15:46Z</time></trkpt>
<trkpt lat="46.48772" lon="6.78301"><ele></ele><time>2016-9-26T4:15:49Z</time></trkpt>
<trkpt lat="46.48754" lon="6.7828"><ele></ele><time>2016-9-26T4:15:52Z</time></trkpt>
<trkpt lat="46.48735" lon="6.78258"><ele></ele><time>2016-9-26T4:15:55Z</time></trkpt>
<trkpt lat="46.48716" lon="6.78241"><ele></ele><time>2016-9-26T4:15:58Z</time></trkpt>
<trkpt lat="46.48696" lon="6.78232"><ele></ele><time>2016-9-26T4:16:1Z</time></trkpt>
<trkpt lat="46.48674" lon="6.78226"><ele></ele><time>2016-9-26T4:16:4Z</time></trkpt>
<trkpt lat="46.48649" lon="6.78214"><ele></ele><time>2016-9-26T4:16:7Z</time></trkpt>
<trkpt lat="46.48631" lon="6.78206"><ele></ele><time>2016-9-26T4:16:10Z</time></trkpt>
<trkpt lat="46.48608" lon="6.78194"><ele></ele><time>2016-9-26T4:16:13Z</time></trkpt>
<trkpt lat="46.48585" lon="6.78183"><ele></ele><time>2016-9-26T4:16:16Z</time></trkpt>
<trkpt lat="46.48572" lon="6.78172"><ele></ele><time>2016-9-26T4:16:19Z</time></trkpt>
<trkpt lat="46.48561" lon="6.78147"><ele></ele><time>2016-9-26T4:16:22Z</time></trkpt>
<trkpt lat="46.48563" lon="6.78115"><ele></ele><time>2016-9-26T4:16:25Z</time></trkpt>
<trkpt lat="46.48576" lon="6.78083"><ele></ele><time>2016-9-26T4:16:28Z</time></trkpt>
<trkpt lat="46.48587" lon="6.7806"><ele></ele><time>2016-9-26T4:16:31Z</time></trkpt>
<trkpt lat="46.48602" lon="6.78029"><ele></ele><time>2016-9-26T4:16:34Z</time></trkpt>
<trkpt lat="46.48599" lon="6.77996"><ele></ele><time>2016-9-26T4:16:37Z</time></trkpt>
<trkpt lat="46.48583" lon="6.77971"><ele></ele><time>2016-9-26T4:16:40Z</time></trkpt>
<trkpt lat="46.48559" lon="6.7796"><ele></ele><time>2016-9-26T4:16:43Z</time></trkpt>
<trkpt lat="46.48551" lon="6.77958"><ele></ele><time>2016-9-26T4:16:46Z</time></trkpt>
<trkpt lat="46.48537" lon="6.77951"><ele></ele><time>2016-9-26T4:16:49Z</time></trkpt>
<trkpt lat="46.48525" lon="6.77928"><ele></ele><time>2016-9-26T4:16:52Z</time></trkpt>
<trkpt lat="46.4853" lon="6.77901"><ele></ele><time>2016-9-26T4:16:55Z</time></trkpt>
<trkpt lat="46.48533" lon="6.77893"><ele></ele><time>2016-9-26T4:16:58Z</time></trkpt>
<trkpt lat="46.48543" lon="6.77867"><ele></ele><time>2016-9-26T4:17:1Z</time></trkpt>
<trkpt lat="46.48554" lon="6.77839"><ele></ele><time>2016-9-26T4:17:4Z</time></trkpt>
<trkpt lat="46.48566" lon="6.77809"><ele></ele><time>2016-9-26T4:17:7Z</time></trkpt>
<trkpt lat="46.48578" lon="6.77776"><ele></ele><time>2016-9-26T4:17:10Z</time></trkpt>
<trkpt lat="46.48587" lon="6.77744"><ele></ele><time>2016-9-26T4:17:13Z</time></trkpt>
<trkpt lat="46.48595" lon="6.77708"><ele></ele><time>2016-9-26T4:17:16Z</time></trkpt>
<trkpt lat="46.48596" lon="6.77694"><ele></ele><time>2016-9-26T4:17:19Z</time></trkpt>
<trkpt lat="46.48601" lon="6.77666"><ele></ele><time>2016-9-26T4:17:22Z</time></trkpt>
<trkpt lat="46.48605" lon="6.77637"><ele></ele><time>2016-9-26T4:17:25Z</time></trkpt>
<trkpt lat="46.48605" lon="6.77624"><ele></ele><time>2016-9-26T4:17:28Z</time></trkpt>
<trkpt lat="46.48597" lon="6.77595"><ele></ele><time>2016-9-26T4:17:31Z</time></trkpt>
<trkpt lat="46.48597" lon="6.77565"><ele></ele><time>2016-9-26T4:17:34Z</time></trkpt>
<trkpt lat="46.486" lon="6.77559"><ele></ele><time>2016-9-26T4:17:37Z</time></trkpt>
<trkpt lat="46.4861" lon="6.77534"><ele></ele><time>2016-9-26T4:17:40Z</time></trkpt>
<trkpt lat="46.48617" lon="6.77512"><ele></ele><time>2016-9-26T4:17:43Z</time></trkpt>
<trkpt lat="46.4862" lon="6.77502"><ele></ele><time>2016-9-26T4:17:46Z</time></trkpt>
<trkpt lat="46.48604" lon="6.77498"><ele></ele><time>2016-9-26T4:17:49Z</time></trkpt>
<trkpt lat="46.48596" lon="6.77495"><ele></ele><time>2016-9-26T4:17:52Z</time></trkpt>
<trkpt lat="46.48574" lon="6.77487"><ele></ele><time>2016-9-26T4:17:55Z</time></trkpt>
<trkpt lat="46.48561" lon="6.77483"><ele></ele><time>2016-9-26T4:17:58Z</time></trkpt>
<trkpt lat="46.48547" lon="6.77496"><ele></ele><time>2016-9-26T4:18:1Z</time></trkpt>
<trkpt lat="46.48544" lon="6.77518"><ele></ele><time>2016-9-26T4:18:4Z</time></trkpt>
<trkpt lat="46.48539" lon="6.77555"><ele></ele><time>2016-9-26T4:18:7Z</time></trkpt>
<trkpt lat="46.48531" lon="6.77581"><ele></ele><time>2016-9-26T4:18:10Z</time></trkpt>
<trkpt lat="46.48519" lon="6.77603"><ele></ele><time>2016-9-26T4:18:13Z</time></trkpt>
<trkpt lat="46.48501" lon="6.77612"><ele></ele><time>2016-9-26T4:18:16Z</time></trkpt>
<trkpt lat="46.48482" lon="6.77614"><ele></ele><time>2016-9-26T4:18:19Z</time></trkpt>
<trkpt lat="46.48475" lon="6.77638"><ele></ele><time>2016-9-26T4:18:22Z</time></trkpt>
<trkpt lat="46.48472" lon="6.77648"><ele></ele><time>2016-9-26T4:18:25Z</time></trkpt>
<trkpt lat="46.48465" lon="6.77677"><ele></ele><time>2016-9-26T4:18:28Z</time></trkpt>
<trkpt lat="46.48455" lon="6.77706"><ele></ele><time>2016-9-26T4:18:31Z</time></trkpt>
<trkpt lat="46.48446" lon="6.77736"><ele></ele><time>2016-9-26T4:18:34Z</time></trkpt>
<trkpt lat="46.48436" lon="6.77765"><ele></ele><time>2016-9-26T4:18:37Z</time></trkpt>
<trkpt lat="46.48424" lon="6.77795"><ele></ele><time>2016-9-26T4:18:40Z</time></trkpt>
<trkpt lat="46.48415" lon="6.77815"><ele></ele><time>2016-9-26T4:18:43Z</time></trkpt>
<trkpt lat="46.48397" lon="6.77845"><ele></ele><time>2016-9-26T4:18:46Z</time></trkpt>
<trkpt lat="46.48383" lon="6.77863"><ele></ele><time>2016-9-26T4:18:49Z</time></trkpt>
<trkpt lat="46.48369" lon="6.77882"><ele></ele><time>2016-9-26T4:18:52Z</time></trkpt>
<trkpt lat="46.48354" lon="6.77899"><ele></ele><time>2016-9-26T4:18:55Z</time></trkpt>
<trkpt lat="46.48339" lon="6.77915"><ele></ele><time>2016-9-26T4:18:58Z</time></trkpt>
<trkpt lat="46.48325" lon="6.77926"><ele></ele><time>2016-9-26T4:19:1Z</time></trkpt>
<trkpt lat="46.48305" lon="6.77936"><ele></ele><time>2016-9-26T4:19:4Z</time></trkpt>
<trkpt lat="46.48293" lon="6.77937"><ele></ele><time>2016-9-26T4:19:7Z</time></trkpt>
<trkpt lat="46.48284" lon="6.77908"><ele></ele><time>2016-9-26T4:19:10Z</time></trkpt>
<trkpt lat="46.48282" lon="6.77879"><ele></ele><time>2016-9-26T4:19:13Z</time></trkpt>
<trkpt lat="46.48279" lon="6.77859"><ele></ele><time>2016-9-26T4:19:16Z</time></trkpt>
<trkpt lat="46.48273" lon="6.77828"><ele></ele><time>2016-9-26T4:19:19Z</time></trkpt>
<trkpt lat="46.48269" lon="6.77809"><ele></ele><time>2016-9-26T4:19:22Z</time></trkpt>
<trkpt lat="46.48263" lon="6.77777"><ele></ele><time>2016-9-26T4:19:25Z</time></trkpt>
<trkpt lat="46.48269" lon="6.77742"><ele></ele><time>2016-9-26T4:19:28Z</time></trkpt>
<trkpt lat="46.48276" lon="6.7772"><ele></ele><time>2016-9-26T4:19:31Z</time></trkpt>
<trkpt lat="46.48288" lon="6.77686"><ele></ele><time>2016-9-26T4:19:34Z</time></trkpt>
<trkpt lat="46.48296" lon="6.77663"><ele></ele><time>2016-9-26T4:19:37Z</time></trkpt>
<trkpt lat="46.48304" lon="6.77639"><ele></ele><time>2016-9-26T4:19:40Z</time></trkpt>
<trkpt lat="46.48311" lon="6.77619"><ele></ele><time>2016-9-26T4:19:43Z</time></trkpt>
<trkpt lat="46.48318" lon="6.77599"><ele></ele><time>2016-9-26T4:19:46Z</time></trkpt>
<trkpt lat="46.48321" lon="6.77587"><ele></ele><time>2016-9-26T4:19:49Z</time></trkpt>
<trkpt lat="46.48311" lon="6.77571"><ele></ele><time>2016-9-26T4:19:52Z</time></trkpt>
<trkpt lat="46.48289" lon="6.77583"><ele></ele><time>2016-9-26T4:19:55Z</time></trkpt>
<trkpt lat="46.48271" lon="6.77591"><ele></ele><time>2016-9-26T4:19:58Z</time></trkpt>
<trkpt lat="46.48264" lon="6.77593"><ele></ele><time>2016-9-26T4:20:1Z</time></trkpt>
<trkpt lat="46.48258" lon="6.77595"><ele></ele><time>2016-9-26T4:20:4Z</time></trkpt>
<trkpt lat="46.48241" lon="6.77587"><ele></ele><time>2016-9-26T4:20:7Z</time></trkpt>
<trkpt lat="46.48228" lon="6.77564"><ele></ele><time>2016-9-26T4:20:10Z</time></trkpt>
<trkpt lat="46.48213" lon="6.77534"><ele></ele><time>2016-9-26T4:20:13Z</time></trkpt>
<trkpt lat="46.48203" lon="6.77513"><ele></ele><time>2016-9-26T4:20:16Z</time></trkpt>
<trkpt lat="46.4819" lon="6.77493"><ele></ele><time>2016-9-26T4:20:19Z</time></trkpt>
<trkpt lat="46.48177" lon="6.77473"><ele></ele><time>2016-9-26T4:20:22Z</time></trkpt>
<trkpt lat="46.48162" lon="6.77454"><ele></ele><time>2016-9-26T4:20:25Z</time></trkpt>
<trkpt lat="46.48149" lon="6.77433"><ele></ele><time>2016-9-26T4:20:28Z</time></trkpt>
<trkpt lat="46.48137" lon="6.77409"><ele></ele><time>2016-9-26T4:20:31Z</time></trkpt>
<trkpt lat="46.48126" lon="6.77387"><ele></ele><time>2016-9-26T4:20:34Z</time></trkpt>
<trkpt lat="46.48119" lon="6.77377"><ele></ele><time>2016-9-26T4:20:37Z</time></trkpt>
<trkpt lat="46.48095" lon="6.77362"><ele></ele><time>2016-9-26T4:20:40Z</time></trkpt>
<trkpt lat="46.48087" lon="6.77362"><ele></ele><time>2016-9-26T4:20:43Z</time></trkpt>
<trkpt lat="46.48061" lon="6.77374"><ele></ele><time>2016-9-26T4:20:46Z</time></trkpt>
<trkpt lat="46.48052" lon="6.77379"><ele></ele><time>2016-9-26T4:20:49Z</time></trkpt>
<trkpt lat="46.48044" lon="6.77383"><ele></ele><time>2016-9-26T4:20:52Z</time></trkpt>
<trkpt lat="46.4802" lon="6.77373"><ele></ele><time>2016-9-26T4:20:55Z</time></trkpt>
<trkpt lat="46.48008" lon="6.77342"><ele></ele><time>2016-9-26T4:20:58Z</time></trkpt>
<trkpt lat="46.48006" lon="6.77305"><ele></ele><time>2016-9-26T4:21:1Z</time></trkpt>
<trkpt lat="46.4801" lon="6.77279"><ele></ele><time>2016-9-26T4:21:4Z</time></trkpt>
<trkpt lat="46.48014" lon="6.77252"><ele></ele><time>2016-9-26T4:21:7Z</time></trkpt>
<trkpt lat="46.48018" lon="6.77224"><ele></ele><time>2016-9-26T4:21:10Z</time></trkpt>
<trkpt lat="46.48023" lon="6.77196"><ele></ele><time>2016-9-26T4:21:13Z</time></trkpt>
<trkpt lat="46.48026" lon="6.77166"><ele></ele><time>2016-9-26T4:21:16Z</time></trkpt>
<trkpt lat="46.48028" lon="6.77136"><ele></ele><time>2016-9-26T4:21:19Z</time></trkpt>
<trkpt lat="46.4803" lon="6.77107"><ele></ele><time>2016-9-26T4:21:22Z</time></trkpt>
<trkpt lat="46.48033" lon="6.77077"><ele></ele><time>2016-9-26T4:21:25Z</time></trkpt>
<trkpt lat="46.48036" lon="6.77063"><ele></ele><time>2016-9-26T4:21:28Z</time></trkpt>
<trkpt lat="46.48043" lon="6.77037"><ele></ele><time>2016-9-26T4:21:31Z</time></trkpt>
<trkpt lat="46.48046" lon="6.77023"><ele></ele><time>2016-9-26T4:21:34Z</time></trkpt>
<trkpt lat="46.48048" lon="6.76996"><ele></ele><time>2016-9-26T4:21:37Z</time></trkpt>
<trkpt lat="46.48048" lon="6.76968"><ele></ele><time>2016-9-26T4:21:40Z</time></trkpt>
<trkpt lat="46.48048" lon="6.76954"><ele></ele><time>2016-9-26T4:21:43Z</time></trkpt>
<trkpt lat="46.48047" lon="6.76926"><ele></ele><time>2016-9-26T4:21:46Z</time></trkpt>
<trkpt lat="46.48048" lon="6.76899"><ele></ele><time>2016-9-26T4:21:49Z</time></trkpt>
<trkpt lat="46.48051" lon="6.76885"><ele></ele><time>2016-9-26T4:21:52Z</time></trkpt>
<trkpt lat="46.48055" lon="6.76858"><ele></ele><time>2016-9-26T4:21:55Z</time></trkpt>
<trkpt lat="46.48055" lon="6.76832"><ele></ele><time>2016-9-26T4:21:58Z</time></trkpt>
<trkpt lat="46.48048" lon="6.76807"><ele></ele><time>2016-9-26T4:22:1Z</time></trkpt>
<trkpt lat="46.48039" lon="6.76783"><ele></ele><time>2016-9-26T4:22:4Z</time></trkpt>
<trkpt lat="46.48034" lon="6.7677"><ele></ele><time>2016-9-26T4:22:7Z</time></trkpt>
<trkpt lat="46.48031" lon="6.76741"><ele></ele><time>2016-9-26T4:22:10Z</time></trkpt>
<trkpt lat="46.48035" lon="6.76711"><ele></ele><time>2016-9-26T4:22:13Z</time></trkpt>
<trkpt lat="46.48044" lon="6.76682"><ele></ele><time>2016-9-26T4:22:16Z</time></trkpt>
<trkpt lat="46.48048" lon="6.76668"><ele></ele><time>2016-9-26T4:22:19Z</time></trkpt>
<trkpt lat="46.48057" lon="6.76637"><ele></ele><time>2016-9-26T4:22:22Z</time></trkpt>
<trkpt lat="46.48065" lon="6.76607"><ele></ele><time>2016-9-26T4:22:25Z</time></trkpt>
<trkpt lat="46.48079" lon="6.76581"><ele></ele><time>2016-9-26T4:22:28Z</time></trkpt>
<trkpt lat="46.48094" lon="6.76556"><ele></ele><time>2016-9-26T4:22:31Z</time></trkpt>
<trkpt lat="46.48106" lon="6.76528"><ele></ele><time>2016-9-26T4:22:34Z</time></trkpt>
<trkpt lat="46.48117" lon="6.76499"><ele></ele><time>2016-9-26T4:22:37Z</time></trkpt>
<trkpt lat="46.48127" lon="6.76469"><ele></ele><time>2016-9-26T4:22:40Z</time></trkpt>
<trkpt lat="46.48137" lon="6.7644"><ele></ele><time>2016-9-26T4:22:43Z</time></trkpt>
<trkpt lat="46.48148" lon="6.7641"><ele></ele><time>2016-9-26T4:22:46Z</time></trkpt>
<trkpt lat="46.4816" lon="6.76382"><ele></ele><time>2016-9-26T4:22:49Z</time></trkpt>
<trkpt lat="46.48173" lon="6.76355"><ele></ele><time>2016-9-26T4:22:52Z</time></trkpt>
<trkpt lat="46.48186" lon="6.76328"><ele></ele><time>2016-9-26T4:22:55Z</time></trkpt>
<trkpt lat="46.48199" lon="6.76301"><ele></ele><time>2016-9-26T4:22:58Z</time></trkpt>
<trkpt lat="46.48211" lon="6.76275"><ele></ele><time>2016-9-26T4:23:1Z</time></trkpt>
<trkpt lat="46.48224" lon="6.76249"><ele></ele><time>2016-9-26T4:23:4Z</time></trkpt>
<trkpt lat="46.48237" lon="6.76224"><ele></ele><time>2016-9-26T4:23:7Z</time></trkpt>
<trkpt lat="46.48252" lon="6.76201"><ele></ele><time>2016-9-26T4:23:10Z</time></trkpt>
<trkpt lat="46.48268" lon="6.76178"><ele></ele><time>2016-9-26T4:23:13Z</time></trkpt>
<trkpt lat="46.48285" lon="6.76154"><ele></ele><time>2016-9-26T4:23:16Z</time></trkpt>
<trkpt lat="46.483" lon="6.76128"><ele></ele><time>2016-9-26T4:23:19Z</time></trkpt>
<trkpt lat="46.48314" lon="6.76102"><ele></ele><time>2016-9-26T4:23:22Z</time></trkpt>
<trkpt lat="46.48329" lon="6.76077"><ele></ele><time>2016-9-26T4:23:25Z</time></trkpt>
<trkpt lat="46.48345" lon="6.76054"><ele></ele><time>2016-9-26T4:23:28Z</time></trkpt>
<trkpt lat="46.48363" lon="6.76033"><ele></ele><time>2016-9-26T4:23:31Z</time></trkpt>
<trkpt lat="46.48379" lon="6.76011"><ele></ele><time>2016-9-26T4:23:34Z</time></trkpt>
<trkpt lat="46.48395" lon="6.75987"><ele></ele><time>2016-9-26T4:23:37Z</time></trkpt>
<trkpt lat="46.4841" lon="6.75963"><ele></ele><time>2016-9-26T4:23:40Z</time></trkpt>
<trkpt lat="46.48418" lon="6.75952"><ele></ele><time>2016-9-26T4:23:43Z</time></trkpt>
<trkpt lat="46.48437" lon="6.75933"><ele></ele><time>2016-9-26T4:23:46Z</time></trkpt>
<trkpt lat="46.48455" lon="6.75915"><ele></ele><time>2016-9-26T4:23:49Z</time></trkpt>
<trkpt lat="46.48472" lon="6.75895"><ele></ele><time>2016-9-26T4:23:52Z</time></trkpt>
<trkpt lat="46.48487" lon="6.75872"><ele></ele><time>2016-9-26T4:23:55Z</time></trkpt>
<trkpt lat="46.48502" lon="6.75849"><ele></ele><time>2016-9-26T4:23:58Z</time></trkpt>
<trkpt lat="46.48517" lon="6.75825"><ele></ele><time>2016-9-26T4:24:1Z</time></trkpt>
<trkpt lat="46.48531" lon="6.75801"><ele></ele><time>2016-9-26T4:24:4Z</time></trkpt>
<trkpt lat="46.48546" lon="6.75776"><ele></ele><time>2016-9-26T4:24:7Z</time></trkpt>
<trkpt lat="46.48561" lon="6.75751"><ele></ele><time>2016-9-26T4:24:10Z</time></trkpt>
<trkpt lat="46.48576" lon="6.75726"><ele></ele><time>2016-9-26T4:24:13Z</time></trkpt>
<trkpt lat="46.4859" lon="6.75701"><ele></ele><time>2016-9-26T4:24:16Z</time></trkpt>
<trkpt lat="46.48605" lon="6.75675"><ele></ele><time>2016-9-26T4:24:19Z</time></trkpt>
<trkpt lat="46.48613" lon="6.75661"><ele></ele><time>2016-9-26T4:24:22Z</time></trkpt>
<trkpt lat="46.48628" lon="6.75633"><ele></ele><time>2016-9-26T4:24:25Z</time></trkpt>
<trkpt lat="46.48644" lon="6.75604"><ele></ele><time>2016-9-26T4:24:28Z</time></trkpt>
<trkpt lat="46.4866" lon="6.75576"><ele></ele><time>2016-9-26T4:24:31Z</time></trkpt>
<trkpt lat="46.48677" lon="6.75549"><ele></ele><time>2016-9-26T4:24:34Z</time></trkpt>
<trkpt lat="46.48694" lon="6.75524"><ele></ele><time>2016-9-26T4:24:37Z</time></trkpt>
<trkpt lat="46.48712" lon="6.75501"><ele></ele><time>2016-9-26T4:24:40Z</time></trkpt>
<trkpt lat="46.48731" lon="6.7548"><ele></ele><time>2016-9-26T4:24:43Z</time></trkpt>
<trkpt lat="46.4875" lon="6.75458"><ele></ele><time>2016-9-26T4:24:46Z</time></trkpt>
<trkpt lat="46.48767" lon="6.75436"><ele></ele><time>2016-9-26T4:24:49Z</time></trkpt>
<trkpt lat="46.48782" lon="6.75412"><ele></ele><time>2016-9-26T4:24:52Z</time></trkpt>
<trkpt lat="46.48795" lon="6.75388"><ele></ele><time>2016-9-26T4:24:55Z</time></trkpt>
<trkpt lat="46.48808" lon="6.75364"><ele></ele><time>2016-9-26T4:24:58Z</time></trkpt>
<trkpt lat="46.4882" lon="6.7534"><ele></ele><time>2016-9-26T4:25:1Z</time></trkpt>
<trkpt lat="46.48832" lon="6.75317"><ele></ele><time>2016-9-26T4:25:4Z</time></trkpt>
<trkpt lat="46.48843" lon="6.75294"><ele></ele><time>2016-9-26T4:25:7Z</time></trkpt>
<trkpt lat="46.48855" lon="6.75272"><ele></ele><time>2016-9-26T4:25:10Z</time></trkpt>
<trkpt lat="46.48868" lon="6.7525"><ele></ele><time>2016-9-26T4:25:13Z</time></trkpt>
<trkpt lat="46.48875" lon="6.75241"><ele></ele><time>2016-9-26T4:25:16Z</time></trkpt>
<trkpt lat="46.48891" lon="6.75225"><ele></ele><time>2016-9-26T4:25:19Z</time></trkpt>
<trkpt lat="46.48899" lon="6.75217"><ele></ele><time>2016-9-26T4:25:22Z</time></trkpt>
<trkpt lat="46.48907" lon="6.7521"><ele></ele><time>2016-9-26T4:25:25Z</time></trkpt>
<trkpt lat="46.48915" lon="6.75204"><ele></ele><time>2016-9-26T4:25:28Z</time></trkpt>
<trkpt lat="46.48923" lon="6.75198"><ele></ele><time>2016-9-26T4:25:31Z</time></trkpt>
<trkpt lat="46.48931" lon="6.7519"><ele></ele><time>2016-9-26T4:25:34Z</time></trkpt>
<trkpt lat="46.48944" lon="6.75157"><ele></ele><time>2016-9-26T4:25:37Z</time></trkpt>
<trkpt lat="46.48946" lon="6.75131"><ele></ele><time>2016-9-26T4:25:40Z</time></trkpt>
<trkpt lat="46.48947" lon="6.75105"><ele></ele><time>2016-9-26T4:25:43Z</time></trkpt>
<trkpt lat="46.48952" lon="6.75079"><ele></ele><time>2016-9-26T4:25:46Z</time></trkpt>
<trkpt lat="46.48962" lon="6.75056"><ele></ele><time>2016-9-26T4:25:49Z</time></trkpt>
<trkpt lat="46.48969" lon="6.75045"><ele></ele><time>2016-9-26T4:25:52Z</time></trkpt>
<trkpt lat="46.48975" lon="6.75036"><ele></ele><time>2016-9-26T4:25:55Z</time></trkpt>
<trkpt lat="46.48982" lon="6.75027"><ele></ele><time>2016-9-26T4:25:58Z</time></trkpt>
<trkpt lat="46.48996" lon="6.75009"><ele></ele><time>2016-9-26T4:26:1Z</time></trkpt>
<trkpt lat="46.49008" lon="6.7499"><ele></ele><time>2016-9-26T4:26:4Z</time></trkpt>
<trkpt lat="46.49018" lon="6.7496"><ele></ele><time>2016-9-26T4:26:7Z</time></trkpt>
<trkpt lat="46.4902" lon="6.7495"><ele></ele><time>2016-9-26T4:26:10Z</time></trkpt>
<trkpt lat="46.49027" lon="6.74923"><ele></ele><time>2016-9-26T4:26:13Z</time></trkpt>
<trkpt lat="46.49029" lon="6.74917"><ele></ele><time>2016-9-26T4:26:16Z</time></trkpt>
<trkpt lat="46.49032" lon="6.74923"><ele></ele><time>2016-9-26T4:26:19Z</time></trkpt>
<trkpt lat="46.49026" lon="6.7494"><ele></ele><time>2016-9-26T4:26:22Z</time></trkpt>
<trkpt lat="46.49026" lon="6.74942"><ele></ele><time>2016-9-26T4:26:25Z</time></trkpt>
<trkpt lat="46.49023" lon="6.74945"><ele></ele><time>2016-9-26T4:26:28Z</time></trkpt>
<trkpt lat="46.49019" lon="6.74951"><ele></ele><time>2016-9-26T4:26:31Z</time></trkpt>
<trkpt lat="46.49017" lon="6.74948"><ele></ele><time>2016-9-26T4:26:34Z</time></trkpt>
<trkpt lat="46.49017" lon="6.74947"><ele></ele><time>2016-9-26T4:26:37Z</time></trkpt>
<trkpt lat="46.49019" lon="6.74945"><ele></ele><time>2016-9-26T4:26:40Z</time></trkpt>
<trkpt lat="46.49021" lon="6.74941"><ele></ele><time>2016-9-26T4:26:43Z</time></trkpt>
<trkpt lat="46.49024" lon="6.74936"><ele></ele><time>2016-9-26T4:26:46Z</time></trkpt>
<trkpt lat="46.49027" lon="6.74934"><ele></ele><time>2016-9-26T4:26:49Z</time></trkpt>
<trkpt lat="46.49029" lon="6.74934"><ele></ele><time>2016-9-26T4:26:52Z</time></trkpt>
<trkpt lat="46.49029" lon="6.74933"><ele></ele><time>2016-9-26T4:26:55Z</time></trkpt>
<trkpt lat="46.49029" lon="6.74934"><ele></ele><time>2016-9-26T4:26:58Z</time></trkpt>
<trkpt lat="46.49029" lon="6.74935"><ele></ele><time>2016-9-26T4:27:1Z</time></trkpt>
<trkpt lat="46.49029" lon="6.74935"><ele></ele><time>2016-9-26T4:27:4Z</time></trkpt>
<trkpt lat="46.49029" lon="6.74935"><ele></ele><time>2016-9-26T4:27:7Z</time></trkpt>
<trkpt lat="46.49029" lon="6.74935"><ele></ele><time>2016-9-26T4:27:10Z</time></trkpt>
<trkpt lat="46.49029" lon="6.74935"><ele></ele><time>2016-9-26T4:27:13Z</time></trkpt>
<trkpt lat="46.49026" lon="6.7492"><ele></ele><time>2016-9-26T4:27:16Z</time></trkpt>
<trkpt lat="46.49027" lon="6.74908"><ele></ele><time>2016-9-26T4:27:19Z</time></trkpt>
<trkpt lat="46.49038" lon="6.74883"><ele></ele><time>2016-9-26T4:27:22Z</time></trkpt>
<trkpt lat="46.49053" lon="6.74872"><ele></ele><time>2016-9-26T4:27:25Z</time></trkpt>
<trkpt lat="46.49058" lon="6.74869"><ele></ele><time>2016-9-26T4:27:28Z</time></trkpt>
<trkpt lat="46.49077" lon="6.74863"><ele></ele><time>2016-9-26T4:27:31Z</time></trkpt>
<trkpt lat="46.49083" lon="6.7486"><ele></ele><time>2016-9-26T4:27:34Z</time></trkpt>
<trkpt lat="46.49099" lon="6.74851"><ele></ele><time>2016-9-26T4:27:37Z</time></trkpt>
<trkpt lat="46.49116" lon="6.74829"><ele></ele><time>2016-9-26T4:27:40Z</time></trkpt>
<trkpt lat="46.49132" lon="6.74807"><ele></ele><time>2016-9-26T4:27:43Z</time></trkpt>
<trkpt lat="46.49143" lon="6.74791"><ele></ele><time>2016-9-26T4:27:46Z</time></trkpt>
<trkpt lat="46.49158" lon="6.74767"><ele></ele><time>2016-9-26T4:27:49Z</time></trkpt>
<trkpt lat="46.49168" lon="6.7475"><ele></ele><time>2016-9-26T4:27:52Z</time></trkpt>
<trkpt lat="46.49176" lon="6.7473"><ele></ele><time>2016-9-26T4:27:55Z</time></trkpt>
<trkpt lat="46.49185" lon="6.74698"><ele></ele><time>2016-9-26T4:27:58Z</time></trkpt>
<trkpt lat="46.4919" lon="6.74666"><ele></ele><time>2016-9-26T4:28:1Z</time></trkpt>
<trkpt lat="46.49193" lon="6.74636"><ele></ele><time>2016-9-26T4:28:4Z</time></trkpt>
<trkpt lat="46.49196" lon="6.74609"><ele></ele><time>2016-9-26T4:28:7Z</time></trkpt>
<trkpt lat="46.49201" lon="6.74578"><ele></ele><time>2016-9-26T4:28:10Z</time></trkpt>
<trkpt lat="46.49203" lon="6.74571"><ele></ele><time>2016-9-26T4:28:13Z</time></trkpt>
<trkpt lat="46.49216" lon="6.74549"><ele></ele><time>2016-9-26T4:28:16Z</time></trkpt>
<trkpt lat="46.4922" lon="6.74545"><ele></ele><time>2016-9-26T4:28:19Z</time></trkpt>
<trkpt lat="46.49237" lon="6.74527"><ele></ele><time>2016-9-26T4:28:22Z</time></trkpt>
<trkpt lat="46.49252" lon="6.74505"><ele></ele><time>2016-9-26T4:28:25Z</time></trkpt>
<trkpt lat="46.49257" lon="6.74478"><ele></ele><time>2016-9-26T4:28:28Z</time></trkpt>
<trkpt lat="46.49249" lon="6.7445"><ele></ele><time>2016-9-26T4:28:31Z</time></trkpt>
<trkpt lat="46.49246" lon="6.74442"><ele></ele><time>2016-9-26T4:28:34Z</time></trkpt>
<trkpt lat="46.49236" lon="6.74421"><ele></ele><time>2016-9-26T4:28:37Z</time></trkpt>
<trkpt lat="46.49231" lon="6.74393"><ele></ele><time>2016-9-26T4:28:40Z</time></trkpt>
<trkpt lat="46.49231" lon="6.74385"><ele></ele><time>2016-9-26T4:28:43Z</time></trkpt>
<trkpt lat="46.49232" lon="6.74369"><ele></ele><time>2016-9-26T4:28:46Z</time></trkpt>
<trkpt lat="46.49243" lon="6.74338"><ele></ele><time>2016-9-26T4:28:49Z</time></trkpt>
<trkpt lat="46.49255" lon="6.74314"><ele></ele><time>2016-9-26T4:28:52Z</time></trkpt>
<trkpt lat="46.49258" lon="6.74305"><ele></ele><time>2016-9-26T4:28:55Z</time></trkpt>
<trkpt lat="46.49264" lon="6.74275"><ele></ele><time>2016-9-26T4:28:58Z</time></trkpt>
<trkpt lat="46.49262" lon="6.74242"><ele></ele><time>2016-9-26T4:29:1Z</time></trkpt>
<trkpt lat="46.4926" lon="6.74231"><ele></ele><time>2016-9-26T4:29:4Z</time></trkpt>
<trkpt lat="46.49257" lon="6.74197"><ele></ele><time>2016-9-26T4:29:7Z</time></trkpt>
<trkpt lat="46.4926" lon="6.74162"><ele></ele><time>2016-9-26T4:29:10Z</time></trkpt>
<trkpt lat="46.49266" lon="6.74132"><ele></ele><time>2016-9-26T4:29:13Z</time></trkpt>
<trkpt lat="46.49273" lon="6.74105"><ele></ele><time>2016-9-26T4:29:16Z</time></trkpt>
<trkpt lat="46.49269" lon="6.74113"><ele></ele><time>2016-9-26T4:29:19Z</time></trkpt>
<trkpt lat="46.49268" lon="6.7413"><ele></ele><time>2016-9-26T4:29:22Z</time></trkpt>
<trkpt lat="46.49269" lon="6.74127"><ele></ele><time>2016-9-26T4:29:25Z</time></trkpt>
<trkpt lat="46.49269" lon="6.74127"><ele></ele><time>2016-9-26T4:29:28Z</time></trkpt>
<trkpt lat="46.49269" lon="6.74127"><ele></ele><time>2016-9-26T4:29:31Z</time></trkpt>
<trkpt lat="46.49269" lon="6.74126"><ele></ele><time>2016-9-26T4:29:34Z</time></trkpt>
<trkpt lat="46.49269" lon="6.74126"><ele></ele><time>2016-9-26T4:29:37Z</time></trkpt>
<trkpt lat="46.49273" lon="6.74101"><ele></ele><time>2016-9-26T4:29:40Z</time></trkpt>
<trkpt lat="46.49279" lon="6.74075"><ele></ele><time>2016-9-26T4:29:43Z</time></trkpt>
<trkpt lat="46.49285" lon="6.74041"><ele></ele><time>2016-9-26T4:29:46Z</time></trkpt>
<trkpt lat="46.49286" lon="6.74007"><ele></ele><time>2016-9-26T4:29:49Z</time></trkpt>
<trkpt lat="46.49283" lon="6.73974"><ele></ele><time>2016-9-26T4:29:52Z</time></trkpt>
<trkpt lat="46.49281" lon="6.73941"><ele></ele><time>2016-9-26T4:29:55Z</time></trkpt>
<trkpt lat="46.49281" lon="6.73904"><ele></ele><time>2016-9-26T4:29:58Z</time></trkpt>
<trkpt lat="46.49283" lon="6.73877"><ele></ele><time>2016-9-26T4:30:1Z</time></trkpt>
<trkpt lat="46.49288" lon="6.73851"><ele></ele><time>2016-9-26T4:30:4Z</time></trkpt>
<trkpt lat="46.49294" lon="6.73826"><ele></ele><time>2016-9-26T4:30:7Z</time></trkpt>
<trkpt lat="46.49303" lon="6.73799"><ele></ele><time>2016-9-26T4:30:10Z</time></trkpt>
<trkpt lat="46.49314" lon="6.73772"><ele></ele><time>2016-9-26T4:30:13Z</time></trkpt>
<trkpt lat="46.4932" lon="6.73757"><ele></ele><time>2016-9-26T4:30:16Z</time></trkpt>
<trkpt lat="46.49328" lon="6.73732"><ele></ele><time>2016-9-26T4:30:19Z</time></trkpt>
<trkpt lat="46.49333" lon="6.73706"><ele></ele><time>2016-9-26T4:30:22Z</time></trkpt>
<trkpt lat="46.49336" lon="6.73676"><ele></ele><time>2016-9-26T4:30:25Z</time></trkpt>
<trkpt lat="46.49337" lon="6.73655"><ele></ele><time>2016-9-26T4:30:28Z</time></trkpt>
<trkpt lat="46.49339" lon="6.73625"><ele></ele><time>2016-9-26T4:30:31Z</time></trkpt>
<trkpt lat="46.49342" lon="6.73595"><ele></ele><time>2016-9-26T4:30:34Z</time></trkpt>
<trkpt lat="46.49342" lon="6.73566"><ele></ele><time>2016-9-26T4:30:37Z</time></trkpt>
<trkpt lat="46.49343" lon="6.73536"><ele></ele><time>2016-9-26T4:30:40Z</time></trkpt>
<trkpt lat="46.49342" lon="6.73526"><ele></ele><time>2016-9-26T4:30:43Z</time></trkpt>
<trkpt lat="46.49344" lon="6.7349"><ele></ele><time>2016-9-26T4:30:46Z</time></trkpt>
<trkpt lat="46.49355" lon="6.7346"><ele></ele><time>2016-9-26T4:30:49Z</time></trkpt>
<trkpt lat="46.49363" lon="6.73446"><ele></ele><time>2016-9-26T4:30:52Z</time></trkpt>
<trkpt lat="46.49371" lon="6.73434"><ele></ele><time>2016-9-26T4:30:55Z</time></trkpt>
<trkpt lat="46.49373" lon="6.7341"><ele></ele><time>2016-9-26T4:30:58Z</time></trkpt>
<trkpt lat="46.49359" lon="6.73387"><ele></ele><time>2016-9-26T4:31:1Z</time></trkpt>
<trkpt lat="46.49337" lon="6.73373"><ele></ele><time>2016-9-26T4:31:4Z</time></trkpt>
<trkpt lat="46.4932" lon="6.73365"><ele></ele><time>2016-9-26T4:31:7Z</time></trkpt>
<trkpt lat="46.49301" lon="6.73357"><ele></ele><time>2016-9-26T4:31:10Z</time></trkpt>
<trkpt lat="46.49281" lon="6.73345"><ele></ele><time>2016-9-26T4:31:13Z</time></trkpt>
<trkpt lat="46.49263" lon="6.73327"><ele></ele><time>2016-9-26T4:31:16Z</time></trkpt>
<trkpt lat="46.49248" lon="6.73303"><ele></ele><time>2016-9-26T4:31:19Z</time></trkpt>
<trkpt lat="46.49241" lon="6.7329"><ele></ele><time>2016-9-26T4:31:22Z</time></trkpt>
<trkpt lat="46.49228" lon="6.73263"><ele></ele><time>2016-9-26T4:31:25Z</time></trkpt>
<trkpt lat="46.49213" lon="6.73238"><ele></ele><time>2016-9-26T4:31:28Z</time></trkpt>
<trkpt lat="46.49196" lon="6.73215"><ele></ele><time>2016-9-26T4:31:31Z</time></trkpt>
<trkpt lat="46.49178" lon="6.73192"><ele></ele><time>2016-9-26T4:31:34Z</time></trkpt>
<trkpt lat="46.49169" lon="6.7318"><ele></ele><time>2016-9-26T4:31:37Z</time></trkpt>
<trkpt lat="46.49155" lon="6.73151"><ele></ele><time>2016-9-26T4:31:40Z</time></trkpt>
<trkpt lat="46.49146" lon="6.73118"><ele></ele><time>2016-9-26T4:31:43Z</time></trkpt>
<trkpt lat="46.49143" lon="6.73101"><ele></ele><time>2016-9-26T4:31:46Z</time></trkpt>
<trkpt lat="46.49135" lon="6.73068"><ele></ele><time>2016-9-26T4:31:49Z</time></trkpt>
<trkpt lat="46.49122" lon="6.73038"><ele></ele><time>2016-9-26T4:31:52Z</time></trkpt>
<trkpt lat="46.49105" lon="6.73015"><ele></ele><time>2016-9-26T4:31:55Z</time></trkpt>
<trkpt lat="46.49085" lon="6.72996"><ele></ele><time>2016-9-26T4:31:58Z</time></trkpt>
<trkpt lat="46.49074" lon="6.72988"><ele></ele><time>2016-9-26T4:32:1Z</time></trkpt>
<trkpt lat="46.49052" lon="6.72973"><ele></ele><time>2016-9-26T4:32:4Z</time></trkpt>
<trkpt lat="46.49031" lon="6.72957"><ele></ele><time>2016-9-26T4:32:7Z</time></trkpt>
<trkpt lat="46.4901" lon="6.7294"><ele></ele><time>2016-9-26T4:32:10Z</time></trkpt>
<trkpt lat="46.4899" lon="6.72919"><ele></ele><time>2016-9-26T4:32:13Z</time></trkpt>
<trkpt lat="46.48973" lon="6.72892"><ele></ele><time>2016-9-26T4:32:16Z</time></trkpt>
<trkpt lat="46.48962" lon="6.7286"><ele></ele><time>2016-9-26T4:32:19Z</time></trkpt>
<trkpt lat="46.48956" lon="6.72828"><ele></ele><time>2016-9-26T4:32:22Z</time></trkpt>
<trkpt lat="46.48952" lon="6.728"><ele></ele><time>2016-9-26T4:32:25Z</time></trkpt>
<trkpt lat="46.48949" lon="6.72773"><ele></ele><time>2016-9-26T4:32:28Z</time></trkpt>
<trkpt lat="46.48946" lon="6.72747"><ele></ele><time>2016-9-26T4:32:31Z</time></trkpt>
<trkpt lat="46.48941" lon="6.72712"><ele></ele><time>2016-9-26T4:32:34Z</time></trkpt>
<trkpt lat="46.48938" lon="6.72693"><ele></ele><time>2016-9-26T4:32:37Z</time></trkpt>
<trkpt lat="46.48921" lon="6.72672"><ele></ele><time>2016-9-26T4:32:40Z</time></trkpt>
<trkpt lat="46.48916" lon="6.72667"><ele></ele><time>2016-9-26T4:32:43Z</time></trkpt>
<trkpt lat="46.48908" lon="6.72637"><ele></ele><time>2016-9-26T4:32:46Z</time></trkpt>
<trkpt lat="46.48908" lon="6.72629"><ele></ele><time>2016-9-26T4:32:49Z</time></trkpt>
<trkpt lat="46.48911" lon="6.72603"><ele></ele><time>2016-9-26T4:32:52Z</time></trkpt>
<trkpt lat="46.48911" lon="6.72591"><ele></ele><time>2016-9-26T4:32:55Z</time></trkpt>
<trkpt lat="46.48912" lon="6.72575"><ele></ele><time>2016-9-26T4:32:58Z</time></trkpt>
<trkpt lat="46.48908" lon="6.72547"><ele></ele><time>2016-9-26T4:33:1Z</time></trkpt>
<trkpt lat="46.48907" lon="6.72543"><ele></ele><time>2016-9-26T4:33:4Z</time></trkpt>
<trkpt lat="46.48907" lon="6.7253"><ele></ele><time>2016-9-26T4:33:7Z</time></trkpt>
<trkpt lat="46.48907" lon="6.72508"><ele></ele><time>2016-9-26T4:33:10Z</time></trkpt>
<trkpt lat="46.4891" lon="6.72495"><ele></ele><time>2016-9-26T4:33:13Z</time></trkpt>
<trkpt lat="46.48913" lon="6.72486"><ele></ele><time>2016-9-26T4:33:16Z</time></trkpt>
<trkpt lat="46.48919" lon="6.72472"><ele></ele><time>2016-9-26T4:33:19Z</time></trkpt>
<trkpt lat="46.48926" lon="6.72454"><ele></ele><time>2016-9-26T4:33:22Z</time></trkpt>
<trkpt lat="46.48935" lon="6.7243"><ele></ele><time>2016-9-26T4:33:25Z</time></trkpt>
<trkpt lat="46.48942" lon="6.72406"><ele></ele><time>2016-9-26T4:33:28Z</time></trkpt>
<trkpt lat="46.48944" lon="6.72378"><ele></ele><time>2016-9-26T4:33:31Z</time></trkpt>
<trkpt lat="46.48941" lon="6.72363"><ele></ele><time>2016-9-26T4:33:34Z</time></trkpt>
<trkpt lat="46.4894" lon="6.72353"><ele></ele><time>2016-9-26T4:33:37Z</time></trkpt>
<trkpt lat="46.48935" lon="6.7232"><ele></ele><time>2016-9-26T4:33:40Z</time></trkpt>
<trkpt lat="46.48932" lon="6.72302"><ele></ele><time>2016-9-26T4:33:43Z</time></trkpt>
<trkpt lat="46.48929" lon="6.72273"><ele></ele><time>2016-9-26T4:33:46Z</time></trkpt>
<trkpt lat="46.48929" lon="6.72246"><ele></ele><time>2016-9-26T4:33:49Z</time></trkpt>
<trkpt lat="46.48932" lon="6.72218"><ele></ele><time>2016-9-26T4:33:52Z</time></trkpt>
<trkpt lat="46.48937" lon="6.72191"><ele></ele><time>2016-9-26T4:33:55Z</time></trkpt>
<trkpt lat="46.48945" lon="6.72167"><ele></ele><time>2016-9-26T4:33:58Z</time></trkpt>
<trkpt lat="46.48959" lon="6.72148"><ele></ele><time>2016-9-26T4:34:1Z</time></trkpt>
<trkpt lat="46.48974" lon="6.7213"><ele></ele><time>2016-9-26T4:34:4Z</time></trkpt>
<trkpt lat="46.48998" lon="6.72106"><ele></ele><time>2016-9-26T4:34:7Z</time></trkpt>
<trkpt lat="46.49014" lon="6.72089"><ele></ele><time>2016-9-26T4:34:10Z</time></trkpt>
<trkpt lat="46.4903" lon="6.72075"><ele></ele><time>2016-9-26T4:34:13Z</time></trkpt>
<trkpt lat="46.49046" lon="6.72058"><ele></ele><time>2016-9-26T4:34:16Z</time></trkpt>
<trkpt lat="46.49058" lon="6.72038"><ele></ele><time>2016-9-26T4:34:19Z</time></trkpt>
<trkpt lat="46.49061" lon="6.7203"><ele></ele><time>2016-9-26T4:34:22Z</time></trkpt>
<trkpt lat="46.49065" lon="6.72017"><ele></ele><time>2016-9-26T4:34:25Z</time></trkpt>
<trkpt lat="46.49069" lon="6.72002"><ele></ele><time>2016-9-26T4:34:28Z</time></trkpt>
<trkpt lat="46.49072" lon="6.71988"><ele></ele><time>2016-9-26T4:34:31Z</time></trkpt>
<trkpt lat="46.49073" lon="6.71986"><ele></ele><time>2016-9-26T4:34:34Z</time></trkpt>
<trkpt lat="46.49074" lon="6.7198"><ele></ele><time>2016-9-26T4:34:37Z</time></trkpt>
<trkpt lat="46.49078" lon="6.71962"><ele></ele><time>2016-9-26T4:34:40Z</time></trkpt>
<trkpt lat="46.4908" lon="6.71953"><ele></ele><time>2016-9-26T4:34:43Z</time></trkpt>
<trkpt lat="46.49087" lon="6.71929"><ele></ele><time>2016-9-26T4:34:46Z</time></trkpt>
<trkpt lat="46.49087" lon="6.71927"><ele></ele><time>2016-9-26T4:34:49Z</time></trkpt>
<trkpt lat="46.49082" lon="6.7192"><ele></ele><time>2016-9-26T4:34:52Z</time></trkpt>
<trkpt lat="46.49065" lon="6.71906"><ele></ele><time>2016-9-26T4:34:55Z</time></trkpt>
<trkpt lat="46.49049" lon="6.71913"><ele></ele><time>2016-9-26T4:34:58Z</time></trkpt>
<trkpt lat="46.4904" lon="6.71936"><ele></ele><time>2016-9-26T4:35:1Z</time></trkpt>
<trkpt lat="46.49027" lon="6.71963"><ele></ele><time>2016-9-26T4:35:4Z</time></trkpt>
<trkpt lat="46.49019" lon="6.71974"><ele></ele><time>2016-9-26T4:35:7Z</time></trkpt>
<trkpt lat="46.48997" lon="6.71983"><ele></ele><time>2016-9-26T4:35:10Z</time></trkpt>
<trkpt lat="46.48977" lon="6.71984"><ele></ele><time>2016-9-26T4:35:13Z</time></trkpt>
<trkpt lat="46.48965" lon="6.7198"><ele></ele><time>2016-9-26T4:35:16Z</time></trkpt>
<trkpt lat="46.4896" lon="6.71977"><ele></ele><time>2016-9-26T4:35:19Z</time></trkpt>
<trkpt lat="46.48956" lon="6.71975"><ele></ele><time>2016-9-26T4:35:22Z</time></trkpt>
<trkpt lat="46.48946" lon="6.71971"><ele></ele><time>2016-9-26T4:35:25Z</time></trkpt>
<trkpt lat="46.48944" lon="6.71972"><ele></ele><time>2016-9-26T4:35:28Z</time></trkpt>
<trkpt lat="46.48943" lon="6.71971"><ele></ele><time>2016-9-26T4:35:31Z</time></trkpt>
<trkpt lat="46.48945" lon="6.71967"><ele></ele><time>2016-9-26T4:35:34Z</time></trkpt>
<trkpt lat="46.48945" lon="6.71967"><ele></ele><time>2016-9-26T4:35:37Z</time></trkpt>
<trkpt lat="46.48945" lon="6.71966"><ele></ele><time>2016-9-26T4:35:40Z</time></trkpt>
<trkpt lat="46.48945" lon="6.71966"><ele></ele><time>2016-9-26T4:35:43Z</time></trkpt>
<trkpt lat="46.48945" lon="6.71967"><ele></ele><time>2016-9-26T4:35:46Z</time></trkpt>
<trkpt lat="46.48945" lon="6.71968"><ele></ele><time>2016-9-26T4:35:49Z</time></trkpt>
<trkpt lat="46.48943" lon="6.71972"><ele></ele><time>2016-9-26T4:35:52Z</time></trkpt>
<trkpt lat="46.48944" lon="6.71969"><ele></ele><time>2016-9-26T4:35:55Z</time></trkpt>
<trkpt lat="46.48945" lon="6.71967"><ele></ele><time>2016-9-26T4:35:58Z</time></trkpt>
<trkpt lat="46.48946" lon="6.71967"><ele></ele><time>2016-9-26T4:36:1Z</time></trkpt>
<trkpt lat="46.48945" lon="6.71967"><ele></ele><time>2016-9-26T4:36:4Z</time></trkpt>
<trkpt lat="46.48944" lon="6.71968"><ele></ele><time>2016-9-26T4:36:7Z</time></trkpt>
<trkpt lat="46.48944" lon="6.71968"><ele></ele><time>2016-9-26T4:36:10Z</time></trkpt>
<trkpt lat="46.48944" lon="6.71967"><ele></ele><time>2016-9-26T4:36:13Z</time></trkpt>
<trkpt lat="46.48944" lon="6.71966"><ele></ele><time>2016-9-26T4:36:16Z</time></trkpt>
<trkpt lat="46.48945" lon="6.71967"><ele></ele><time>2016-9-26T4:36:19Z</time></trkpt>
<trkpt lat="46.48946" lon="6.71967"><ele></ele><time>2016-9-26T4:36:22Z</time></trkpt>
<trkpt lat="46.48946" lon="6.71967"><ele></ele><time>2016-9-26T4:36:25Z</time></trkpt>
<trkpt lat="46.48946" lon="6.7197"><ele></ele><time>2016-9-26T4:36:28Z</time></trkpt>
<trkpt lat="46.48947" lon="6.71969"><ele></ele><time>2016-9-26T4:36:31Z</time></trkpt>
<trkpt lat="46.48947" lon="6.71972"><ele></ele><time>2016-9-26T4:36:34Z</time></trkpt>
<trkpt lat="46.48946" lon="6.71977"><ele></ele><time>2016-9-26T4:36:37Z</time></trkpt>
<trkpt lat="46.48933" lon="6.71995"><ele></ele><time>2016-9-26T4:36:40Z</time></trkpt>
<trkpt lat="46.48914" lon="6.72017"><ele></ele><time>2016-9-26T4:36:43Z</time></trkpt>
<trkpt lat="46.48905" lon="6.7203"><ele></ele><time>2016-9-26T4:36:46Z</time></trkpt>
<trkpt lat="46.48895" lon="6.72057"><ele></ele><time>2016-9-26T4:36:49Z</time></trkpt>
<trkpt lat="46.4889" lon="6.72075"><ele></ele><time>2016-9-26T4:36:52Z</time></trkpt>
<trkpt lat="46.48879" lon="6.72098"><ele></ele><time>2016-9-26T4:36:55Z</time></trkpt>
<trkpt lat="46.48876" lon="6.72104"><ele></ele><time>2016-9-26T4:36:58Z</time></trkpt>
<trkpt lat="46.48865" lon="6.72131"><ele></ele><time>2016-9-26T4:37:1Z</time></trkpt>
<trkpt lat="46.48858" lon="6.72148"><ele></ele><time>2016-9-26T4:37:4Z</time></trkpt>
<trkpt lat="46.48854" lon="6.72153"><ele></ele><time>2016-9-26T4:37:7Z</time></trkpt>
<trkpt lat="46.48848" lon="6.72156"><ele></ele><time>2016-9-26T4:37:10Z</time></trkpt>
<trkpt lat="46.48843" lon="6.72158"><ele></ele><time>2016-9-26T4:37:13Z</time></trkpt>
<trkpt lat="46.48823" lon="6.72162"><ele></ele><time>2016-9-26T4:37:16Z</time></trkpt>
<trkpt lat="46.48817" lon="6.72154"><ele></ele><time>2016-9-26T4:37:19Z</time></trkpt>
<trkpt lat="46.48817" lon="6.72149"><ele></ele><time>2016-9-26T4:37:22Z</time></trkpt>
<trkpt lat="46.48817" lon="6.72144"><ele></ele><time>2016-9-26T4:37:25Z</time></trkpt>
<trkpt lat="46.48821" lon="6.72118"><ele></ele><time>2016-9-26T4:37:28Z</time></trkpt>
<trkpt lat="46.48828" lon="6.72086"><ele></ele><time>2016-9-26T4:37:31Z</time></trkpt>
<trkpt lat="46.48838" lon="6.72056"><ele></ele><time>2016-9-26T4:37:34Z</time></trkpt>
<trkpt lat="46.48849" lon="6.7203"><ele></ele><time>2016-9-26T4:37:37Z</time></trkpt>
<trkpt lat="46.4886" lon="6.72008"><ele></ele><time>2016-9-26T4:37:40Z</time></trkpt>
<trkpt lat="46.48873" lon="6.71986"><ele></ele><time>2016-9-26T4:37:43Z</time></trkpt>
<trkpt lat="46.48881" lon="6.71973"><ele></ele><time>2016-9-26T4:37:46Z</time></trkpt>
<trkpt lat="46.48897" lon="6.71948"><ele></ele><time>2016-9-26T4:37:49Z</time></trkpt>
<trkpt lat="46.48912" lon="6.71922"><ele></ele><time>2016-9-26T4:37:52Z</time></trkpt>
<trkpt lat="46.48925" lon="6.71896"><ele></ele><time>2016-9-26T4:37:55Z</time></trkpt>
<trkpt lat="46.4894" lon="6.71869"><ele></ele><time>2016-9-26T4:37:58Z</time></trkpt>
<trkpt lat="46.48953" lon="6.71846"><ele></ele><time>2016-9-26T4:38:1Z</time></trkpt>
<trkpt lat="46.48968" lon="6.71821"><ele></ele><time>2016-9-26T4:38:4Z</time></trkpt>
<trkpt lat="46.48981" lon="6.718"><ele></ele><time>2016-9-26T4:38:7Z</time></trkpt>
<trkpt lat="46.4899" lon="6.71789"><ele></ele><time>2016-9-26T4:38:10Z</time></trkpt>
<trkpt lat="46.49008" lon="6.71774"><ele></ele><time>2016-9-26T4:38:13Z</time></trkpt>
<trkpt lat="46.49023" lon="6.71758"><ele></ele><time>2016-9-26T4:38:16Z</time></trkpt>
<trkpt lat="46.49046" lon="6.71734"><ele></ele><time>2016-9-26T4:38:19Z</time></trkpt>
<trkpt lat="46.4906" lon="6.71723"><ele></ele><time>2016-9-26T4:38:22Z</time></trkpt>
<trkpt lat="46.49073" lon="6.71705"><ele></ele><time>2016-9-26T4:38:25Z</time></trkpt>
<trkpt lat="46.4908" lon="6.71692"><ele></ele><time>2016-9-26T4:38:28Z</time></trkpt>
<trkpt lat="46.49094" lon="6.71669"><ele></ele><time>2016-9-26T4:38:31Z</time></trkpt>
<trkpt lat="46.49108" lon="6.71649"><ele></ele><time>2016-9-26T4:38:34Z</time></trkpt>
<trkpt lat="46.49111" lon="6.71645"><ele></ele><time>2016-9-26T4:38:37Z</time></trkpt>
<trkpt lat="46.49125" lon="6.71628"><ele></ele><time>2016-9-26T4:38:40Z</time></trkpt>
<trkpt lat="46.49138" lon="6.71608"><ele></ele><time>2016-9-26T4:38:43Z</time></trkpt>
<trkpt lat="46.49152" lon="6.7158"><ele></ele><time>2016-9-26T4:38:46Z</time></trkpt>
<trkpt lat="46.49167" lon="6.71552"><ele></ele><time>2016-9-26T4:38:49Z</time></trkpt>
<trkpt lat="46.49176" lon="6.71531"><ele></ele><time>2016-9-26T4:38:52Z</time></trkpt>
<trkpt lat="46.49186" lon="6.71496"><ele></ele><time>2016-9-26T4:38:55Z</time></trkpt>
<trkpt lat="46.49192" lon="6.71472"><ele></ele><time>2016-9-26T4:38:58Z</time></trkpt>
<trkpt lat="46.492" lon="6.71438"><ele></ele><time>2016-9-26T4:39:1Z</time></trkpt>
<trkpt lat="46.49203" lon="6.71419"><ele></ele><time>2016-9-26T4:39:4Z</time></trkpt>
<trkpt lat="46.49202" lon="6.71393"><ele></ele><time>2016-9-26T4:39:7Z</time></trkpt>
<trkpt lat="46.49202" lon="6.71373"><ele></ele><time>2016-9-26T4:39:10Z</time></trkpt>
<trkpt lat="46.49205" lon="6.71338"><ele></ele><time>2016-9-26T4:39:13Z</time></trkpt>
<trkpt lat="46.49206" lon="6.71328"><ele></ele><time>2016-9-26T4:39:16Z</time></trkpt>
<trkpt lat="46.49214" lon="6.71303"><ele></ele><time>2016-9-26T4:39:19Z</time></trkpt>
<trkpt lat="46.49226" lon="6.71279"><ele></ele><time>2016-9-26T4:39:22Z</time></trkpt>
<trkpt lat="46.4925" lon="6.71246"><ele></ele><time>2016-9-26T4:39:25Z</time></trkpt>
<trkpt lat="46.49265" lon="6.7123"><ele></ele><time>2016-9-26T4:39:28Z</time></trkpt>
<trkpt lat="46.49283" lon="6.71212"><ele></ele><time>2016-9-26T4:39:31Z</time></trkpt>
<trkpt lat="46.49289" lon="6.71205"><ele></ele><time>2016-9-26T4:39:34Z</time></trkpt>
<trkpt lat="46.49305" lon="6.71182"><ele></ele><time>2016-9-26T4:39:37Z</time></trkpt>
<trkpt lat="46.49317" lon="6.71159"><ele></ele><time>2016-9-26T4:39:40Z</time></trkpt>
<trkpt lat="46.4933" lon="6.71129"><ele></ele><time>2016-9-26T4:39:43Z</time></trkpt>
<trkpt lat="46.49346" lon="6.71102"><ele></ele><time>2016-9-26T4:39:46Z</time></trkpt>
<trkpt lat="46.49352" lon="6.71095"><ele></ele><time>2016-9-26T4:39:49Z</time></trkpt>
<trkpt lat="46.49369" lon="6.71079"><ele></ele><time>2016-9-26T4:39:52Z</time></trkpt>
<trkpt lat="46.49387" lon="6.71066"><ele></ele><time>2016-9-26T4:39:55Z</time></trkpt>
<trkpt lat="46.4939" lon="6.71063"><ele></ele><time>2016-9-26T4:39:58Z</time></trkpt>
<trkpt lat="46.49409" lon="6.71052"><ele></ele><time>2016-9-26T4:40:1Z</time></trkpt>
<trkpt lat="46.49417" lon="6.71046"><ele></ele><time>2016-9-26T4:40:4Z</time></trkpt>
<trkpt lat="46.49437" lon="6.71031"><ele></ele><time>2016-9-26T4:40:7Z</time></trkpt>
<trkpt lat="46.49441" lon="6.71026"><ele></ele><time>2016-9-26T4:40:10Z</time></trkpt>
<trkpt lat="46.49455" lon="6.71008"><ele></ele><time>2016-9-26T4:40:13Z</time></trkpt>
<trkpt lat="46.49469" lon="6.70984"><ele></ele><time>2016-9-26T4:40:16Z</time></trkpt>
<trkpt lat="46.49481" lon="6.70961"><ele></ele><time>2016-9-26T4:40:19Z</time></trkpt>
<trkpt lat="46.49493" lon="6.70935"><ele></ele><time>2016-9-26T4:40:22Z</time></trkpt>
<trkpt lat="46.49501" lon="6.70917"><ele></ele><time>2016-9-26T4:40:25Z</time></trkpt>
<trkpt lat="46.49499" lon="6.70913"><ele></ele><time>2016-9-26T4:40:28Z</time></trkpt>
<trkpt lat="46.49486" lon="6.70891"><ele></ele><time>2016-9-26T4:40:31Z</time></trkpt>
<trkpt lat="46.49467" lon="6.70896"><ele></ele><time>2016-9-26T4:40:34Z</time></trkpt>
<trkpt lat="46.49463" lon="6.70902"><ele></ele><time>2016-9-26T4:40:37Z</time></trkpt>
<trkpt lat="46.49459" lon="6.70909"><ele></ele><time>2016-9-26T4:40:40Z</time></trkpt>
<trkpt lat="46.49446" lon="6.70932"><ele></ele><time>2016-9-26T4:40:43Z</time></trkpt>
<trkpt lat="46.49436" lon="6.70948"><ele></ele><time>2016-9-26T4:40:46Z</time></trkpt>
<trkpt lat="46.49435" lon="6.70952"><ele></ele><time>2016-9-26T4:40:49Z</time></trkpt>
<trkpt lat="46.49435" lon="6.70952"><ele></ele><time>2016-9-26T4:40:52Z</time></trkpt>
<trkpt lat="46.49435" lon="6.70951"><ele></ele><time>2016-9-26T4:40:55Z</time></trkpt>
</trkseg></trk></gpx>